<?xml version="1.0" encoding="utf-8"?>
<gpx xmlns:xsi="http://www.w3.org/2001/XMLSchema-instance" xmlns:xsd="http://www.w3.org/2001/XMLSchema" version="1.1" creator="Shapelink.com" xmlns="http://www.topografix.com/GPX/1/1" xmlns:gpxtpx="http://www.garmin.com/xmlschemas/TrackPointExtension/v1">
  <metadata>
    <name>Ejecutar 5.39 km, 2020-01-15</name>
    <desc></desc>
    <author><name>Peter Littke</name></author> 
    <time>2020-01-15T06:29:29Z</time>
  </metadata>
  <trk>
    <name>Ejecutar 5.39 km, 2020-01-15</name>
    <trkseg>
      <trkpt lat="59.299143" lon="18.081662">
        <ele>43</ele>
        <time>2020-01-15T06:29:29Z</time>
      </trkpt>
      <trkpt lat="59.299151" lon="18.081713">
        <ele>44</ele>
        <time>2020-01-15T06:29:32Z</time>
      </trkpt>
      <trkpt lat="59.299157" lon="18.081747">
        <ele>44</ele>
        <time>2020-01-15T06:29:33Z</time>
      </trkpt>
      <trkpt lat="59.299166" lon="18.081792">
        <ele>44</ele>
        <time>2020-01-15T06:29:34Z</time>
      </trkpt>
      <trkpt lat="59.299175" lon="18.081851">
        <ele>44</ele>
        <time>2020-01-15T06:29:35Z</time>
      </trkpt>
      <trkpt lat="59.299184" lon="18.081912">
        <ele>45</ele>
        <time>2020-01-15T06:29:36Z</time>
      </trkpt>
      <trkpt lat="59.299192" lon="18.081968">
        <ele>45</ele>
        <time>2020-01-15T06:29:37Z</time>
      </trkpt>
      <trkpt lat="59.299198" lon="18.082027">
        <ele>45</ele>
        <time>2020-01-15T06:29:38Z</time>
      </trkpt>
      <trkpt lat="59.299196" lon="18.082082">
        <ele>45</ele>
        <time>2020-01-15T06:29:39Z</time>
      </trkpt>
      <trkpt lat="59.299191" lon="18.082135">
        <ele>45</ele>
        <time>2020-01-15T06:29:40Z</time>
      </trkpt>
      <trkpt lat="59.299183" lon="18.082182">
        <ele>45</ele>
        <time>2020-01-15T06:29:41Z</time>
      </trkpt>
      <trkpt lat="59.299168" lon="18.082222">
        <ele>45</ele>
        <time>2020-01-15T06:29:42Z</time>
      </trkpt>
      <trkpt lat="59.299146" lon="18.082258">
        <ele>45</ele>
        <time>2020-01-15T06:29:43Z</time>
      </trkpt>
      <trkpt lat="59.299122" lon="18.082285">
        <ele>45</ele>
        <time>2020-01-15T06:29:44Z</time>
      </trkpt>
      <trkpt lat="59.299092" lon="18.082312">
        <ele>45</ele>
        <time>2020-01-15T06:29:45Z</time>
      </trkpt>
      <trkpt lat="59.299064" lon="18.082339">
        <ele>44</ele>
        <time>2020-01-15T06:29:46Z</time>
      </trkpt>
      <trkpt lat="59.299032" lon="18.082364">
        <ele>44</ele>
        <time>2020-01-15T06:29:47Z</time>
      </trkpt>
      <trkpt lat="59.299001" lon="18.082389">
        <ele>0</ele>
        <time>2020-01-15T06:29:47Z</time>
      </trkpt>
      <trkpt lat="59.29897" lon="18.082404">
        <ele>44</ele>
        <time>2020-01-15T06:29:48Z</time>
      </trkpt>
      <trkpt lat="59.298941" lon="18.082419">
        <ele>44</ele>
        <time>2020-01-15T06:29:50Z</time>
      </trkpt>
      <trkpt lat="59.298912" lon="18.082442">
        <ele>44</ele>
        <time>2020-01-15T06:29:51Z</time>
      </trkpt>
      <trkpt lat="59.298882" lon="18.082462">
        <ele>44</ele>
        <time>2020-01-15T06:29:52Z</time>
      </trkpt>
      <trkpt lat="59.298852" lon="18.082482">
        <ele>44</ele>
        <time>2020-01-15T06:29:53Z</time>
      </trkpt>
      <trkpt lat="59.298824" lon="18.082502">
        <ele>44</ele>
        <time>2020-01-15T06:29:54Z</time>
      </trkpt>
      <trkpt lat="59.298804" lon="18.082522">
        <ele>44</ele>
        <time>2020-01-15T06:29:55Z</time>
      </trkpt>
      <trkpt lat="59.298786" lon="18.082531">
        <ele>45</ele>
        <time>2020-01-15T06:29:56Z</time>
      </trkpt>
      <trkpt lat="59.298787" lon="18.082491">
        <ele>44</ele>
        <time>2020-01-15T06:29:58Z</time>
      </trkpt>
      <trkpt lat="59.298812" lon="18.082457">
        <ele>44</ele>
        <time>2020-01-15T06:30:00Z</time>
      </trkpt>
      <trkpt lat="59.298832" lon="18.082432">
        <ele>44</ele>
        <time>2020-01-15T06:30:01Z</time>
      </trkpt>
      <trkpt lat="59.298852" lon="18.082409">
        <ele>44</ele>
        <time>2020-01-15T06:30:02Z</time>
      </trkpt>
      <trkpt lat="59.298881" lon="18.082381">
        <ele>44</ele>
        <time>2020-01-15T06:30:03Z</time>
      </trkpt>
      <trkpt lat="59.298907" lon="18.082352">
        <ele>44</ele>
        <time>2020-01-15T06:30:04Z</time>
      </trkpt>
      <trkpt lat="59.298926" lon="18.082323">
        <ele>44</ele>
        <time>2020-01-15T06:30:05Z</time>
      </trkpt>
      <trkpt lat="59.298946" lon="18.082297">
        <ele>44</ele>
        <time>2020-01-15T06:30:06Z</time>
      </trkpt>
      <trkpt lat="59.298965" lon="18.082281">
        <ele>0</ele>
        <time>2020-01-15T06:30:06Z</time>
      </trkpt>
      <trkpt lat="59.298991" lon="18.082255">
        <ele>44</ele>
        <time>2020-01-15T06:30:07Z</time>
      </trkpt>
      <trkpt lat="59.299011" lon="18.08223">
        <ele>0</ele>
        <time>2020-01-15T06:30:08Z</time>
      </trkpt>
      <trkpt lat="59.299036" lon="18.08221">
        <ele>44</ele>
        <time>2020-01-15T06:30:09Z</time>
      </trkpt>
      <trkpt lat="59.299058" lon="18.082203">
        <ele>44</ele>
        <time>2020-01-15T06:30:11Z</time>
      </trkpt>
      <trkpt lat="59.299093" lon="18.082204">
        <ele>44</ele>
        <time>2020-01-15T06:30:13Z</time>
      </trkpt>
      <trkpt lat="59.299118" lon="18.082216">
        <ele>44</ele>
        <time>2020-01-15T06:30:14Z</time>
      </trkpt>
      <trkpt lat="59.299144" lon="18.082221">
        <ele>44</ele>
        <time>2020-01-15T06:30:15Z</time>
      </trkpt>
      <trkpt lat="59.299172" lon="18.082223">
        <ele>43</ele>
        <time>2020-01-15T06:30:16Z</time>
      </trkpt>
      <trkpt lat="59.299205" lon="18.082225">
        <ele>43</ele>
        <time>2020-01-15T06:30:17Z</time>
      </trkpt>
      <trkpt lat="59.299238" lon="18.082218">
        <ele>43</ele>
        <time>2020-01-15T06:30:18Z</time>
      </trkpt>
      <trkpt lat="59.29927" lon="18.08224">
        <ele>43</ele>
        <time>2020-01-15T06:30:19Z</time>
      </trkpt>
      <trkpt lat="59.299298" lon="18.082267">
        <ele>43</ele>
        <time>2020-01-15T06:30:20Z</time>
      </trkpt>
      <trkpt lat="59.299323" lon="18.082287">
        <ele>43</ele>
        <time>2020-01-15T06:30:21Z</time>
      </trkpt>
      <trkpt lat="59.299354" lon="18.082298">
        <ele>43</ele>
        <time>2020-01-15T06:30:22Z</time>
      </trkpt>
      <trkpt lat="59.299383" lon="18.082292">
        <ele>43</ele>
        <time>2020-01-15T06:30:23Z</time>
      </trkpt>
      <trkpt lat="59.299411" lon="18.082277">
        <ele>43</ele>
        <time>2020-01-15T06:30:24Z</time>
      </trkpt>
      <trkpt lat="59.299442" lon="18.082258">
        <ele>43</ele>
        <time>2020-01-15T06:30:25Z</time>
      </trkpt>
      <trkpt lat="59.299471" lon="18.082239">
        <ele>0</ele>
        <time>2020-01-15T06:30:25Z</time>
      </trkpt>
      <trkpt lat="59.299493" lon="18.08222">
        <ele>44</ele>
        <time>2020-01-15T06:30:26Z</time>
      </trkpt>
      <trkpt lat="59.299517" lon="18.082196">
        <ele>44</ele>
        <time>2020-01-15T06:30:28Z</time>
      </trkpt>
      <trkpt lat="59.29954" lon="18.082176">
        <ele>44</ele>
        <time>2020-01-15T06:30:29Z</time>
      </trkpt>
      <trkpt lat="59.299565" lon="18.082162">
        <ele>44</ele>
        <time>2020-01-15T06:30:30Z</time>
      </trkpt>
      <trkpt lat="59.29959" lon="18.082142">
        <ele>44</ele>
        <time>2020-01-15T06:30:31Z</time>
      </trkpt>
      <trkpt lat="59.299612" lon="18.082123">
        <ele>44</ele>
        <time>2020-01-15T06:30:32Z</time>
      </trkpt>
      <trkpt lat="59.29964" lon="18.082094">
        <ele>44</ele>
        <time>2020-01-15T06:30:33Z</time>
      </trkpt>
      <trkpt lat="59.299667" lon="18.082076">
        <ele>44</ele>
        <time>2020-01-15T06:30:34Z</time>
      </trkpt>
      <trkpt lat="59.299701" lon="18.082055">
        <ele>44</ele>
        <time>2020-01-15T06:30:35Z</time>
      </trkpt>
      <trkpt lat="59.299732" lon="18.082032">
        <ele>43</ele>
        <time>2020-01-15T06:30:36Z</time>
      </trkpt>
      <trkpt lat="59.299758" lon="18.082016">
        <ele>43</ele>
        <time>2020-01-15T06:30:37Z</time>
      </trkpt>
      <trkpt lat="59.299784" lon="18.081992">
        <ele>43</ele>
        <time>2020-01-15T06:30:38Z</time>
      </trkpt>
      <trkpt lat="59.299808" lon="18.081973">
        <ele>43</ele>
        <time>2020-01-15T06:30:39Z</time>
      </trkpt>
      <trkpt lat="59.299834" lon="18.081953">
        <ele>43</ele>
        <time>2020-01-15T06:30:40Z</time>
      </trkpt>
      <trkpt lat="59.29986" lon="18.081939">
        <ele>43</ele>
        <time>2020-01-15T06:30:41Z</time>
      </trkpt>
      <trkpt lat="59.299885" lon="18.081928">
        <ele>43</ele>
        <time>2020-01-15T06:30:42Z</time>
      </trkpt>
      <trkpt lat="59.299911" lon="18.081911">
        <ele>43</ele>
        <time>2020-01-15T06:30:43Z</time>
      </trkpt>
      <trkpt lat="59.299937" lon="18.081892">
        <ele>42</ele>
        <time>2020-01-15T06:30:44Z</time>
      </trkpt>
      <trkpt lat="59.299961" lon="18.081873">
        <ele>0</ele>
        <time>2020-01-15T06:30:44Z</time>
      </trkpt>
      <trkpt lat="59.299983" lon="18.081854">
        <ele>42</ele>
        <time>2020-01-15T06:30:45Z</time>
      </trkpt>
      <trkpt lat="59.300008" lon="18.081835">
        <ele>42</ele>
        <time>2020-01-15T06:30:47Z</time>
      </trkpt>
      <trkpt lat="59.300034" lon="18.081813">
        <ele>41</ele>
        <time>2020-01-15T06:30:48Z</time>
      </trkpt>
      <trkpt lat="59.300057" lon="18.081791">
        <ele>41</ele>
        <time>2020-01-15T06:30:49Z</time>
      </trkpt>
      <trkpt lat="59.300079" lon="18.081769">
        <ele>41</ele>
        <time>2020-01-15T06:30:50Z</time>
      </trkpt>
      <trkpt lat="59.300103" lon="18.081749">
        <ele>41</ele>
        <time>2020-01-15T06:30:51Z</time>
      </trkpt>
      <trkpt lat="59.300127" lon="18.081732">
        <ele>41</ele>
        <time>2020-01-15T06:30:52Z</time>
      </trkpt>
      <trkpt lat="59.300153" lon="18.081717">
        <ele>41</ele>
        <time>2020-01-15T06:30:53Z</time>
      </trkpt>
      <trkpt lat="59.300176" lon="18.081701">
        <ele>41</ele>
        <time>2020-01-15T06:30:54Z</time>
      </trkpt>
      <trkpt lat="59.300202" lon="18.081685">
        <ele>41</ele>
        <time>2020-01-15T06:30:55Z</time>
      </trkpt>
      <trkpt lat="59.300228" lon="18.08167">
        <ele>41</ele>
        <time>2020-01-15T06:30:56Z</time>
      </trkpt>
      <trkpt lat="59.300253" lon="18.081656">
        <ele>41</ele>
        <time>2020-01-15T06:30:57Z</time>
      </trkpt>
      <trkpt lat="59.300278" lon="18.081637">
        <ele>41</ele>
        <time>2020-01-15T06:30:58Z</time>
      </trkpt>
      <trkpt lat="59.300304" lon="18.081623">
        <ele>41</ele>
        <time>2020-01-15T06:30:59Z</time>
      </trkpt>
      <trkpt lat="59.30033" lon="18.081599">
        <ele>41</ele>
        <time>2020-01-15T06:31:00Z</time>
      </trkpt>
      <trkpt lat="59.300354" lon="18.081579">
        <ele>41</ele>
        <time>2020-01-15T06:31:01Z</time>
      </trkpt>
      <trkpt lat="59.300378" lon="18.081558">
        <ele>41</ele>
        <time>2020-01-15T06:31:02Z</time>
      </trkpt>
      <trkpt lat="59.300404" lon="18.081539">
        <ele>0</ele>
        <time>2020-01-15T06:31:02Z</time>
      </trkpt>
      <trkpt lat="59.300428" lon="18.081523">
        <ele>41</ele>
        <time>2020-01-15T06:31:03Z</time>
      </trkpt>
      <trkpt lat="59.30045" lon="18.081502">
        <ele>41</ele>
        <time>2020-01-15T06:31:04Z</time>
      </trkpt>
      <trkpt lat="59.300472" lon="18.081485">
        <ele>41</ele>
        <time>2020-01-15T06:31:06Z</time>
      </trkpt>
      <trkpt lat="59.300498" lon="18.08147">
        <ele>41</ele>
        <time>2020-01-15T06:31:07Z</time>
      </trkpt>
      <trkpt lat="59.300524" lon="18.081452">
        <ele>41</ele>
        <time>2020-01-15T06:31:08Z</time>
      </trkpt>
      <trkpt lat="59.300547" lon="18.081431">
        <ele>41</ele>
        <time>2020-01-15T06:31:09Z</time>
      </trkpt>
      <trkpt lat="59.300569" lon="18.081404">
        <ele>41</ele>
        <time>2020-01-15T06:31:10Z</time>
      </trkpt>
      <trkpt lat="59.300588" lon="18.081385">
        <ele>41</ele>
        <time>2020-01-15T06:31:11Z</time>
      </trkpt>
      <trkpt lat="59.300608" lon="18.081362">
        <ele>41</ele>
        <time>2020-01-15T06:31:12Z</time>
      </trkpt>
      <trkpt lat="59.300634" lon="18.081341">
        <ele>41</ele>
        <time>2020-01-15T06:31:13Z</time>
      </trkpt>
      <trkpt lat="59.300658" lon="18.081321">
        <ele>41</ele>
        <time>2020-01-15T06:31:14Z</time>
      </trkpt>
      <trkpt lat="59.300682" lon="18.081295">
        <ele>41</ele>
        <time>2020-01-15T06:31:15Z</time>
      </trkpt>
      <trkpt lat="59.300711" lon="18.081273">
        <ele>41</ele>
        <time>2020-01-15T06:31:16Z</time>
      </trkpt>
      <trkpt lat="59.300736" lon="18.081252">
        <ele>42</ele>
        <time>2020-01-15T06:31:17Z</time>
      </trkpt>
      <trkpt lat="59.300762" lon="18.081228">
        <ele>42</ele>
        <time>2020-01-15T06:31:18Z</time>
      </trkpt>
      <trkpt lat="59.300786" lon="18.081207">
        <ele>42</ele>
        <time>2020-01-15T06:31:19Z</time>
      </trkpt>
      <trkpt lat="59.300811" lon="18.081185">
        <ele>42</ele>
        <time>2020-01-15T06:31:20Z</time>
      </trkpt>
      <trkpt lat="59.300834" lon="18.081162">
        <ele>42</ele>
        <time>2020-01-15T06:31:21Z</time>
      </trkpt>
      <trkpt lat="59.300858" lon="18.081151">
        <ele>42</ele>
        <time>2020-01-15T06:31:22Z</time>
      </trkpt>
      <trkpt lat="59.300883" lon="18.081136">
        <ele>0</ele>
        <time>2020-01-15T06:31:22Z</time>
      </trkpt>
      <trkpt lat="59.300905" lon="18.081108">
        <ele>42</ele>
        <time>2020-01-15T06:31:23Z</time>
      </trkpt>
      <trkpt lat="59.300927" lon="18.081086">
        <ele>42</ele>
        <time>2020-01-15T06:31:25Z</time>
      </trkpt>
      <trkpt lat="59.300951" lon="18.081066">
        <ele>42</ele>
        <time>2020-01-15T06:31:26Z</time>
      </trkpt>
      <trkpt lat="59.300976" lon="18.081049">
        <ele>42</ele>
        <time>2020-01-15T06:31:27Z</time>
      </trkpt>
      <trkpt lat="59.301001" lon="18.081025">
        <ele>42</ele>
        <time>2020-01-15T06:31:28Z</time>
      </trkpt>
      <trkpt lat="59.301025" lon="18.081001">
        <ele>42</ele>
        <time>2020-01-15T06:31:29Z</time>
      </trkpt>
      <trkpt lat="59.30105" lon="18.080971">
        <ele>42</ele>
        <time>2020-01-15T06:31:30Z</time>
      </trkpt>
      <trkpt lat="59.301075" lon="18.080945">
        <ele>42</ele>
        <time>2020-01-15T06:31:31Z</time>
      </trkpt>
      <trkpt lat="59.301103" lon="18.080923">
        <ele>42</ele>
        <time>2020-01-15T06:31:32Z</time>
      </trkpt>
      <trkpt lat="59.30113" lon="18.080907">
        <ele>42</ele>
        <time>2020-01-15T06:31:33Z</time>
      </trkpt>
      <trkpt lat="59.301158" lon="18.08088">
        <ele>42</ele>
        <time>2020-01-15T06:31:34Z</time>
      </trkpt>
      <trkpt lat="59.301189" lon="18.080857">
        <ele>42</ele>
        <time>2020-01-15T06:31:35Z</time>
      </trkpt>
      <trkpt lat="59.301215" lon="18.080831">
        <ele>42</ele>
        <time>2020-01-15T06:31:36Z</time>
      </trkpt>
      <trkpt lat="59.30124" lon="18.080807">
        <ele>42</ele>
        <time>2020-01-15T06:31:37Z</time>
      </trkpt>
      <trkpt lat="59.301267" lon="18.080785">
        <ele>42</ele>
        <time>2020-01-15T06:31:38Z</time>
      </trkpt>
      <trkpt lat="59.301293" lon="18.080764">
        <ele>42</ele>
        <time>2020-01-15T06:31:39Z</time>
      </trkpt>
      <trkpt lat="59.301317" lon="18.080743">
        <ele>0</ele>
        <time>2020-01-15T06:31:39Z</time>
      </trkpt>
      <trkpt lat="59.301344" lon="18.080717">
        <ele>42</ele>
        <time>2020-01-15T06:31:40Z</time>
      </trkpt>
      <trkpt lat="59.301371" lon="18.080694">
        <ele>0</ele>
        <time>2020-01-15T06:31:41Z</time>
      </trkpt>
      <trkpt lat="59.301398" lon="18.080667">
        <ele>42</ele>
        <time>2020-01-15T06:31:42Z</time>
      </trkpt>
      <trkpt lat="59.301421" lon="18.080638">
        <ele>43</ele>
        <time>2020-01-15T06:31:44Z</time>
      </trkpt>
      <trkpt lat="59.301442" lon="18.080622">
        <ele>42</ele>
        <time>2020-01-15T06:31:45Z</time>
      </trkpt>
      <trkpt lat="59.301467" lon="18.080601">
        <ele>42</ele>
        <time>2020-01-15T06:31:46Z</time>
      </trkpt>
      <trkpt lat="59.301492" lon="18.080577">
        <ele>42</ele>
        <time>2020-01-15T06:31:47Z</time>
      </trkpt>
      <trkpt lat="59.301515" lon="18.08056">
        <ele>42</ele>
        <time>2020-01-15T06:31:48Z</time>
      </trkpt>
      <trkpt lat="59.301536" lon="18.080544">
        <ele>42</ele>
        <time>2020-01-15T06:31:49Z</time>
      </trkpt>
      <trkpt lat="59.30156" lon="18.08053">
        <ele>42</ele>
        <time>2020-01-15T06:31:50Z</time>
      </trkpt>
      <trkpt lat="59.301585" lon="18.080513">
        <ele>42</ele>
        <time>2020-01-15T06:31:51Z</time>
      </trkpt>
      <trkpt lat="59.301606" lon="18.080499">
        <ele>42</ele>
        <time>2020-01-15T06:31:52Z</time>
      </trkpt>
      <trkpt lat="59.30163" lon="18.080489">
        <ele>42</ele>
        <time>2020-01-15T06:31:53Z</time>
      </trkpt>
      <trkpt lat="59.301654" lon="18.080472">
        <ele>42</ele>
        <time>2020-01-15T06:31:54Z</time>
      </trkpt>
      <trkpt lat="59.301677" lon="18.080457">
        <ele>41</ele>
        <time>2020-01-15T06:31:55Z</time>
      </trkpt>
      <trkpt lat="59.3017" lon="18.080442">
        <ele>41</ele>
        <time>2020-01-15T06:31:56Z</time>
      </trkpt>
      <trkpt lat="59.301723" lon="18.08043">
        <ele>41</ele>
        <time>2020-01-15T06:31:57Z</time>
      </trkpt>
      <trkpt lat="59.301746" lon="18.080416">
        <ele>41</ele>
        <time>2020-01-15T06:31:58Z</time>
      </trkpt>
      <trkpt lat="59.30177" lon="18.080403">
        <ele>41</ele>
        <time>2020-01-15T06:31:59Z</time>
      </trkpt>
      <trkpt lat="59.301795" lon="18.080387">
        <ele>0</ele>
        <time>2020-01-15T06:31:59Z</time>
      </trkpt>
      <trkpt lat="59.301821" lon="18.080368">
        <ele>41</ele>
        <time>2020-01-15T06:32:00Z</time>
      </trkpt>
      <trkpt lat="59.301849" lon="18.080351">
        <ele>41</ele>
        <time>2020-01-15T06:32:01Z</time>
      </trkpt>
      <trkpt lat="59.301874" lon="18.080336">
        <ele>40</ele>
        <time>2020-01-15T06:32:03Z</time>
      </trkpt>
      <trkpt lat="59.301899" lon="18.08032">
        <ele>40</ele>
        <time>2020-01-15T06:32:04Z</time>
      </trkpt>
      <trkpt lat="59.301925" lon="18.080308">
        <ele>40</ele>
        <time>2020-01-15T06:32:05Z</time>
      </trkpt>
      <trkpt lat="59.301949" lon="18.080293">
        <ele>40</ele>
        <time>2020-01-15T06:32:06Z</time>
      </trkpt>
      <trkpt lat="59.301973" lon="18.080278">
        <ele>40</ele>
        <time>2020-01-15T06:32:07Z</time>
      </trkpt>
      <trkpt lat="59.301997" lon="18.080266">
        <ele>40</ele>
        <time>2020-01-15T06:32:08Z</time>
      </trkpt>
      <trkpt lat="59.30202" lon="18.080248">
        <ele>40</ele>
        <time>2020-01-15T06:32:09Z</time>
      </trkpt>
      <trkpt lat="59.302044" lon="18.080234">
        <ele>40</ele>
        <time>2020-01-15T06:32:10Z</time>
      </trkpt>
      <trkpt lat="59.302067" lon="18.080216">
        <ele>40</ele>
        <time>2020-01-15T06:32:11Z</time>
      </trkpt>
      <trkpt lat="59.302092" lon="18.080204">
        <ele>40</ele>
        <time>2020-01-15T06:32:12Z</time>
      </trkpt>
      <trkpt lat="59.302117" lon="18.080191">
        <ele>40</ele>
        <time>2020-01-15T06:32:13Z</time>
      </trkpt>
      <trkpt lat="59.302142" lon="18.080174">
        <ele>40</ele>
        <time>2020-01-15T06:32:14Z</time>
      </trkpt>
      <trkpt lat="59.302168" lon="18.08016">
        <ele>40</ele>
        <time>2020-01-15T06:32:15Z</time>
      </trkpt>
      <trkpt lat="59.302191" lon="18.080144">
        <ele>40</ele>
        <time>2020-01-15T06:32:16Z</time>
      </trkpt>
      <trkpt lat="59.302216" lon="18.080124">
        <ele>40</ele>
        <time>2020-01-15T06:32:17Z</time>
      </trkpt>
      <trkpt lat="59.302241" lon="18.08011">
        <ele>40</ele>
        <time>2020-01-15T06:32:18Z</time>
      </trkpt>
      <trkpt lat="59.302266" lon="18.080093">
        <ele>0</ele>
        <time>2020-01-15T06:32:18Z</time>
      </trkpt>
      <trkpt lat="59.302291" lon="18.080078">
        <ele>40</ele>
        <time>2020-01-15T06:32:19Z</time>
      </trkpt>
      <trkpt lat="59.302314" lon="18.080058">
        <ele>40</ele>
        <time>2020-01-15T06:32:20Z</time>
      </trkpt>
      <trkpt lat="59.302339" lon="18.080038">
        <ele>40</ele>
        <time>2020-01-15T06:32:22Z</time>
      </trkpt>
      <trkpt lat="59.302363" lon="18.080022">
        <ele>40</ele>
        <time>2020-01-15T06:32:23Z</time>
      </trkpt>
      <trkpt lat="59.302389" lon="18.080004">
        <ele>40</ele>
        <time>2020-01-15T06:32:24Z</time>
      </trkpt>
      <trkpt lat="59.302415" lon="18.079987">
        <ele>40</ele>
        <time>2020-01-15T06:32:25Z</time>
      </trkpt>
      <trkpt lat="59.302439" lon="18.079969">
        <ele>39</ele>
        <time>2020-01-15T06:32:26Z</time>
      </trkpt>
      <trkpt lat="59.302465" lon="18.079952">
        <ele>39</ele>
        <time>2020-01-15T06:32:27Z</time>
      </trkpt>
      <trkpt lat="59.302491" lon="18.079936">
        <ele>39</ele>
        <time>2020-01-15T06:32:28Z</time>
      </trkpt>
      <trkpt lat="59.302517" lon="18.079924">
        <ele>39</ele>
        <time>2020-01-15T06:32:29Z</time>
      </trkpt>
      <trkpt lat="59.302544" lon="18.07991">
        <ele>39</ele>
        <time>2020-01-15T06:32:30Z</time>
      </trkpt>
      <trkpt lat="59.302568" lon="18.079892">
        <ele>39</ele>
        <time>2020-01-15T06:32:31Z</time>
      </trkpt>
      <trkpt lat="59.302595" lon="18.079876">
        <ele>39</ele>
        <time>2020-01-15T06:32:32Z</time>
      </trkpt>
      <trkpt lat="59.302621" lon="18.079862">
        <ele>39</ele>
        <time>2020-01-15T06:32:33Z</time>
      </trkpt>
      <trkpt lat="59.302648" lon="18.079845">
        <ele>39</ele>
        <time>2020-01-15T06:32:34Z</time>
      </trkpt>
      <trkpt lat="59.302674" lon="18.079832">
        <ele>39</ele>
        <time>2020-01-15T06:32:35Z</time>
      </trkpt>
      <trkpt lat="59.302698" lon="18.079814">
        <ele>39</ele>
        <time>2020-01-15T06:32:36Z</time>
      </trkpt>
      <trkpt lat="59.302724" lon="18.0798">
        <ele>39</ele>
        <time>2020-01-15T06:32:37Z</time>
      </trkpt>
      <trkpt lat="59.302749" lon="18.079783">
        <ele>0</ele>
        <time>2020-01-15T06:32:37Z</time>
      </trkpt>
      <trkpt lat="59.302775" lon="18.079769">
        <ele>39</ele>
        <time>2020-01-15T06:32:38Z</time>
      </trkpt>
      <trkpt lat="59.3028" lon="18.079756">
        <ele>39</ele>
        <time>2020-01-15T06:32:39Z</time>
      </trkpt>
      <trkpt lat="59.302825" lon="18.07974">
        <ele>39</ele>
        <time>2020-01-15T06:32:41Z</time>
      </trkpt>
      <trkpt lat="59.30285" lon="18.079724">
        <ele>39</ele>
        <time>2020-01-15T06:32:42Z</time>
      </trkpt>
      <trkpt lat="59.302874" lon="18.07971">
        <ele>39</ele>
        <time>2020-01-15T06:32:43Z</time>
      </trkpt>
      <trkpt lat="59.302898" lon="18.0797">
        <ele>39</ele>
        <time>2020-01-15T06:32:44Z</time>
      </trkpt>
      <trkpt lat="59.302923" lon="18.079684">
        <ele>38</ele>
        <time>2020-01-15T06:32:45Z</time>
      </trkpt>
      <trkpt lat="59.302949" lon="18.079669">
        <ele>38</ele>
        <time>2020-01-15T06:32:46Z</time>
      </trkpt>
      <trkpt lat="59.302974" lon="18.079652">
        <ele>38</ele>
        <time>2020-01-15T06:32:47Z</time>
      </trkpt>
      <trkpt lat="59.302998" lon="18.07964">
        <ele>38</ele>
        <time>2020-01-15T06:32:48Z</time>
      </trkpt>
      <trkpt lat="59.303025" lon="18.079628">
        <ele>38</ele>
        <time>2020-01-15T06:32:49Z</time>
      </trkpt>
      <trkpt lat="59.303051" lon="18.079614">
        <ele>38</ele>
        <time>2020-01-15T06:32:50Z</time>
      </trkpt>
      <trkpt lat="59.303076" lon="18.079593">
        <ele>38</ele>
        <time>2020-01-15T06:32:51Z</time>
      </trkpt>
      <trkpt lat="59.303103" lon="18.079576">
        <ele>38</ele>
        <time>2020-01-15T06:32:52Z</time>
      </trkpt>
      <trkpt lat="59.303129" lon="18.079558">
        <ele>38</ele>
        <time>2020-01-15T06:32:53Z</time>
      </trkpt>
      <trkpt lat="59.303155" lon="18.079542">
        <ele>38</ele>
        <time>2020-01-15T06:32:54Z</time>
      </trkpt>
      <trkpt lat="59.303182" lon="18.079526">
        <ele>38</ele>
        <time>2020-01-15T06:32:55Z</time>
      </trkpt>
      <trkpt lat="59.303206" lon="18.079513">
        <ele>38</ele>
        <time>2020-01-15T06:32:56Z</time>
      </trkpt>
      <trkpt lat="59.303231" lon="18.079502">
        <ele>0</ele>
        <time>2020-01-15T06:32:56Z</time>
      </trkpt>
      <trkpt lat="59.303256" lon="18.079488">
        <ele>38</ele>
        <time>2020-01-15T06:32:57Z</time>
      </trkpt>
      <trkpt lat="59.303281" lon="18.079476">
        <ele>37</ele>
        <time>2020-01-15T06:32:58Z</time>
      </trkpt>
      <trkpt lat="59.303306" lon="18.079458">
        <ele>37</ele>
        <time>2020-01-15T06:33:00Z</time>
      </trkpt>
      <trkpt lat="59.303334" lon="18.07944">
        <ele>37</ele>
        <time>2020-01-15T06:33:01Z</time>
      </trkpt>
      <trkpt lat="59.303362" lon="18.079425">
        <ele>37</ele>
        <time>2020-01-15T06:33:02Z</time>
      </trkpt>
      <trkpt lat="59.303389" lon="18.07941">
        <ele>37</ele>
        <time>2020-01-15T06:33:03Z</time>
      </trkpt>
      <trkpt lat="59.303416" lon="18.079394">
        <ele>37</ele>
        <time>2020-01-15T06:33:04Z</time>
      </trkpt>
      <trkpt lat="59.303441" lon="18.079383">
        <ele>37</ele>
        <time>2020-01-15T06:33:05Z</time>
      </trkpt>
      <trkpt lat="59.303467" lon="18.079369">
        <ele>37</ele>
        <time>2020-01-15T06:33:06Z</time>
      </trkpt>
      <trkpt lat="59.303492" lon="18.079353">
        <ele>37</ele>
        <time>2020-01-15T06:33:07Z</time>
      </trkpt>
      <trkpt lat="59.303518" lon="18.079337">
        <ele>37</ele>
        <time>2020-01-15T06:33:08Z</time>
      </trkpt>
      <trkpt lat="59.303544" lon="18.079321">
        <ele>36</ele>
        <time>2020-01-15T06:33:09Z</time>
      </trkpt>
      <trkpt lat="59.303569" lon="18.079302">
        <ele>36</ele>
        <time>2020-01-15T06:33:10Z</time>
      </trkpt>
      <trkpt lat="59.303596" lon="18.079287">
        <ele>36</ele>
        <time>2020-01-15T06:33:11Z</time>
      </trkpt>
      <trkpt lat="59.303622" lon="18.079273">
        <ele>36</ele>
        <time>2020-01-15T06:33:12Z</time>
      </trkpt>
      <trkpt lat="59.303646" lon="18.079258">
        <ele>36</ele>
        <time>2020-01-15T06:33:13Z</time>
      </trkpt>
      <trkpt lat="59.303671" lon="18.079247">
        <ele>36</ele>
        <time>2020-01-15T06:33:14Z</time>
      </trkpt>
      <trkpt lat="59.303696" lon="18.079236">
        <ele>0</ele>
        <time>2020-01-15T06:33:14Z</time>
      </trkpt>
      <trkpt lat="59.30372" lon="18.079223">
        <ele>36</ele>
        <time>2020-01-15T06:33:15Z</time>
      </trkpt>
      <trkpt lat="59.303744" lon="18.079207">
        <ele>0</ele>
        <time>2020-01-15T06:33:16Z</time>
      </trkpt>
      <trkpt lat="59.303769" lon="18.079187">
        <ele>36</ele>
        <time>2020-01-15T06:33:17Z</time>
      </trkpt>
      <trkpt lat="59.303794" lon="18.079168">
        <ele>36</ele>
        <time>2020-01-15T06:33:19Z</time>
      </trkpt>
      <trkpt lat="59.303818" lon="18.079149">
        <ele>36</ele>
        <time>2020-01-15T06:33:20Z</time>
      </trkpt>
      <trkpt lat="59.303843" lon="18.079129">
        <ele>36</ele>
        <time>2020-01-15T06:33:21Z</time>
      </trkpt>
      <trkpt lat="59.303868" lon="18.079111">
        <ele>36</ele>
        <time>2020-01-15T06:33:22Z</time>
      </trkpt>
      <trkpt lat="59.303894" lon="18.079094">
        <ele>36</ele>
        <time>2020-01-15T06:33:23Z</time>
      </trkpt>
      <trkpt lat="59.30392" lon="18.079076">
        <ele>36</ele>
        <time>2020-01-15T06:33:24Z</time>
      </trkpt>
      <trkpt lat="59.303945" lon="18.079058">
        <ele>35</ele>
        <time>2020-01-15T06:33:25Z</time>
      </trkpt>
      <trkpt lat="59.303971" lon="18.079042">
        <ele>35</ele>
        <time>2020-01-15T06:33:26Z</time>
      </trkpt>
      <trkpt lat="59.303996" lon="18.079026">
        <ele>35</ele>
        <time>2020-01-15T06:33:27Z</time>
      </trkpt>
      <trkpt lat="59.304021" lon="18.079011">
        <ele>35</ele>
        <time>2020-01-15T06:33:28Z</time>
      </trkpt>
      <trkpt lat="59.304046" lon="18.078996">
        <ele>35</ele>
        <time>2020-01-15T06:33:29Z</time>
      </trkpt>
      <trkpt lat="59.30407" lon="18.078979">
        <ele>35</ele>
        <time>2020-01-15T06:33:30Z</time>
      </trkpt>
      <trkpt lat="59.304096" lon="18.078963">
        <ele>35</ele>
        <time>2020-01-15T06:33:31Z</time>
      </trkpt>
      <trkpt lat="59.30412" lon="18.078946">
        <ele>35</ele>
        <time>2020-01-15T06:33:32Z</time>
      </trkpt>
      <trkpt lat="59.304145" lon="18.07893">
        <ele>35</ele>
        <time>2020-01-15T06:33:33Z</time>
      </trkpt>
      <trkpt lat="59.304171" lon="18.078913">
        <ele>0</ele>
        <time>2020-01-15T06:33:33Z</time>
      </trkpt>
      <trkpt lat="59.304195" lon="18.078894">
        <ele>35</ele>
        <time>2020-01-15T06:33:34Z</time>
      </trkpt>
      <trkpt lat="59.304221" lon="18.078875">
        <ele>0</ele>
        <time>2020-01-15T06:33:35Z</time>
      </trkpt>
      <trkpt lat="59.304245" lon="18.078859">
        <ele>35</ele>
        <time>2020-01-15T06:33:36Z</time>
      </trkpt>
      <trkpt lat="59.30427" lon="18.078842">
        <ele>35</ele>
        <time>2020-01-15T06:33:38Z</time>
      </trkpt>
      <trkpt lat="59.304295" lon="18.078825">
        <ele>35</ele>
        <time>2020-01-15T06:33:39Z</time>
      </trkpt>
      <trkpt lat="59.30432" lon="18.078807">
        <ele>34</ele>
        <time>2020-01-15T06:33:40Z</time>
      </trkpt>
      <trkpt lat="59.304346" lon="18.078793">
        <ele>34</ele>
        <time>2020-01-15T06:33:41Z</time>
      </trkpt>
      <trkpt lat="59.304371" lon="18.078778">
        <ele>34</ele>
        <time>2020-01-15T06:33:42Z</time>
      </trkpt>
      <trkpt lat="59.304396" lon="18.078764">
        <ele>34</ele>
        <time>2020-01-15T06:33:43Z</time>
      </trkpt>
      <trkpt lat="59.304422" lon="18.078749">
        <ele>34</ele>
        <time>2020-01-15T06:33:44Z</time>
      </trkpt>
      <trkpt lat="59.304445" lon="18.078732">
        <ele>34</ele>
        <time>2020-01-15T06:33:45Z</time>
      </trkpt>
      <trkpt lat="59.304471" lon="18.078715">
        <ele>34</ele>
        <time>2020-01-15T06:33:46Z</time>
      </trkpt>
      <trkpt lat="59.304496" lon="18.078698">
        <ele>34</ele>
        <time>2020-01-15T06:33:47Z</time>
      </trkpt>
      <trkpt lat="59.304521" lon="18.078683">
        <ele>34</ele>
        <time>2020-01-15T06:33:48Z</time>
      </trkpt>
      <trkpt lat="59.304547" lon="18.078668">
        <ele>33</ele>
        <time>2020-01-15T06:33:49Z</time>
      </trkpt>
      <trkpt lat="59.304572" lon="18.078651">
        <ele>33</ele>
        <time>2020-01-15T06:33:50Z</time>
      </trkpt>
      <trkpt lat="59.304598" lon="18.078635">
        <ele>33</ele>
        <time>2020-01-15T06:33:51Z</time>
      </trkpt>
      <trkpt lat="59.304623" lon="18.078621">
        <ele>33</ele>
        <time>2020-01-15T06:33:52Z</time>
      </trkpt>
      <trkpt lat="59.30465" lon="18.078609">
        <ele>0</ele>
        <time>2020-01-15T06:33:52Z</time>
      </trkpt>
      <trkpt lat="59.304677" lon="18.078596">
        <ele>33</ele>
        <time>2020-01-15T06:33:53Z</time>
      </trkpt>
      <trkpt lat="59.304702" lon="18.078578">
        <ele>0</ele>
        <time>2020-01-15T06:33:54Z</time>
      </trkpt>
      <trkpt lat="59.304729" lon="18.078559">
        <ele>33</ele>
        <time>2020-01-15T06:33:55Z</time>
      </trkpt>
      <trkpt lat="59.304754" lon="18.078541">
        <ele>33</ele>
        <time>2020-01-15T06:33:57Z</time>
      </trkpt>
      <trkpt lat="59.30478" lon="18.078525">
        <ele>32</ele>
        <time>2020-01-15T06:33:58Z</time>
      </trkpt>
      <trkpt lat="59.304806" lon="18.078513">
        <ele>32</ele>
        <time>2020-01-15T06:33:59Z</time>
      </trkpt>
      <trkpt lat="59.304831" lon="18.078498">
        <ele>32</ele>
        <time>2020-01-15T06:34:00Z</time>
      </trkpt>
      <trkpt lat="59.304857" lon="18.078482">
        <ele>32</ele>
        <time>2020-01-15T06:34:01Z</time>
      </trkpt>
      <trkpt lat="59.304882" lon="18.078466">
        <ele>32</ele>
        <time>2020-01-15T06:34:02Z</time>
      </trkpt>
      <trkpt lat="59.304908" lon="18.07845">
        <ele>32</ele>
        <time>2020-01-15T06:34:03Z</time>
      </trkpt>
      <trkpt lat="59.304933" lon="18.078433">
        <ele>32</ele>
        <time>2020-01-15T06:34:04Z</time>
      </trkpt>
      <trkpt lat="59.304959" lon="18.078418">
        <ele>32</ele>
        <time>2020-01-15T06:34:05Z</time>
      </trkpt>
      <trkpt lat="59.304985" lon="18.0784">
        <ele>31</ele>
        <time>2020-01-15T06:34:06Z</time>
      </trkpt>
      <trkpt lat="59.305008" lon="18.078381">
        <ele>31</ele>
        <time>2020-01-15T06:34:07Z</time>
      </trkpt>
      <trkpt lat="59.305033" lon="18.078363">
        <ele>0</ele>
        <time>2020-01-15T06:34:07Z</time>
      </trkpt>
      <trkpt lat="59.305058" lon="18.078346">
        <ele>31</ele>
        <time>2020-01-15T06:34:08Z</time>
      </trkpt>
      <trkpt lat="59.305082" lon="18.07833">
        <ele>31</ele>
        <time>2020-01-15T06:34:10Z</time>
      </trkpt>
      <trkpt lat="59.305108" lon="18.078317">
        <ele>31</ele>
        <time>2020-01-15T06:34:11Z</time>
      </trkpt>
      <trkpt lat="59.305133" lon="18.078303">
        <ele>0</ele>
        <time>2020-01-15T06:34:11Z</time>
      </trkpt>
      <trkpt lat="59.305159" lon="18.078289">
        <ele>31</ele>
        <time>2020-01-15T06:34:12Z</time>
      </trkpt>
      <trkpt lat="59.305184" lon="18.078274">
        <ele>0</ele>
        <time>2020-01-15T06:34:13Z</time>
      </trkpt>
      <trkpt lat="59.30521" lon="18.078261">
        <ele>31</ele>
        <time>2020-01-15T06:34:14Z</time>
      </trkpt>
      <trkpt lat="59.305236" lon="18.078248">
        <ele>30</ele>
        <time>2020-01-15T06:34:16Z</time>
      </trkpt>
      <trkpt lat="59.305261" lon="18.078233">
        <ele>30</ele>
        <time>2020-01-15T06:34:17Z</time>
      </trkpt>
      <trkpt lat="59.305286" lon="18.078218">
        <ele>30</ele>
        <time>2020-01-15T06:34:18Z</time>
      </trkpt>
      <trkpt lat="59.305311" lon="18.078203">
        <ele>30</ele>
        <time>2020-01-15T06:34:19Z</time>
      </trkpt>
      <trkpt lat="59.305337" lon="18.078189">
        <ele>30</ele>
        <time>2020-01-15T06:34:20Z</time>
      </trkpt>
      <trkpt lat="59.305362" lon="18.078172">
        <ele>29</ele>
        <time>2020-01-15T06:34:21Z</time>
      </trkpt>
      <trkpt lat="59.305387" lon="18.078156">
        <ele>29</ele>
        <time>2020-01-15T06:34:22Z</time>
      </trkpt>
      <trkpt lat="59.305413" lon="18.078141">
        <ele>29</ele>
        <time>2020-01-15T06:34:23Z</time>
      </trkpt>
      <trkpt lat="59.305439" lon="18.078126">
        <ele>29</ele>
        <time>2020-01-15T06:34:24Z</time>
      </trkpt>
      <trkpt lat="59.305464" lon="18.078108">
        <ele>29</ele>
        <time>2020-01-15T06:34:25Z</time>
      </trkpt>
      <trkpt lat="59.305491" lon="18.078095">
        <ele>29</ele>
        <time>2020-01-15T06:34:26Z</time>
      </trkpt>
      <trkpt lat="59.305518" lon="18.078089">
        <ele>29</ele>
        <time>2020-01-15T06:34:27Z</time>
      </trkpt>
      <trkpt lat="59.305541" lon="18.078081">
        <ele>29</ele>
        <time>2020-01-15T06:34:28Z</time>
      </trkpt>
      <trkpt lat="59.305564" lon="18.07807">
        <ele>29</ele>
        <time>2020-01-15T06:34:29Z</time>
      </trkpt>
      <trkpt lat="59.305589" lon="18.078058">
        <ele>0</ele>
        <time>2020-01-15T06:34:29Z</time>
      </trkpt>
      <trkpt lat="59.305616" lon="18.078042">
        <ele>28</ele>
        <time>2020-01-15T06:34:30Z</time>
      </trkpt>
      <trkpt lat="59.305641" lon="18.078027">
        <ele>28</ele>
        <time>2020-01-15T06:34:32Z</time>
      </trkpt>
      <trkpt lat="59.305668" lon="18.078008">
        <ele>0</ele>
        <time>2020-01-15T06:34:32Z</time>
      </trkpt>
      <trkpt lat="59.305694" lon="18.077984">
        <ele>28</ele>
        <time>2020-01-15T06:34:33Z</time>
      </trkpt>
      <trkpt lat="59.305718" lon="18.077967">
        <ele>28</ele>
        <time>2020-01-15T06:34:35Z</time>
      </trkpt>
      <trkpt lat="59.305743" lon="18.077949">
        <ele>28</ele>
        <time>2020-01-15T06:34:36Z</time>
      </trkpt>
      <trkpt lat="59.305765" lon="18.077931">
        <ele>28</ele>
        <time>2020-01-15T06:34:37Z</time>
      </trkpt>
      <trkpt lat="59.305789" lon="18.077915">
        <ele>28</ele>
        <time>2020-01-15T06:34:38Z</time>
      </trkpt>
      <trkpt lat="59.305813" lon="18.077899">
        <ele>28</ele>
        <time>2020-01-15T06:34:39Z</time>
      </trkpt>
      <trkpt lat="59.305837" lon="18.07788">
        <ele>28</ele>
        <time>2020-01-15T06:34:40Z</time>
      </trkpt>
      <trkpt lat="59.305862" lon="18.077866">
        <ele>28</ele>
        <time>2020-01-15T06:34:41Z</time>
      </trkpt>
      <trkpt lat="59.305888" lon="18.077848">
        <ele>28</ele>
        <time>2020-01-15T06:34:42Z</time>
      </trkpt>
      <trkpt lat="59.305913" lon="18.077822">
        <ele>28</ele>
        <time>2020-01-15T06:34:43Z</time>
      </trkpt>
      <trkpt lat="59.305937" lon="18.077802">
        <ele>28</ele>
        <time>2020-01-15T06:34:44Z</time>
      </trkpt>
      <trkpt lat="59.305959" lon="18.077777">
        <ele>28</ele>
        <time>2020-01-15T06:34:45Z</time>
      </trkpt>
      <trkpt lat="59.305981" lon="18.077766">
        <ele>28</ele>
        <time>2020-01-15T06:34:46Z</time>
      </trkpt>
      <trkpt lat="59.306007" lon="18.077757">
        <ele>28</ele>
        <time>2020-01-15T06:34:47Z</time>
      </trkpt>
      <trkpt lat="59.306035" lon="18.077742">
        <ele>28</ele>
        <time>2020-01-15T06:34:48Z</time>
      </trkpt>
      <trkpt lat="59.306063" lon="18.077725">
        <ele>0</ele>
        <time>2020-01-15T06:34:48Z</time>
      </trkpt>
      <trkpt lat="59.306091" lon="18.077707">
        <ele>28</ele>
        <time>2020-01-15T06:34:49Z</time>
      </trkpt>
      <trkpt lat="59.30612" lon="18.077687">
        <ele>28</ele>
        <time>2020-01-15T06:34:51Z</time>
      </trkpt>
      <trkpt lat="59.306144" lon="18.077671">
        <ele>0</ele>
        <time>2020-01-15T06:34:51Z</time>
      </trkpt>
      <trkpt lat="59.306167" lon="18.077654">
        <ele>28</ele>
        <time>2020-01-15T06:34:52Z</time>
      </trkpt>
      <trkpt lat="59.306191" lon="18.077637">
        <ele>28</ele>
        <time>2020-01-15T06:34:54Z</time>
      </trkpt>
      <trkpt lat="59.306218" lon="18.07762">
        <ele>28</ele>
        <time>2020-01-15T06:34:55Z</time>
      </trkpt>
      <trkpt lat="59.306245" lon="18.0776">
        <ele>28</ele>
        <time>2020-01-15T06:34:56Z</time>
      </trkpt>
      <trkpt lat="59.306267" lon="18.077585">
        <ele>28</ele>
        <time>2020-01-15T06:34:57Z</time>
      </trkpt>
      <trkpt lat="59.306293" lon="18.077571">
        <ele>28</ele>
        <time>2020-01-15T06:34:58Z</time>
      </trkpt>
      <trkpt lat="59.306318" lon="18.077548">
        <ele>29</ele>
        <time>2020-01-15T06:34:59Z</time>
      </trkpt>
      <trkpt lat="59.306344" lon="18.07753">
        <ele>29</ele>
        <time>2020-01-15T06:35:00Z</time>
      </trkpt>
      <trkpt lat="59.306371" lon="18.077512">
        <ele>29</ele>
        <time>2020-01-15T06:35:01Z</time>
      </trkpt>
      <trkpt lat="59.306397" lon="18.077494">
        <ele>0</ele>
        <time>2020-01-15T06:35:01Z</time>
      </trkpt>
      <trkpt lat="59.306418" lon="18.077479">
        <ele>29</ele>
        <time>2020-01-15T06:35:02Z</time>
      </trkpt>
      <trkpt lat="59.306439" lon="18.077469">
        <ele>29</ele>
        <time>2020-01-15T06:35:04Z</time>
      </trkpt>
      <trkpt lat="59.30646" lon="18.077454">
        <ele>29</ele>
        <time>2020-01-15T06:35:05Z</time>
      </trkpt>
      <trkpt lat="59.306482" lon="18.077441">
        <ele>29</ele>
        <time>2020-01-15T06:35:06Z</time>
      </trkpt>
      <trkpt lat="59.306506" lon="18.077428">
        <ele>29</ele>
        <time>2020-01-15T06:35:07Z</time>
      </trkpt>
      <trkpt lat="59.306532" lon="18.077405">
        <ele>0</ele>
        <time>2020-01-15T06:35:07Z</time>
      </trkpt>
      <trkpt lat="59.306555" lon="18.077387">
        <ele>29</ele>
        <time>2020-01-15T06:35:08Z</time>
      </trkpt>
      <trkpt lat="59.306579" lon="18.07737">
        <ele>29</ele>
        <time>2020-01-15T06:35:10Z</time>
      </trkpt>
      <trkpt lat="59.306596" lon="18.077337">
        <ele>0</ele>
        <time>2020-01-15T06:35:10Z</time>
      </trkpt>
      <trkpt lat="59.306623" lon="18.07732">
        <ele>29</ele>
        <time>2020-01-15T06:35:11Z</time>
      </trkpt>
      <trkpt lat="59.306655" lon="18.077297">
        <ele>29</ele>
        <time>2020-01-15T06:35:13Z</time>
      </trkpt>
      <trkpt lat="59.306687" lon="18.077278">
        <ele>29</ele>
        <time>2020-01-15T06:35:14Z</time>
      </trkpt>
      <trkpt lat="59.306715" lon="18.07727">
        <ele>29</ele>
        <time>2020-01-15T06:35:15Z</time>
      </trkpt>
      <trkpt lat="59.306739" lon="18.077255">
        <ele>29</ele>
        <time>2020-01-15T06:35:16Z</time>
      </trkpt>
      <trkpt lat="59.306764" lon="18.077233">
        <ele>28</ele>
        <time>2020-01-15T06:35:17Z</time>
      </trkpt>
      <trkpt lat="59.306791" lon="18.077209">
        <ele>28</ele>
        <time>2020-01-15T06:35:18Z</time>
      </trkpt>
      <trkpt lat="59.306824" lon="18.077189">
        <ele>29</ele>
        <time>2020-01-15T06:35:19Z</time>
      </trkpt>
      <trkpt lat="59.30685" lon="18.077161">
        <ele>29</ele>
        <time>2020-01-15T06:35:20Z</time>
      </trkpt>
      <trkpt lat="59.306875" lon="18.077131">
        <ele>29</ele>
        <time>2020-01-15T06:35:21Z</time>
      </trkpt>
      <trkpt lat="59.306898" lon="18.077103">
        <ele>29</ele>
        <time>2020-01-15T06:35:22Z</time>
      </trkpt>
      <trkpt lat="59.306919" lon="18.077059">
        <ele>29</ele>
        <time>2020-01-15T06:35:23Z</time>
      </trkpt>
      <trkpt lat="59.306938" lon="18.077017">
        <ele>30</ele>
        <time>2020-01-15T06:35:24Z</time>
      </trkpt>
      <trkpt lat="59.306957" lon="18.076988">
        <ele>30</ele>
        <time>2020-01-15T06:35:25Z</time>
      </trkpt>
      <trkpt lat="59.30698" lon="18.076962">
        <ele>0</ele>
        <time>2020-01-15T06:35:25Z</time>
      </trkpt>
      <trkpt lat="59.307001" lon="18.076925">
        <ele>30</ele>
        <time>2020-01-15T06:35:26Z</time>
      </trkpt>
      <trkpt lat="59.307025" lon="18.076899">
        <ele>30</ele>
        <time>2020-01-15T06:35:28Z</time>
      </trkpt>
      <trkpt lat="59.307046" lon="18.076866">
        <ele>30</ele>
        <time>2020-01-15T06:35:29Z</time>
      </trkpt>
      <trkpt lat="59.307067" lon="18.076854">
        <ele>0</ele>
        <time>2020-01-15T06:35:29Z</time>
      </trkpt>
      <trkpt lat="59.307088" lon="18.076846">
        <ele>30</ele>
        <time>2020-01-15T06:35:30Z</time>
      </trkpt>
      <trkpt lat="59.307109" lon="18.076836">
        <ele>31</ele>
        <time>2020-01-15T06:35:32Z</time>
      </trkpt>
      <trkpt lat="59.307131" lon="18.076824">
        <ele>31</ele>
        <time>2020-01-15T06:35:33Z</time>
      </trkpt>
      <trkpt lat="59.307152" lon="18.07681">
        <ele>31</ele>
        <time>2020-01-15T06:35:34Z</time>
      </trkpt>
      <trkpt lat="59.307177" lon="18.076779">
        <ele>31</ele>
        <time>2020-01-15T06:35:35Z</time>
      </trkpt>
      <trkpt lat="59.307205" lon="18.076769">
        <ele>31</ele>
        <time>2020-01-15T06:35:36Z</time>
      </trkpt>
      <trkpt lat="59.307231" lon="18.07675">
        <ele>31</ele>
        <time>2020-01-15T06:35:37Z</time>
      </trkpt>
      <trkpt lat="59.307261" lon="18.076743">
        <ele>31</ele>
        <time>2020-01-15T06:35:38Z</time>
      </trkpt>
      <trkpt lat="59.307291" lon="18.076735">
        <ele>31</ele>
        <time>2020-01-15T06:35:39Z</time>
      </trkpt>
      <trkpt lat="59.307321" lon="18.076717">
        <ele>31</ele>
        <time>2020-01-15T06:35:40Z</time>
      </trkpt>
      <trkpt lat="59.307352" lon="18.076701">
        <ele>31</ele>
        <time>2020-01-15T06:35:41Z</time>
      </trkpt>
      <trkpt lat="59.307378" lon="18.076691">
        <ele>31</ele>
        <time>2020-01-15T06:35:42Z</time>
      </trkpt>
      <trkpt lat="59.307401" lon="18.076675">
        <ele>31</ele>
        <time>2020-01-15T06:35:43Z</time>
      </trkpt>
      <trkpt lat="59.307424" lon="18.076659">
        <ele>31</ele>
        <time>2020-01-15T06:35:44Z</time>
      </trkpt>
      <trkpt lat="59.307448" lon="18.076646">
        <ele>0</ele>
        <time>2020-01-15T06:35:44Z</time>
      </trkpt>
      <trkpt lat="59.307472" lon="18.076634">
        <ele>31</ele>
        <time>2020-01-15T06:35:45Z</time>
      </trkpt>
      <trkpt lat="59.307495" lon="18.076629">
        <ele>31</ele>
        <time>2020-01-15T06:35:47Z</time>
      </trkpt>
      <trkpt lat="59.307519" lon="18.076635">
        <ele>31</ele>
        <time>2020-01-15T06:35:48Z</time>
      </trkpt>
      <trkpt lat="59.307544" lon="18.076666">
        <ele>0</ele>
        <time>2020-01-15T06:35:48Z</time>
      </trkpt>
      <trkpt lat="59.307571" lon="18.076706">
        <ele>31</ele>
        <time>2020-01-15T06:35:49Z</time>
      </trkpt>
      <trkpt lat="59.307594" lon="18.076736">
        <ele>31</ele>
        <time>2020-01-15T06:35:51Z</time>
      </trkpt>
      <trkpt lat="59.307611" lon="18.076762">
        <ele>31</ele>
        <time>2020-01-15T06:35:52Z</time>
      </trkpt>
      <trkpt lat="59.307634" lon="18.076798">
        <ele>31</ele>
        <time>2020-01-15T06:35:53Z</time>
      </trkpt>
      <trkpt lat="59.307663" lon="18.076821">
        <ele>31</ele>
        <time>2020-01-15T06:35:55Z</time>
      </trkpt>
      <trkpt lat="59.307702" lon="18.076842">
        <ele>30</ele>
        <time>2020-01-15T06:35:57Z</time>
      </trkpt>
      <trkpt lat="59.307729" lon="18.076853">
        <ele>30</ele>
        <time>2020-01-15T06:35:58Z</time>
      </trkpt>
      <trkpt lat="59.307762" lon="18.076855">
        <ele>30</ele>
        <time>2020-01-15T06:35:59Z</time>
      </trkpt>
      <trkpt lat="59.307793" lon="18.07685">
        <ele>30</ele>
        <time>2020-01-15T06:36:00Z</time>
      </trkpt>
      <trkpt lat="59.30782" lon="18.076844">
        <ele>30</ele>
        <time>2020-01-15T06:36:01Z</time>
      </trkpt>
      <trkpt lat="59.307847" lon="18.07683">
        <ele>30</ele>
        <time>2020-01-15T06:36:02Z</time>
      </trkpt>
      <trkpt lat="59.307875" lon="18.076816">
        <ele>30</ele>
        <time>2020-01-15T06:36:03Z</time>
      </trkpt>
      <trkpt lat="59.307908" lon="18.076803">
        <ele>0</ele>
        <time>2020-01-15T06:36:03Z</time>
      </trkpt>
      <trkpt lat="59.307936" lon="18.076772">
        <ele>30</ele>
        <time>2020-01-15T06:36:04Z</time>
      </trkpt>
      <trkpt lat="59.30795" lon="18.076722">
        <ele>30</ele>
        <time>2020-01-15T06:36:06Z</time>
      </trkpt>
      <trkpt lat="59.307963" lon="18.076669">
        <ele>30</ele>
        <time>2020-01-15T06:36:07Z</time>
      </trkpt>
      <trkpt lat="59.307984" lon="18.076625">
        <ele>0</ele>
        <time>2020-01-15T06:36:07Z</time>
      </trkpt>
      <trkpt lat="59.308009" lon="18.076587">
        <ele>30</ele>
        <time>2020-01-15T06:36:08Z</time>
      </trkpt>
      <trkpt lat="59.308029" lon="18.076554">
        <ele>30</ele>
        <time>2020-01-15T06:36:10Z</time>
      </trkpt>
      <trkpt lat="59.308051" lon="18.076522">
        <ele>31</ele>
        <time>2020-01-15T06:36:11Z</time>
      </trkpt>
      <trkpt lat="59.308079" lon="18.0765">
        <ele>31</ele>
        <time>2020-01-15T06:36:12Z</time>
      </trkpt>
      <trkpt lat="59.308108" lon="18.076489">
        <ele>31</ele>
        <time>2020-01-15T06:36:13Z</time>
      </trkpt>
      <trkpt lat="59.308135" lon="18.076477">
        <ele>31</ele>
        <time>2020-01-15T06:36:14Z</time>
      </trkpt>
      <trkpt lat="59.308161" lon="18.076466">
        <ele>31</ele>
        <time>2020-01-15T06:36:15Z</time>
      </trkpt>
      <trkpt lat="59.308191" lon="18.076455">
        <ele>32</ele>
        <time>2020-01-15T06:36:16Z</time>
      </trkpt>
      <trkpt lat="59.308222" lon="18.076442">
        <ele>32</ele>
        <time>2020-01-15T06:36:17Z</time>
      </trkpt>
      <trkpt lat="59.308255" lon="18.076421">
        <ele>32</ele>
        <time>2020-01-15T06:36:18Z</time>
      </trkpt>
      <trkpt lat="59.308286" lon="18.0764">
        <ele>32</ele>
        <time>2020-01-15T06:36:19Z</time>
      </trkpt>
      <trkpt lat="59.308318" lon="18.076374">
        <ele>0</ele>
        <time>2020-01-15T06:36:19Z</time>
      </trkpt>
      <trkpt lat="59.30835" lon="18.076353">
        <ele>32</ele>
        <time>2020-01-15T06:36:20Z</time>
      </trkpt>
      <trkpt lat="59.308381" lon="18.076335">
        <ele>32</ele>
        <time>2020-01-15T06:36:22Z</time>
      </trkpt>
      <trkpt lat="59.308408" lon="18.076315">
        <ele>32</ele>
        <time>2020-01-15T06:36:23Z</time>
      </trkpt>
      <trkpt lat="59.308438" lon="18.076288">
        <ele>32</ele>
        <time>2020-01-15T06:36:24Z</time>
      </trkpt>
      <trkpt lat="59.308469" lon="18.076265">
        <ele>32</ele>
        <time>2020-01-15T06:36:25Z</time>
      </trkpt>
      <trkpt lat="59.3085" lon="18.076243">
        <ele>32</ele>
        <time>2020-01-15T06:36:26Z</time>
      </trkpt>
      <trkpt lat="59.308527" lon="18.076233">
        <ele>0</ele>
        <time>2020-01-15T06:36:26Z</time>
      </trkpt>
      <trkpt lat="59.308554" lon="18.076226">
        <ele>33</ele>
        <time>2020-01-15T06:36:27Z</time>
      </trkpt>
      <trkpt lat="59.308584" lon="18.076208">
        <ele>33</ele>
        <time>2020-01-15T06:36:29Z</time>
      </trkpt>
      <trkpt lat="59.308612" lon="18.076179">
        <ele>33</ele>
        <time>2020-01-15T06:36:30Z</time>
      </trkpt>
      <trkpt lat="59.30864" lon="18.076139">
        <ele>34</ele>
        <time>2020-01-15T06:36:31Z</time>
      </trkpt>
      <trkpt lat="59.30867" lon="18.076093">
        <ele>34</ele>
        <time>2020-01-15T06:36:32Z</time>
      </trkpt>
      <trkpt lat="59.308696" lon="18.076055">
        <ele>34</ele>
        <time>2020-01-15T06:36:33Z</time>
      </trkpt>
      <trkpt lat="59.30872" lon="18.076014">
        <ele>34</ele>
        <time>2020-01-15T06:36:34Z</time>
      </trkpt>
      <trkpt lat="59.308746" lon="18.075973">
        <ele>34</ele>
        <time>2020-01-15T06:36:35Z</time>
      </trkpt>
      <trkpt lat="59.308774" lon="18.075942">
        <ele>0</ele>
        <time>2020-01-15T06:36:35Z</time>
      </trkpt>
      <trkpt lat="59.308803" lon="18.075915">
        <ele>34</ele>
        <time>2020-01-15T06:36:36Z</time>
      </trkpt>
      <trkpt lat="59.30883" lon="18.075885">
        <ele>35</ele>
        <time>2020-01-15T06:36:38Z</time>
      </trkpt>
      <trkpt lat="59.30886" lon="18.075857">
        <ele>36</ele>
        <time>2020-01-15T06:36:39Z</time>
      </trkpt>
      <trkpt lat="59.308896" lon="18.075827">
        <ele>36</ele>
        <time>2020-01-15T06:36:40Z</time>
      </trkpt>
      <trkpt lat="59.308932" lon="18.075801">
        <ele>36</ele>
        <time>2020-01-15T06:36:41Z</time>
      </trkpt>
      <trkpt lat="59.30896" lon="18.075773">
        <ele>36</ele>
        <time>2020-01-15T06:36:42Z</time>
      </trkpt>
      <trkpt lat="59.308989" lon="18.075744">
        <ele>36</ele>
        <time>2020-01-15T06:36:43Z</time>
      </trkpt>
      <trkpt lat="59.309018" lon="18.075712">
        <ele>36</ele>
        <time>2020-01-15T06:36:44Z</time>
      </trkpt>
      <trkpt lat="59.309047" lon="18.075685">
        <ele>36</ele>
        <time>2020-01-15T06:36:45Z</time>
      </trkpt>
      <trkpt lat="59.309074" lon="18.075669">
        <ele>0</ele>
        <time>2020-01-15T06:36:45Z</time>
      </trkpt>
      <trkpt lat="59.309101" lon="18.075658">
        <ele>37</ele>
        <time>2020-01-15T06:36:46Z</time>
      </trkpt>
      <trkpt lat="59.309135" lon="18.07564">
        <ele>37</ele>
        <time>2020-01-15T06:36:48Z</time>
      </trkpt>
      <trkpt lat="59.309169" lon="18.075623">
        <ele>37</ele>
        <time>2020-01-15T06:36:49Z</time>
      </trkpt>
      <trkpt lat="59.309199" lon="18.075604">
        <ele>37</ele>
        <time>2020-01-15T06:36:50Z</time>
      </trkpt>
      <trkpt lat="59.309229" lon="18.075602">
        <ele>0</ele>
        <time>2020-01-15T06:36:50Z</time>
      </trkpt>
      <trkpt lat="59.309261" lon="18.075622">
        <ele>37</ele>
        <time>2020-01-15T06:36:51Z</time>
      </trkpt>
      <trkpt lat="59.309298" lon="18.075649">
        <ele>37</ele>
        <time>2020-01-15T06:36:53Z</time>
      </trkpt>
      <trkpt lat="59.30933" lon="18.075674">
        <ele>37</ele>
        <time>2020-01-15T06:36:54Z</time>
      </trkpt>
      <trkpt lat="59.30936" lon="18.07568">
        <ele>37</ele>
        <time>2020-01-15T06:36:55Z</time>
      </trkpt>
      <trkpt lat="59.309383" lon="18.075668">
        <ele>37</ele>
        <time>2020-01-15T06:36:56Z</time>
      </trkpt>
      <trkpt lat="59.309404" lon="18.07565">
        <ele>37</ele>
        <time>2020-01-15T06:36:57Z</time>
      </trkpt>
      <trkpt lat="59.309426" lon="18.075625">
        <ele>38</ele>
        <time>2020-01-15T06:36:58Z</time>
      </trkpt>
      <trkpt lat="59.30945" lon="18.075589">
        <ele>38</ele>
        <time>2020-01-15T06:36:59Z</time>
      </trkpt>
      <trkpt lat="59.309478" lon="18.07555">
        <ele>38</ele>
        <time>2020-01-15T06:37:00Z</time>
      </trkpt>
      <trkpt lat="59.309514" lon="18.075509">
        <ele>38</ele>
        <time>2020-01-15T06:37:01Z</time>
      </trkpt>
      <trkpt lat="59.309547" lon="18.07547">
        <ele>37</ele>
        <time>2020-01-15T06:37:02Z</time>
      </trkpt>
      <trkpt lat="59.309576" lon="18.075437">
        <ele>38</ele>
        <time>2020-01-15T06:37:03Z</time>
      </trkpt>
      <trkpt lat="59.309607" lon="18.075401">
        <ele>38</ele>
        <time>2020-01-15T06:37:04Z</time>
      </trkpt>
      <trkpt lat="59.309642" lon="18.075365">
        <ele>0</ele>
        <time>2020-01-15T06:37:04Z</time>
      </trkpt>
      <trkpt lat="59.309678" lon="18.075341">
        <ele>38</ele>
        <time>2020-01-15T06:37:05Z</time>
      </trkpt>
      <trkpt lat="59.309719" lon="18.075315">
        <ele>38</ele>
        <time>2020-01-15T06:37:06Z</time>
      </trkpt>
      <trkpt lat="59.309757" lon="18.075289">
        <ele>38</ele>
        <time>2020-01-15T06:37:08Z</time>
      </trkpt>
      <trkpt lat="59.309792" lon="18.075265">
        <ele>38</ele>
        <time>2020-01-15T06:37:09Z</time>
      </trkpt>
      <trkpt lat="59.309827" lon="18.075241">
        <ele>38</ele>
        <time>2020-01-15T06:37:10Z</time>
      </trkpt>
      <trkpt lat="59.309863" lon="18.075221">
        <ele>38</ele>
        <time>2020-01-15T06:37:11Z</time>
      </trkpt>
      <trkpt lat="59.309899" lon="18.075201">
        <ele>38</ele>
        <time>2020-01-15T06:37:12Z</time>
      </trkpt>
      <trkpt lat="59.309932" lon="18.075182">
        <ele>38</ele>
        <time>2020-01-15T06:37:13Z</time>
      </trkpt>
      <trkpt lat="59.309969" lon="18.075157">
        <ele>38</ele>
        <time>2020-01-15T06:37:14Z</time>
      </trkpt>
      <trkpt lat="59.310004" lon="18.075137">
        <ele>38</ele>
        <time>2020-01-15T06:37:15Z</time>
      </trkpt>
      <trkpt lat="59.310037" lon="18.075119">
        <ele>38</ele>
        <time>2020-01-15T06:37:16Z</time>
      </trkpt>
      <trkpt lat="59.31007" lon="18.075111">
        <ele>38</ele>
        <time>2020-01-15T06:37:17Z</time>
      </trkpt>
      <trkpt lat="59.310101" lon="18.075092">
        <ele>38</ele>
        <time>2020-01-15T06:37:18Z</time>
      </trkpt>
      <trkpt lat="59.310132" lon="18.075075">
        <ele>38</ele>
        <time>2020-01-15T06:37:19Z</time>
      </trkpt>
      <trkpt lat="59.310161" lon="18.075059">
        <ele>0</ele>
        <time>2020-01-15T06:37:19Z</time>
      </trkpt>
      <trkpt lat="59.310189" lon="18.075047">
        <ele>38</ele>
        <time>2020-01-15T06:37:20Z</time>
      </trkpt>
      <trkpt lat="59.310218" lon="18.075031">
        <ele>38</ele>
        <time>2020-01-15T06:37:22Z</time>
      </trkpt>
      <trkpt lat="59.310248" lon="18.07501">
        <ele>38</ele>
        <time>2020-01-15T06:37:23Z</time>
      </trkpt>
      <trkpt lat="59.310283" lon="18.075009">
        <ele>0</ele>
        <time>2020-01-15T06:37:23Z</time>
      </trkpt>
      <trkpt lat="59.310324" lon="18.075024">
        <ele>38</ele>
        <time>2020-01-15T06:37:24Z</time>
      </trkpt>
      <trkpt lat="59.310371" lon="18.075073">
        <ele>37</ele>
        <time>2020-01-15T06:37:26Z</time>
      </trkpt>
      <trkpt lat="59.310418" lon="18.075106">
        <ele>37</ele>
        <time>2020-01-15T06:37:27Z</time>
      </trkpt>
      <trkpt lat="59.310463" lon="18.075128">
        <ele>37</ele>
        <time>2020-01-15T06:37:28Z</time>
      </trkpt>
      <trkpt lat="59.310501" lon="18.07514">
        <ele>37</ele>
        <time>2020-01-15T06:37:29Z</time>
      </trkpt>
      <trkpt lat="59.310538" lon="18.075123">
        <ele>37</ele>
        <time>2020-01-15T06:37:30Z</time>
      </trkpt>
      <trkpt lat="59.310575" lon="18.0751">
        <ele>37</ele>
        <time>2020-01-15T06:37:31Z</time>
      </trkpt>
      <trkpt lat="59.310611" lon="18.075085">
        <ele>37</ele>
        <time>2020-01-15T06:37:32Z</time>
      </trkpt>
      <trkpt lat="59.310646" lon="18.075065">
        <ele>0</ele>
        <time>2020-01-15T06:37:32Z</time>
      </trkpt>
      <trkpt lat="59.310679" lon="18.075054">
        <ele>36</ele>
        <time>2020-01-15T06:37:33Z</time>
      </trkpt>
      <trkpt lat="59.310711" lon="18.075045">
        <ele>36</ele>
        <time>2020-01-15T06:37:35Z</time>
      </trkpt>
      <trkpt lat="59.310744" lon="18.07503">
        <ele>36</ele>
        <time>2020-01-15T06:37:36Z</time>
      </trkpt>
      <trkpt lat="59.310778" lon="18.075012">
        <ele>36</ele>
        <time>2020-01-15T06:37:37Z</time>
      </trkpt>
      <trkpt lat="59.310809" lon="18.074995">
        <ele>36</ele>
        <time>2020-01-15T06:37:38Z</time>
      </trkpt>
      <trkpt lat="59.310837" lon="18.074976">
        <ele>36</ele>
        <time>2020-01-15T06:37:39Z</time>
      </trkpt>
      <trkpt lat="59.310868" lon="18.074958">
        <ele>36</ele>
        <time>2020-01-15T06:37:40Z</time>
      </trkpt>
      <trkpt lat="59.310894" lon="18.074938">
        <ele>36</ele>
        <time>2020-01-15T06:37:41Z</time>
      </trkpt>
      <trkpt lat="59.310922" lon="18.074919">
        <ele>36</ele>
        <time>2020-01-15T06:37:42Z</time>
      </trkpt>
      <trkpt lat="59.31095" lon="18.074902">
        <ele>0</ele>
        <time>2020-01-15T06:37:42Z</time>
      </trkpt>
      <trkpt lat="59.31098" lon="18.074888">
        <ele>36</ele>
        <time>2020-01-15T06:37:43Z</time>
      </trkpt>
      <trkpt lat="59.311012" lon="18.074876">
        <ele>36</ele>
        <time>2020-01-15T06:37:45Z</time>
      </trkpt>
      <trkpt lat="59.311043" lon="18.07486">
        <ele>36</ele>
        <time>2020-01-15T06:37:46Z</time>
      </trkpt>
      <trkpt lat="59.311073" lon="18.074845">
        <ele>36</ele>
        <time>2020-01-15T06:37:47Z</time>
      </trkpt>
      <trkpt lat="59.311103" lon="18.074833">
        <ele>36</ele>
        <time>2020-01-15T06:37:48Z</time>
      </trkpt>
      <trkpt lat="59.311135" lon="18.074822">
        <ele>0</ele>
        <time>2020-01-15T06:37:48Z</time>
      </trkpt>
      <trkpt lat="59.311169" lon="18.074808">
        <ele>36</ele>
        <time>2020-01-15T06:37:49Z</time>
      </trkpt>
      <trkpt lat="59.311202" lon="18.074796">
        <ele>36</ele>
        <time>2020-01-15T06:37:51Z</time>
      </trkpt>
      <trkpt lat="59.311231" lon="18.074789">
        <ele>36</ele>
        <time>2020-01-15T06:37:52Z</time>
      </trkpt>
      <trkpt lat="59.311261" lon="18.074779">
        <ele>36</ele>
        <time>2020-01-15T06:37:53Z</time>
      </trkpt>
      <trkpt lat="59.311288" lon="18.074755">
        <ele>36</ele>
        <time>2020-01-15T06:37:54Z</time>
      </trkpt>
      <trkpt lat="59.311322" lon="18.07474">
        <ele>36</ele>
        <time>2020-01-15T06:37:55Z</time>
      </trkpt>
      <trkpt lat="59.311357" lon="18.074723">
        <ele>36</ele>
        <time>2020-01-15T06:37:56Z</time>
      </trkpt>
      <trkpt lat="59.311389" lon="18.074709">
        <ele>36</ele>
        <time>2020-01-15T06:37:57Z</time>
      </trkpt>
      <trkpt lat="59.311414" lon="18.074691">
        <ele>36</ele>
        <time>2020-01-15T06:37:58Z</time>
      </trkpt>
      <trkpt lat="59.311486" lon="18.074697">
        <ele>36</ele>
        <time>2020-01-15T06:38:01Z</time>
      </trkpt>
      <trkpt lat="59.311518" lon="18.074698">
        <ele>0</ele>
        <time>2020-01-15T06:38:01Z</time>
      </trkpt>
      <trkpt lat="59.311548" lon="18.074683">
        <ele>36</ele>
        <time>2020-01-15T06:38:02Z</time>
      </trkpt>
      <trkpt lat="59.311576" lon="18.074675">
        <ele>36</ele>
        <time>2020-01-15T06:38:04Z</time>
      </trkpt>
      <trkpt lat="59.311608" lon="18.074668">
        <ele>0</ele>
        <time>2020-01-15T06:38:04Z</time>
      </trkpt>
      <trkpt lat="59.311637" lon="18.074663">
        <ele>36</ele>
        <time>2020-01-15T06:38:05Z</time>
      </trkpt>
      <trkpt lat="59.311678" lon="18.074648">
        <ele>36</ele>
        <time>2020-01-15T06:38:07Z</time>
      </trkpt>
      <trkpt lat="59.31172" lon="18.074636">
        <ele>36</ele>
        <time>2020-01-15T06:38:08Z</time>
      </trkpt>
      <trkpt lat="59.311796" lon="18.07462">
        <ele>36</ele>
        <time>2020-01-15T06:38:10Z</time>
      </trkpt>
      <trkpt lat="59.311888" lon="18.074593">
        <ele>36</ele>
        <time>2020-01-15T06:38:13Z</time>
      </trkpt>
      <trkpt lat="59.311913" lon="18.074577">
        <ele>36</ele>
        <time>2020-01-15T06:38:14Z</time>
      </trkpt>
      <trkpt lat="59.311941" lon="18.07456">
        <ele>36</ele>
        <time>2020-01-15T06:38:15Z</time>
      </trkpt>
      <trkpt lat="59.311977" lon="18.074543">
        <ele>36</ele>
        <time>2020-01-15T06:38:16Z</time>
      </trkpt>
      <trkpt lat="59.31201" lon="18.07451">
        <ele>36</ele>
        <time>2020-01-15T06:38:17Z</time>
      </trkpt>
      <trkpt lat="59.312042" lon="18.074489">
        <ele>36</ele>
        <time>2020-01-15T06:38:18Z</time>
      </trkpt>
      <trkpt lat="59.31207" lon="18.074466">
        <ele>36</ele>
        <time>2020-01-15T06:38:19Z</time>
      </trkpt>
      <trkpt lat="59.312103" lon="18.074437">
        <ele>0</ele>
        <time>2020-01-15T06:38:20Z</time>
      </trkpt>
      <trkpt lat="59.312123" lon="18.074424">
        <ele>36</ele>
        <time>2020-01-15T06:38:21Z</time>
      </trkpt>
      <trkpt lat="59.312138" lon="18.074386">
        <ele>36</ele>
        <time>2020-01-15T06:38:23Z</time>
      </trkpt>
      <trkpt lat="59.31215" lon="18.074357">
        <ele>36</ele>
        <time>2020-01-15T06:38:24Z</time>
      </trkpt>
      <trkpt lat="59.312163" lon="18.074329">
        <ele>36</ele>
        <time>2020-01-15T06:38:25Z</time>
      </trkpt>
      <trkpt lat="59.312189" lon="18.074296">
        <ele>36</ele>
        <time>2020-01-15T06:38:27Z</time>
      </trkpt>
      <trkpt lat="59.312211" lon="18.074273">
        <ele>36</ele>
        <time>2020-01-15T06:38:28Z</time>
      </trkpt>
      <trkpt lat="59.312238" lon="18.074244">
        <ele>36</ele>
        <time>2020-01-15T06:38:29Z</time>
      </trkpt>
      <trkpt lat="59.31226" lon="18.07423">
        <ele>36</ele>
        <time>2020-01-15T06:38:30Z</time>
      </trkpt>
      <trkpt lat="59.312284" lon="18.074213">
        <ele>36</ele>
        <time>2020-01-15T06:38:31Z</time>
      </trkpt>
      <trkpt lat="59.312309" lon="18.0742">
        <ele>36</ele>
        <time>2020-01-15T06:38:32Z</time>
      </trkpt>
      <trkpt lat="59.31233" lon="18.074184">
        <ele>36</ele>
        <time>2020-01-15T06:38:33Z</time>
      </trkpt>
      <trkpt lat="59.312354" lon="18.074168">
        <ele>36</ele>
        <time>2020-01-15T06:38:34Z</time>
      </trkpt>
      <trkpt lat="59.312374" lon="18.074151">
        <ele>35</ele>
        <time>2020-01-15T06:38:35Z</time>
      </trkpt>
      <trkpt lat="59.312396" lon="18.074133">
        <ele>35</ele>
        <time>2020-01-15T06:38:36Z</time>
      </trkpt>
      <trkpt lat="59.312423" lon="18.074112">
        <ele>35</ele>
        <time>2020-01-15T06:38:37Z</time>
      </trkpt>
      <trkpt lat="59.312446" lon="18.074098">
        <ele>35</ele>
        <time>2020-01-15T06:38:38Z</time>
      </trkpt>
      <trkpt lat="59.312469" lon="18.074085">
        <ele>35</ele>
        <time>2020-01-15T06:38:39Z</time>
      </trkpt>
      <trkpt lat="59.312485" lon="18.074064">
        <ele>0</ele>
        <time>2020-01-15T06:38:39Z</time>
      </trkpt>
      <trkpt lat="59.312503" lon="18.074043">
        <ele>35</ele>
        <time>2020-01-15T06:38:40Z</time>
      </trkpt>
      <trkpt lat="59.312523" lon="18.074025">
        <ele>35</ele>
        <time>2020-01-15T06:38:42Z</time>
      </trkpt>
      <trkpt lat="59.312548" lon="18.074018">
        <ele>35</ele>
        <time>2020-01-15T06:38:43Z</time>
      </trkpt>
      <trkpt lat="59.312575" lon="18.074">
        <ele>35</ele>
        <time>2020-01-15T06:38:44Z</time>
      </trkpt>
      <trkpt lat="59.312592" lon="18.073981">
        <ele>35</ele>
        <time>2020-01-15T06:38:46Z</time>
      </trkpt>
      <trkpt lat="59.312617" lon="18.073973">
        <ele>35</ele>
        <time>2020-01-15T06:38:47Z</time>
      </trkpt>
      <trkpt lat="59.31264" lon="18.073937">
        <ele>35</ele>
        <time>2020-01-15T06:38:48Z</time>
      </trkpt>
      <trkpt lat="59.31266" lon="18.073911">
        <ele>35</ele>
        <time>2020-01-15T06:38:49Z</time>
      </trkpt>
      <trkpt lat="59.312685" lon="18.073884">
        <ele>35</ele>
        <time>2020-01-15T06:38:50Z</time>
      </trkpt>
      <trkpt lat="59.312708" lon="18.073863">
        <ele>35</ele>
        <time>2020-01-15T06:38:51Z</time>
      </trkpt>
      <trkpt lat="59.312743" lon="18.07388">
        <ele>35</ele>
        <time>2020-01-15T06:38:52Z</time>
      </trkpt>
      <trkpt lat="59.312777" lon="18.073905">
        <ele>0</ele>
        <time>2020-01-15T06:38:52Z</time>
      </trkpt>
      <trkpt lat="59.312809" lon="18.073931">
        <ele>35</ele>
        <time>2020-01-15T06:38:53Z</time>
      </trkpt>
      <trkpt lat="59.312846" lon="18.073958">
        <ele>34</ele>
        <time>2020-01-15T06:38:55Z</time>
      </trkpt>
      <trkpt lat="59.312881" lon="18.073975">
        <ele>35</ele>
        <time>2020-01-15T06:38:56Z</time>
      </trkpt>
      <trkpt lat="59.312908" lon="18.073967">
        <ele>34</ele>
        <time>2020-01-15T06:38:57Z</time>
      </trkpt>
      <trkpt lat="59.312932" lon="18.073944">
        <ele>34</ele>
        <time>2020-01-15T06:38:58Z</time>
      </trkpt>
      <trkpt lat="59.312954" lon="18.073927">
        <ele>0</ele>
        <time>2020-01-15T06:38:58Z</time>
      </trkpt>
      <trkpt lat="59.312978" lon="18.07391">
        <ele>34</ele>
        <time>2020-01-15T06:38:59Z</time>
      </trkpt>
      <trkpt lat="59.312998" lon="18.073898">
        <ele>34</ele>
        <time>2020-01-15T06:39:00Z</time>
      </trkpt>
      <trkpt lat="59.31302" lon="18.073881">
        <ele>34</ele>
        <time>2020-01-15T06:39:01Z</time>
      </trkpt>
      <trkpt lat="59.31304" lon="18.073872">
        <ele>34</ele>
        <time>2020-01-15T06:39:03Z</time>
      </trkpt>
      <trkpt lat="59.31306" lon="18.073863">
        <ele>34</ele>
        <time>2020-01-15T06:39:04Z</time>
      </trkpt>
      <trkpt lat="59.313079" lon="18.073856">
        <ele>34</ele>
        <time>2020-01-15T06:39:05Z</time>
      </trkpt>
      <trkpt lat="59.3131" lon="18.073847">
        <ele>35</ele>
        <time>2020-01-15T06:39:06Z</time>
      </trkpt>
      <trkpt lat="59.313123" lon="18.073831">
        <ele>34</ele>
        <time>2020-01-15T06:39:07Z</time>
      </trkpt>
      <trkpt lat="59.313149" lon="18.073813">
        <ele>34</ele>
        <time>2020-01-15T06:39:08Z</time>
      </trkpt>
      <trkpt lat="59.31318" lon="18.073795">
        <ele>34</ele>
        <time>2020-01-15T06:39:09Z</time>
      </trkpt>
      <trkpt lat="59.313207" lon="18.073778">
        <ele>34</ele>
        <time>2020-01-15T06:39:10Z</time>
      </trkpt>
      <trkpt lat="59.313232" lon="18.073766">
        <ele>33</ele>
        <time>2020-01-15T06:39:11Z</time>
      </trkpt>
      <trkpt lat="59.313266" lon="18.073752">
        <ele>33</ele>
        <time>2020-01-15T06:39:12Z</time>
      </trkpt>
      <trkpt lat="59.313302" lon="18.073749">
        <ele>33</ele>
        <time>2020-01-15T06:39:13Z</time>
      </trkpt>
      <trkpt lat="59.31333" lon="18.073739">
        <ele>33</ele>
        <time>2020-01-15T06:39:14Z</time>
      </trkpt>
      <trkpt lat="59.313362" lon="18.073734">
        <ele>33</ele>
        <time>2020-01-15T06:39:15Z</time>
      </trkpt>
      <trkpt lat="59.31339" lon="18.073731">
        <ele>32</ele>
        <time>2020-01-15T06:39:16Z</time>
      </trkpt>
      <trkpt lat="59.31342" lon="18.073739">
        <ele>32</ele>
        <time>2020-01-15T06:39:17Z</time>
      </trkpt>
      <trkpt lat="59.313452" lon="18.07375">
        <ele>0</ele>
        <time>2020-01-15T06:39:17Z</time>
      </trkpt>
      <trkpt lat="59.313476" lon="18.073761">
        <ele>32</ele>
        <time>2020-01-15T06:39:18Z</time>
      </trkpt>
      <trkpt lat="59.313499" lon="18.07375">
        <ele>0</ele>
        <time>2020-01-15T06:39:19Z</time>
      </trkpt>
      <trkpt lat="59.31352" lon="18.073718">
        <ele>31</ele>
        <time>2020-01-15T06:39:20Z</time>
      </trkpt>
      <trkpt lat="59.31354" lon="18.073688">
        <ele>31</ele>
        <time>2020-01-15T06:39:22Z</time>
      </trkpt>
      <trkpt lat="59.313559" lon="18.073649">
        <ele>31</ele>
        <time>2020-01-15T06:39:23Z</time>
      </trkpt>
      <trkpt lat="59.313578" lon="18.073616">
        <ele>31</ele>
        <time>2020-01-15T06:39:24Z</time>
      </trkpt>
      <trkpt lat="59.313614" lon="18.073568">
        <ele>31</ele>
        <time>2020-01-15T06:39:26Z</time>
      </trkpt>
      <trkpt lat="59.313654" lon="18.07354">
        <ele>31</ele>
        <time>2020-01-15T06:39:28Z</time>
      </trkpt>
      <trkpt lat="59.313675" lon="18.073519">
        <ele>31</ele>
        <time>2020-01-15T06:39:29Z</time>
      </trkpt>
      <trkpt lat="59.31376" lon="18.073432">
        <ele>30</ele>
        <time>2020-01-15T06:39:32Z</time>
      </trkpt>
      <trkpt lat="59.313843" lon="18.073346">
        <ele>29</ele>
        <time>2020-01-15T06:39:35Z</time>
      </trkpt>
      <trkpt lat="59.313898" lon="18.073313">
        <ele>0</ele>
        <time>2020-01-15T06:39:36Z</time>
      </trkpt>
      <trkpt lat="59.313922" lon="18.073292">
        <ele>29</ele>
        <time>2020-01-15T06:39:37Z</time>
      </trkpt>
      <trkpt lat="59.31395" lon="18.073276">
        <ele>29</ele>
        <time>2020-01-15T06:39:38Z</time>
      </trkpt>
      <trkpt lat="59.313981" lon="18.073249">
        <ele>28</ele>
        <time>2020-01-15T06:39:40Z</time>
      </trkpt>
      <trkpt lat="59.314014" lon="18.073243">
        <ele>28</ele>
        <time>2020-01-15T06:39:41Z</time>
      </trkpt>
      <trkpt lat="59.314036" lon="18.073223">
        <ele>28</ele>
        <time>2020-01-15T06:39:42Z</time>
      </trkpt>
      <trkpt lat="59.314061" lon="18.07323">
        <ele>27</ele>
        <time>2020-01-15T06:39:43Z</time>
      </trkpt>
      <trkpt lat="59.31409" lon="18.073261">
        <ele>27</ele>
        <time>2020-01-15T06:39:44Z</time>
      </trkpt>
      <trkpt lat="59.314123" lon="18.073298">
        <ele>27</ele>
        <time>2020-01-15T06:39:45Z</time>
      </trkpt>
      <trkpt lat="59.314148" lon="18.073334">
        <ele>27</ele>
        <time>2020-01-15T06:39:46Z</time>
      </trkpt>
      <trkpt lat="59.314173" lon="18.073346">
        <ele>27</ele>
        <time>2020-01-15T06:39:47Z</time>
      </trkpt>
      <trkpt lat="59.314197" lon="18.07335">
        <ele>27</ele>
        <time>2020-01-15T06:39:48Z</time>
      </trkpt>
      <trkpt lat="59.314222" lon="18.073352">
        <ele>27</ele>
        <time>2020-01-15T06:39:49Z</time>
      </trkpt>
      <trkpt lat="59.314248" lon="18.07335">
        <ele>27</ele>
        <time>2020-01-15T06:39:50Z</time>
      </trkpt>
      <trkpt lat="59.314273" lon="18.073345">
        <ele>27</ele>
        <time>2020-01-15T06:39:51Z</time>
      </trkpt>
      <trkpt lat="59.314293" lon="18.07333">
        <ele>27</ele>
        <time>2020-01-15T06:39:52Z</time>
      </trkpt>
      <trkpt lat="59.314323" lon="18.073334">
        <ele>27</ele>
        <time>2020-01-15T06:39:54Z</time>
      </trkpt>
      <trkpt lat="59.314341" lon="18.073329">
        <ele>28</ele>
        <time>2020-01-15T06:39:55Z</time>
      </trkpt>
      <trkpt lat="59.314358" lon="18.073314">
        <ele>0</ele>
        <time>2020-01-15T06:39:55Z</time>
      </trkpt>
      <trkpt lat="59.314378" lon="18.073292">
        <ele>28</ele>
        <time>2020-01-15T06:39:56Z</time>
      </trkpt>
      <trkpt lat="59.314396" lon="18.07326">
        <ele>29</ele>
        <time>2020-01-15T06:39:58Z</time>
      </trkpt>
      <trkpt lat="59.314418" lon="18.073206">
        <ele>29</ele>
        <time>2020-01-15T06:39:59Z</time>
      </trkpt>
      <trkpt lat="59.314436" lon="18.073171">
        <ele>29</ele>
        <time>2020-01-15T06:40:01Z</time>
      </trkpt>
      <trkpt lat="59.314455" lon="18.073141">
        <ele>29</ele>
        <time>2020-01-15T06:40:02Z</time>
      </trkpt>
      <trkpt lat="59.314533" lon="18.072992">
        <ele>29</ele>
        <time>2020-01-15T06:40:06Z</time>
      </trkpt>
      <trkpt lat="59.314583" lon="18.072972">
        <ele>29</ele>
        <time>2020-01-15T06:40:08Z</time>
      </trkpt>
      <trkpt lat="59.31461" lon="18.072998">
        <ele>29</ele>
        <time>2020-01-15T06:40:09Z</time>
      </trkpt>
      <trkpt lat="59.314639" lon="18.07302">
        <ele>29</ele>
        <time>2020-01-15T06:40:10Z</time>
      </trkpt>
      <trkpt lat="59.314665" lon="18.073025">
        <ele>29</ele>
        <time>2020-01-15T06:40:11Z</time>
      </trkpt>
      <trkpt lat="59.31469" lon="18.073019">
        <ele>29</ele>
        <time>2020-01-15T06:40:12Z</time>
      </trkpt>
      <trkpt lat="59.314718" lon="18.073009">
        <ele>29</ele>
        <time>2020-01-15T06:40:13Z</time>
      </trkpt>
      <trkpt lat="59.314745" lon="18.072998">
        <ele>29</ele>
        <time>2020-01-15T06:40:14Z</time>
      </trkpt>
      <trkpt lat="59.314772" lon="18.072984">
        <ele>0</ele>
        <time>2020-01-15T06:40:14Z</time>
      </trkpt>
      <trkpt lat="59.314804" lon="18.072981">
        <ele>29</ele>
        <time>2020-01-15T06:40:15Z</time>
      </trkpt>
      <trkpt lat="59.31484" lon="18.072989">
        <ele>29</ele>
        <time>2020-01-15T06:40:16Z</time>
      </trkpt>
      <trkpt lat="59.314878" lon="18.072992">
        <ele>29</ele>
        <time>2020-01-15T06:40:18Z</time>
      </trkpt>
      <trkpt lat="59.314917" lon="18.073002">
        <ele>29</ele>
        <time>2020-01-15T06:40:19Z</time>
      </trkpt>
      <trkpt lat="59.314954" lon="18.07302">
        <ele>29</ele>
        <time>2020-01-15T06:40:20Z</time>
      </trkpt>
      <trkpt lat="59.314986" lon="18.07304">
        <ele>29</ele>
        <time>2020-01-15T06:40:21Z</time>
      </trkpt>
      <trkpt lat="59.31502" lon="18.073047">
        <ele>29</ele>
        <time>2020-01-15T06:40:22Z</time>
      </trkpt>
      <trkpt lat="59.315045" lon="18.07306">
        <ele>29</ele>
        <time>2020-01-15T06:40:23Z</time>
      </trkpt>
      <trkpt lat="59.315072" lon="18.07306">
        <ele>29</ele>
        <time>2020-01-15T06:40:24Z</time>
      </trkpt>
      <trkpt lat="59.315103" lon="18.073061">
        <ele>28</ele>
        <time>2020-01-15T06:40:25Z</time>
      </trkpt>
      <trkpt lat="59.315138" lon="18.073061">
        <ele>28</ele>
        <time>2020-01-15T06:40:26Z</time>
      </trkpt>
      <trkpt lat="59.315163" lon="18.073044">
        <ele>28</ele>
        <time>2020-01-15T06:40:27Z</time>
      </trkpt>
      <trkpt lat="59.315193" lon="18.073037">
        <ele>28</ele>
        <time>2020-01-15T06:40:28Z</time>
      </trkpt>
      <trkpt lat="59.31522" lon="18.073041">
        <ele>28</ele>
        <time>2020-01-15T06:40:29Z</time>
      </trkpt>
      <trkpt lat="59.315245" lon="18.073043">
        <ele>28</ele>
        <time>2020-01-15T06:40:30Z</time>
      </trkpt>
      <trkpt lat="59.315269" lon="18.073046">
        <ele>28</ele>
        <time>2020-01-15T06:40:31Z</time>
      </trkpt>
      <trkpt lat="59.315298" lon="18.073037">
        <ele>0</ele>
        <time>2020-01-15T06:40:31Z</time>
      </trkpt>
      <trkpt lat="59.315329" lon="18.073016">
        <ele>28</ele>
        <time>2020-01-15T06:40:32Z</time>
      </trkpt>
      <trkpt lat="59.315362" lon="18.072993">
        <ele>0</ele>
        <time>2020-01-15T06:40:33Z</time>
      </trkpt>
      <trkpt lat="59.315389" lon="18.07297">
        <ele>27</ele>
        <time>2020-01-15T06:40:34Z</time>
      </trkpt>
      <trkpt lat="59.315418" lon="18.072947">
        <ele>28</ele>
        <time>2020-01-15T06:40:36Z</time>
      </trkpt>
      <trkpt lat="59.315447" lon="18.072923">
        <ele>28</ele>
        <time>2020-01-15T06:40:37Z</time>
      </trkpt>
      <trkpt lat="59.315473" lon="18.072889">
        <ele>28</ele>
        <time>2020-01-15T06:40:38Z</time>
      </trkpt>
      <trkpt lat="59.315501" lon="18.072867">
        <ele>28</ele>
        <time>2020-01-15T06:40:39Z</time>
      </trkpt>
      <trkpt lat="59.315522" lon="18.072853">
        <ele>28</ele>
        <time>2020-01-15T06:40:40Z</time>
      </trkpt>
      <trkpt lat="59.315548" lon="18.072837">
        <ele>28</ele>
        <time>2020-01-15T06:40:41Z</time>
      </trkpt>
      <trkpt lat="59.315573" lon="18.072817">
        <ele>28</ele>
        <time>2020-01-15T06:40:42Z</time>
      </trkpt>
      <trkpt lat="59.315597" lon="18.072796">
        <ele>28</ele>
        <time>2020-01-15T06:40:43Z</time>
      </trkpt>
      <trkpt lat="59.315618" lon="18.072773">
        <ele>28</ele>
        <time>2020-01-15T06:40:44Z</time>
      </trkpt>
      <trkpt lat="59.315639" lon="18.072739">
        <ele>28</ele>
        <time>2020-01-15T06:40:45Z</time>
      </trkpt>
      <trkpt lat="59.315654" lon="18.07271">
        <ele>29</ele>
        <time>2020-01-15T06:40:46Z</time>
      </trkpt>
      <trkpt lat="59.31567" lon="18.072682">
        <ele>29</ele>
        <time>2020-01-15T06:40:47Z</time>
      </trkpt>
      <trkpt lat="59.315689" lon="18.072649">
        <ele>29</ele>
        <time>2020-01-15T06:40:48Z</time>
      </trkpt>
      <trkpt lat="59.315707" lon="18.072622">
        <ele>29</ele>
        <time>2020-01-15T06:40:49Z</time>
      </trkpt>
      <trkpt lat="59.315725" lon="18.072605">
        <ele>29</ele>
        <time>2020-01-15T06:40:50Z</time>
      </trkpt>
      <trkpt lat="59.315822" lon="18.07255">
        <ele>29</ele>
        <time>2020-01-15T06:40:54Z</time>
      </trkpt>
      <trkpt lat="59.315912" lon="18.0725">
        <ele>30</ele>
        <time>2020-01-15T06:40:59Z</time>
      </trkpt>
      <trkpt lat="59.31602" lon="18.072443">
        <ele>30</ele>
        <time>2020-01-15T06:41:04Z</time>
      </trkpt>
      <trkpt lat="59.316052" lon="18.072442">
        <ele>30</ele>
        <time>2020-01-15T06:41:05Z</time>
      </trkpt>
      <trkpt lat="59.316142" lon="18.072404">
        <ele>30</ele>
        <time>2020-01-15T06:41:08Z</time>
      </trkpt>
      <trkpt lat="59.316242" lon="18.072327">
        <ele>0</ele>
        <time>2020-01-15T06:41:11Z</time>
      </trkpt>
      <trkpt lat="59.316359" lon="18.072228">
        <ele>30</ele>
        <time>2020-01-15T06:41:15Z</time>
      </trkpt>
      <trkpt lat="59.316453" lon="18.072176">
        <ele>30</ele>
        <time>2020-01-15T06:41:20Z</time>
      </trkpt>
      <trkpt lat="59.316555" lon="18.072112">
        <ele>30</ele>
        <time>2020-01-15T06:41:25Z</time>
      </trkpt>
      <trkpt lat="59.31667" lon="18.072094">
        <ele>30</ele>
        <time>2020-01-15T06:41:29Z</time>
      </trkpt>
      <trkpt lat="59.316718" lon="18.072089">
        <ele>0</ele>
        <time>2020-01-15T06:41:30Z</time>
      </trkpt>
      <trkpt lat="59.316772" lon="18.072067">
        <ele>30</ele>
        <time>2020-01-15T06:41:32Z</time>
      </trkpt>
      <trkpt lat="59.316804" lon="18.072056">
        <ele>30</ele>
        <time>2020-01-15T06:41:34Z</time>
      </trkpt>
      <trkpt lat="59.316897" lon="18.072017">
        <ele>30</ele>
        <time>2020-01-15T06:41:37Z</time>
      </trkpt>
      <trkpt lat="59.317008" lon="18.071952">
        <ele>29</ele>
        <time>2020-01-15T06:41:41Z</time>
      </trkpt>
      <trkpt lat="59.317045" lon="18.071954">
        <ele>29</ele>
        <time>2020-01-15T06:41:42Z</time>
      </trkpt>
      <trkpt lat="59.317155" lon="18.071961">
        <ele>29</ele>
        <time>2020-01-15T06:41:45Z</time>
      </trkpt>
      <trkpt lat="59.317218" lon="18.071947">
        <ele>29</ele>
        <time>2020-01-15T06:41:46Z</time>
      </trkpt>
      <trkpt lat="59.317252" lon="18.071934">
        <ele>29</ele>
        <time>2020-01-15T06:41:48Z</time>
      </trkpt>
      <trkpt lat="59.317284" lon="18.071907">
        <ele>29</ele>
        <time>2020-01-15T06:41:49Z</time>
      </trkpt>
      <trkpt lat="59.317315" lon="18.071888">
        <ele>0</ele>
        <time>2020-01-15T06:41:49Z</time>
      </trkpt>
      <trkpt lat="59.317347" lon="18.071875">
        <ele>29</ele>
        <time>2020-01-15T06:41:50Z</time>
      </trkpt>
      <trkpt lat="59.317375" lon="18.071863">
        <ele>29</ele>
        <time>2020-01-15T06:41:52Z</time>
      </trkpt>
      <trkpt lat="59.317406" lon="18.071853">
        <ele>29</ele>
        <time>2020-01-15T06:41:53Z</time>
      </trkpt>
      <trkpt lat="59.317442" lon="18.071848">
        <ele>29</ele>
        <time>2020-01-15T06:41:54Z</time>
      </trkpt>
      <trkpt lat="59.317476" lon="18.071835">
        <ele>29</ele>
        <time>2020-01-15T06:41:55Z</time>
      </trkpt>
      <trkpt lat="59.317511" lon="18.071818">
        <ele>29</ele>
        <time>2020-01-15T06:41:56Z</time>
      </trkpt>
      <trkpt lat="59.317545" lon="18.071807">
        <ele>29</ele>
        <time>2020-01-15T06:41:57Z</time>
      </trkpt>
      <trkpt lat="59.317579" lon="18.071799">
        <ele>29</ele>
        <time>2020-01-15T06:41:58Z</time>
      </trkpt>
      <trkpt lat="59.317615" lon="18.071789">
        <ele>29</ele>
        <time>2020-01-15T06:41:59Z</time>
      </trkpt>
      <trkpt lat="59.31765" lon="18.071777">
        <ele>29</ele>
        <time>2020-01-15T06:42:00Z</time>
      </trkpt>
      <trkpt lat="59.317755" lon="18.071732">
        <ele>29</ele>
        <time>2020-01-15T06:42:02Z</time>
      </trkpt>
      <trkpt lat="59.317855" lon="18.071696">
        <ele>29</ele>
        <time>2020-01-15T06:42:06Z</time>
      </trkpt>
      <trkpt lat="59.317915" lon="18.071611">
        <ele>29</ele>
        <time>2020-01-15T06:42:08Z</time>
      </trkpt>
      <trkpt lat="59.317942" lon="18.071568">
        <ele>0</ele>
        <time>2020-01-15T06:42:08Z</time>
      </trkpt>
      <trkpt lat="59.317968" lon="18.071547">
        <ele>29</ele>
        <time>2020-01-15T06:42:09Z</time>
      </trkpt>
      <trkpt lat="59.317999" lon="18.071533">
        <ele>29</ele>
        <time>2020-01-15T06:42:11Z</time>
      </trkpt>
      <trkpt lat="59.318033" lon="18.071531">
        <ele>29</ele>
        <time>2020-01-15T06:42:12Z</time>
      </trkpt>
      <trkpt lat="59.318067" lon="18.071526">
        <ele>29</ele>
        <time>2020-01-15T06:42:13Z</time>
      </trkpt>
      <trkpt lat="59.318099" lon="18.071504">
        <ele>29</ele>
        <time>2020-01-15T06:42:14Z</time>
      </trkpt>
      <trkpt lat="59.31813" lon="18.07149">
        <ele>29</ele>
        <time>2020-01-15T06:42:15Z</time>
      </trkpt>
      <trkpt lat="59.318163" lon="18.071481">
        <ele>0</ele>
        <time>2020-01-15T06:42:15Z</time>
      </trkpt>
      <trkpt lat="59.318199" lon="18.071487">
        <ele>29</ele>
        <time>2020-01-15T06:42:16Z</time>
      </trkpt>
      <trkpt lat="59.318233" lon="18.071493">
        <ele>29</ele>
        <time>2020-01-15T06:42:18Z</time>
      </trkpt>
      <trkpt lat="59.318268" lon="18.071492">
        <ele>29</ele>
        <time>2020-01-15T06:42:19Z</time>
      </trkpt>
      <trkpt lat="59.318305" lon="18.071495">
        <ele>29</ele>
        <time>2020-01-15T06:42:20Z</time>
      </trkpt>
      <trkpt lat="59.318423" lon="18.071466">
        <ele>29</ele>
        <time>2020-01-15T06:42:23Z</time>
      </trkpt>
      <trkpt lat="59.318538" lon="18.071442">
        <ele>28</ele>
        <time>2020-01-15T06:42:26Z</time>
      </trkpt>
      <trkpt lat="59.318638" lon="18.071319">
        <ele>29</ele>
        <time>2020-01-15T06:42:28Z</time>
      </trkpt>
      <trkpt lat="59.318673" lon="18.071286">
        <ele>29</ele>
        <time>2020-01-15T06:42:29Z</time>
      </trkpt>
      <trkpt lat="59.31871" lon="18.071257">
        <ele>29</ele>
        <time>2020-01-15T06:42:31Z</time>
      </trkpt>
      <trkpt lat="59.318747" lon="18.071237">
        <ele>29</ele>
        <time>2020-01-15T06:42:32Z</time>
      </trkpt>
      <trkpt lat="59.318779" lon="18.071228">
        <ele>29</ele>
        <time>2020-01-15T06:42:33Z</time>
      </trkpt>
      <trkpt lat="59.318816" lon="18.071214">
        <ele>29</ele>
        <time>2020-01-15T06:42:34Z</time>
      </trkpt>
      <trkpt lat="59.318859" lon="18.071201">
        <ele>29</ele>
        <time>2020-01-15T06:42:35Z</time>
      </trkpt>
      <trkpt lat="59.318898" lon="18.071193">
        <ele>29</ele>
        <time>2020-01-15T06:42:36Z</time>
      </trkpt>
      <trkpt lat="59.318938" lon="18.071181">
        <ele>29</ele>
        <time>2020-01-15T06:42:37Z</time>
      </trkpt>
      <trkpt lat="59.318976" lon="18.071158">
        <ele>29</ele>
        <time>2020-01-15T06:42:38Z</time>
      </trkpt>
      <trkpt lat="59.319016" lon="18.071139">
        <ele>29</ele>
        <time>2020-01-15T06:42:39Z</time>
      </trkpt>
      <trkpt lat="59.319056" lon="18.071121">
        <ele>28</ele>
        <time>2020-01-15T06:42:40Z</time>
      </trkpt>
      <trkpt lat="59.319095" lon="18.071106">
        <ele>0</ele>
        <time>2020-01-15T06:42:40Z</time>
      </trkpt>
      <trkpt lat="59.319135" lon="18.071094">
        <ele>28</ele>
        <time>2020-01-15T06:42:41Z</time>
      </trkpt>
      <trkpt lat="59.31917" lon="18.071075">
        <ele>28</ele>
        <time>2020-01-15T06:42:43Z</time>
      </trkpt>
      <trkpt lat="59.319206" lon="18.071062">
        <ele>28</ele>
        <time>2020-01-15T06:42:44Z</time>
      </trkpt>
      <trkpt lat="59.319238" lon="18.07104">
        <ele>28</ele>
        <time>2020-01-15T06:42:45Z</time>
      </trkpt>
      <trkpt lat="59.319275" lon="18.071021">
        <ele>28</ele>
        <time>2020-01-15T06:42:46Z</time>
      </trkpt>
      <trkpt lat="59.319317" lon="18.071002">
        <ele>0</ele>
        <time>2020-01-15T06:42:46Z</time>
      </trkpt>
      <trkpt lat="59.319354" lon="18.07098">
        <ele>28</ele>
        <time>2020-01-15T06:42:47Z</time>
      </trkpt>
      <trkpt lat="59.31939" lon="18.070953">
        <ele>28</ele>
        <time>2020-01-15T06:42:49Z</time>
      </trkpt>
      <trkpt lat="59.319419" lon="18.070897">
        <ele>27</ele>
        <time>2020-01-15T06:42:50Z</time>
      </trkpt>
      <trkpt lat="59.31945" lon="18.070854">
        <ele>27</ele>
        <time>2020-01-15T06:42:51Z</time>
      </trkpt>
      <trkpt lat="59.319482" lon="18.07082">
        <ele>27</ele>
        <time>2020-01-15T06:42:52Z</time>
      </trkpt>
      <trkpt lat="59.319512" lon="18.070791">
        <ele>27</ele>
        <time>2020-01-15T06:42:53Z</time>
      </trkpt>
      <trkpt lat="59.319543" lon="18.070753">
        <ele>27</ele>
        <time>2020-01-15T06:42:54Z</time>
      </trkpt>
      <trkpt lat="59.319576" lon="18.070717">
        <ele>0</ele>
        <time>2020-01-15T06:42:54Z</time>
      </trkpt>
      <trkpt lat="59.319613" lon="18.070682">
        <ele>27</ele>
        <time>2020-01-15T06:42:55Z</time>
      </trkpt>
      <trkpt lat="59.31965" lon="18.070652">
        <ele>27</ele>
        <time>2020-01-15T06:42:57Z</time>
      </trkpt>
      <trkpt lat="59.319685" lon="18.07062">
        <ele>27</ele>
        <time>2020-01-15T06:42:58Z</time>
      </trkpt>
      <trkpt lat="59.319715" lon="18.0706">
        <ele>27</ele>
        <time>2020-01-15T06:42:59Z</time>
      </trkpt>
      <trkpt lat="59.319743" lon="18.07058">
        <ele>27</ele>
        <time>2020-01-15T06:43:00Z</time>
      </trkpt>
      <trkpt lat="59.319772" lon="18.070574">
        <ele>27</ele>
        <time>2020-01-15T06:43:01Z</time>
      </trkpt>
      <trkpt lat="59.319797" lon="18.070563">
        <ele>27</ele>
        <time>2020-01-15T06:43:02Z</time>
      </trkpt>
      <trkpt lat="59.319822" lon="18.070556">
        <ele>0</ele>
        <time>2020-01-15T06:43:02Z</time>
      </trkpt>
      <trkpt lat="59.319844" lon="18.070549">
        <ele>27</ele>
        <time>2020-01-15T06:43:03Z</time>
      </trkpt>
      <trkpt lat="59.319866" lon="18.070536">
        <ele>26</ele>
        <time>2020-01-15T06:43:05Z</time>
      </trkpt>
      <trkpt lat="59.319899" lon="18.070537">
        <ele>26</ele>
        <time>2020-01-15T06:43:06Z</time>
      </trkpt>
      <trkpt lat="59.319917" lon="18.070533">
        <ele>26</ele>
        <time>2020-01-15T06:43:08Z</time>
      </trkpt>
      <trkpt lat="59.31994" lon="18.070523">
        <ele>25</ele>
        <time>2020-01-15T06:43:09Z</time>
      </trkpt>
      <trkpt lat="59.319965" lon="18.07054">
        <ele>25</ele>
        <time>2020-01-15T06:43:10Z</time>
      </trkpt>
      <trkpt lat="59.319992" lon="18.070579">
        <ele>25</ele>
        <time>2020-01-15T06:43:11Z</time>
      </trkpt>
      <trkpt lat="59.320012" lon="18.070626">
        <ele>25</ele>
        <time>2020-01-15T06:43:12Z</time>
      </trkpt>
      <trkpt lat="59.320028" lon="18.070677">
        <ele>0</ele>
        <time>2020-01-15T06:43:12Z</time>
      </trkpt>
      <trkpt lat="59.320043" lon="18.07072">
        <ele>25</ele>
        <time>2020-01-15T06:43:13Z</time>
      </trkpt>
      <trkpt lat="59.320062" lon="18.070753">
        <ele>25</ele>
        <time>2020-01-15T06:43:15Z</time>
      </trkpt>
      <trkpt lat="59.320081" lon="18.070787">
        <ele>25</ele>
        <time>2020-01-15T06:43:16Z</time>
      </trkpt>
      <trkpt lat="59.320094" lon="18.070821">
        <ele>25</ele>
        <time>2020-01-15T06:43:17Z</time>
      </trkpt>
      <trkpt lat="59.320105" lon="18.070853">
        <ele>25</ele>
        <time>2020-01-15T06:43:18Z</time>
      </trkpt>
      <trkpt lat="59.320122" lon="18.070876">
        <ele>25</ele>
        <time>2020-01-15T06:43:19Z</time>
      </trkpt>
      <trkpt lat="59.320139" lon="18.070899">
        <ele>24</ele>
        <time>2020-01-15T06:43:20Z</time>
      </trkpt>
      <trkpt lat="59.320162" lon="18.070926">
        <ele>24</ele>
        <time>2020-01-15T06:43:21Z</time>
      </trkpt>
      <trkpt lat="59.320191" lon="18.070946">
        <ele>24</ele>
        <time>2020-01-15T06:43:22Z</time>
      </trkpt>
      <trkpt lat="59.320215" lon="18.070966">
        <ele>24</ele>
        <time>2020-01-15T06:43:23Z</time>
      </trkpt>
      <trkpt lat="59.320236" lon="18.070985">
        <ele>24</ele>
        <time>2020-01-15T06:43:24Z</time>
      </trkpt>
      <trkpt lat="59.320258" lon="18.071007">
        <ele>0</ele>
        <time>2020-01-15T06:43:24Z</time>
      </trkpt>
      <trkpt lat="59.32027" lon="18.071042">
        <ele>24</ele>
        <time>2020-01-15T06:43:25Z</time>
      </trkpt>
      <trkpt lat="59.320272" lon="18.071088">
        <ele>24</ele>
        <time>2020-01-15T06:43:27Z</time>
      </trkpt>
      <trkpt lat="59.32026" lon="18.071134">
        <ele>24</ele>
        <time>2020-01-15T06:43:28Z</time>
      </trkpt>
      <trkpt lat="59.32026" lon="18.071174">
        <ele>24</ele>
        <time>2020-01-15T06:43:29Z</time>
      </trkpt>
      <trkpt lat="59.320272" lon="18.071218">
        <ele>23</ele>
        <time>2020-01-15T06:43:30Z</time>
      </trkpt>
      <trkpt lat="59.320294" lon="18.071272">
        <ele>23</ele>
        <time>2020-01-15T06:43:31Z</time>
      </trkpt>
      <trkpt lat="59.320342" lon="18.071363">
        <ele>23</ele>
        <time>2020-01-15T06:43:32Z</time>
      </trkpt>
      <trkpt lat="59.320367" lon="18.071393">
        <ele>22</ele>
        <time>2020-01-15T06:43:34Z</time>
      </trkpt>
      <trkpt lat="59.320391" lon="18.071414">
        <ele>22</ele>
        <time>2020-01-15T06:43:35Z</time>
      </trkpt>
      <trkpt lat="59.320417" lon="18.071434">
        <ele>21</ele>
        <time>2020-01-15T06:43:36Z</time>
      </trkpt>
      <trkpt lat="59.320442" lon="18.071445">
        <ele>21</ele>
        <time>2020-01-15T06:43:37Z</time>
      </trkpt>
      <trkpt lat="59.320465" lon="18.071463">
        <ele>21</ele>
        <time>2020-01-15T06:43:38Z</time>
      </trkpt>
      <trkpt lat="59.320487" lon="18.071467">
        <ele>21</ele>
        <time>2020-01-15T06:43:39Z</time>
      </trkpt>
      <trkpt lat="59.320519" lon="18.071465">
        <ele>21</ele>
        <time>2020-01-15T06:43:40Z</time>
      </trkpt>
      <trkpt lat="59.320548" lon="18.071466">
        <ele>21</ele>
        <time>2020-01-15T06:43:41Z</time>
      </trkpt>
      <trkpt lat="59.320574" lon="18.07147">
        <ele>21</ele>
        <time>2020-01-15T06:43:42Z</time>
      </trkpt>
      <trkpt lat="59.320598" lon="18.071469">
        <ele>20</ele>
        <time>2020-01-15T06:43:43Z</time>
      </trkpt>
      <trkpt lat="59.320625" lon="18.071476">
        <ele>0</ele>
        <time>2020-01-15T06:43:43Z</time>
      </trkpt>
      <trkpt lat="59.32065" lon="18.071493">
        <ele>20</ele>
        <time>2020-01-15T06:43:44Z</time>
      </trkpt>
      <trkpt lat="59.320687" lon="18.071518">
        <ele>19</ele>
        <time>2020-01-15T06:43:46Z</time>
      </trkpt>
      <trkpt lat="59.320715" lon="18.071528">
        <ele>19</ele>
        <time>2020-01-15T06:43:47Z</time>
      </trkpt>
      <trkpt lat="59.320746" lon="18.071549">
        <ele>19</ele>
        <time>2020-01-15T06:43:48Z</time>
      </trkpt>
      <trkpt lat="59.320769" lon="18.071576">
        <ele>19</ele>
        <time>2020-01-15T06:43:49Z</time>
      </trkpt>
      <trkpt lat="59.320791" lon="18.071609">
        <ele>0</ele>
        <time>2020-01-15T06:43:49Z</time>
      </trkpt>
      <trkpt lat="59.32081" lon="18.071654">
        <ele>19</ele>
        <time>2020-01-15T06:43:50Z</time>
      </trkpt>
      <trkpt lat="59.320825" lon="18.071707">
        <ele>19</ele>
        <time>2020-01-15T06:43:52Z</time>
      </trkpt>
      <trkpt lat="59.320834" lon="18.071759">
        <ele>19</ele>
        <time>2020-01-15T06:43:53Z</time>
      </trkpt>
      <trkpt lat="59.320847" lon="18.07181">
        <ele>18</ele>
        <time>2020-01-15T06:43:54Z</time>
      </trkpt>
      <trkpt lat="59.320855" lon="18.071863">
        <ele>18</ele>
        <time>2020-01-15T06:43:55Z</time>
      </trkpt>
      <trkpt lat="59.320862" lon="18.07192">
        <ele>18</ele>
        <time>2020-01-15T06:43:56Z</time>
      </trkpt>
      <trkpt lat="59.320887" lon="18.072016">
        <ele>18</ele>
        <time>2020-01-15T06:43:58Z</time>
      </trkpt>
      <trkpt lat="59.320907" lon="18.072063">
        <ele>18</ele>
        <time>2020-01-15T06:43:59Z</time>
      </trkpt>
      <trkpt lat="59.320921" lon="18.072113">
        <ele>18</ele>
        <time>2020-01-15T06:44:00Z</time>
      </trkpt>
      <trkpt lat="59.320937" lon="18.07215">
        <ele>18</ele>
        <time>2020-01-15T06:44:01Z</time>
      </trkpt>
      <trkpt lat="59.32096" lon="18.072182">
        <ele>18</ele>
        <time>2020-01-15T06:44:02Z</time>
      </trkpt>
      <trkpt lat="59.320983" lon="18.072201">
        <ele>0</ele>
        <time>2020-01-15T06:44:02Z</time>
      </trkpt>
      <trkpt lat="59.321008" lon="18.072223">
        <ele>17</ele>
        <time>2020-01-15T06:44:03Z</time>
      </trkpt>
      <trkpt lat="59.321037" lon="18.072238">
        <ele>17</ele>
        <time>2020-01-15T06:44:05Z</time>
      </trkpt>
      <trkpt lat="59.321065" lon="18.072256">
        <ele>17</ele>
        <time>2020-01-15T06:44:06Z</time>
      </trkpt>
      <trkpt lat="59.321093" lon="18.072276">
        <ele>17</ele>
        <time>2020-01-15T06:44:07Z</time>
      </trkpt>
      <trkpt lat="59.321122" lon="18.072293">
        <ele>0</ele>
        <time>2020-01-15T06:44:07Z</time>
      </trkpt>
      <trkpt lat="59.32115" lon="18.072311">
        <ele>17</ele>
        <time>2020-01-15T06:44:08Z</time>
      </trkpt>
      <trkpt lat="59.321178" lon="18.072328">
        <ele>16</ele>
        <time>2020-01-15T06:44:10Z</time>
      </trkpt>
      <trkpt lat="59.321209" lon="18.07235">
        <ele>16</ele>
        <time>2020-01-15T06:44:11Z</time>
      </trkpt>
      <trkpt lat="59.321236" lon="18.072369">
        <ele>16</ele>
        <time>2020-01-15T06:44:12Z</time>
      </trkpt>
      <trkpt lat="59.321259" lon="18.072387">
        <ele>16</ele>
        <time>2020-01-15T06:44:13Z</time>
      </trkpt>
      <trkpt lat="59.321285" lon="18.072403">
        <ele>16</ele>
        <time>2020-01-15T06:44:14Z</time>
      </trkpt>
      <trkpt lat="59.321311" lon="18.072417">
        <ele>15</ele>
        <time>2020-01-15T06:44:15Z</time>
      </trkpt>
      <trkpt lat="59.321334" lon="18.07244">
        <ele>15</ele>
        <time>2020-01-15T06:44:16Z</time>
      </trkpt>
      <trkpt lat="59.32136" lon="18.07247">
        <ele>15</ele>
        <time>2020-01-15T06:44:17Z</time>
      </trkpt>
      <trkpt lat="59.321384" lon="18.072492">
        <ele>15</ele>
        <time>2020-01-15T06:44:18Z</time>
      </trkpt>
      <trkpt lat="59.321404" lon="18.07251">
        <ele>15</ele>
        <time>2020-01-15T06:44:19Z</time>
      </trkpt>
      <trkpt lat="59.321427" lon="18.072529">
        <ele>15</ele>
        <time>2020-01-15T06:44:20Z</time>
      </trkpt>
      <trkpt lat="59.321451" lon="18.072547">
        <ele>15</ele>
        <time>2020-01-15T06:44:21Z</time>
      </trkpt>
      <trkpt lat="59.321476" lon="18.072567">
        <ele>0</ele>
        <time>2020-01-15T06:44:21Z</time>
      </trkpt>
      <trkpt lat="59.321503" lon="18.072577">
        <ele>14</ele>
        <time>2020-01-15T06:44:22Z</time>
      </trkpt>
      <trkpt lat="59.321527" lon="18.07259">
        <ele>14</ele>
        <time>2020-01-15T06:44:24Z</time>
      </trkpt>
      <trkpt lat="59.321554" lon="18.072599">
        <ele>14</ele>
        <time>2020-01-15T06:44:25Z</time>
      </trkpt>
      <trkpt lat="59.321581" lon="18.072623">
        <ele>0</ele>
        <time>2020-01-15T06:44:25Z</time>
      </trkpt>
      <trkpt lat="59.321608" lon="18.072644">
        <ele>14</ele>
        <time>2020-01-15T06:44:26Z</time>
      </trkpt>
      <trkpt lat="59.321633" lon="18.072666">
        <ele>13</ele>
        <time>2020-01-15T06:44:28Z</time>
      </trkpt>
      <trkpt lat="59.321653" lon="18.072677">
        <ele>13</ele>
        <time>2020-01-15T06:44:29Z</time>
      </trkpt>
      <trkpt lat="59.321675" lon="18.07269">
        <ele>13</ele>
        <time>2020-01-15T06:44:30Z</time>
      </trkpt>
      <trkpt lat="59.321696" lon="18.072709">
        <ele>12</ele>
        <time>2020-01-15T06:44:31Z</time>
      </trkpt>
      <trkpt lat="59.321718" lon="18.072727">
        <ele>12</ele>
        <time>2020-01-15T06:44:32Z</time>
      </trkpt>
      <trkpt lat="59.32174" lon="18.072745">
        <ele>12</ele>
        <time>2020-01-15T06:44:33Z</time>
      </trkpt>
      <trkpt lat="59.321761" lon="18.072763">
        <ele>12</ele>
        <time>2020-01-15T06:44:34Z</time>
      </trkpt>
      <trkpt lat="59.321785" lon="18.072784">
        <ele>11</ele>
        <time>2020-01-15T06:44:35Z</time>
      </trkpt>
      <trkpt lat="59.321811" lon="18.072791">
        <ele>11</ele>
        <time>2020-01-15T06:44:36Z</time>
      </trkpt>
      <trkpt lat="59.321833" lon="18.072804">
        <ele>11</ele>
        <time>2020-01-15T06:44:37Z</time>
      </trkpt>
      <trkpt lat="59.321856" lon="18.072814">
        <ele>11</ele>
        <time>2020-01-15T06:44:38Z</time>
      </trkpt>
      <trkpt lat="59.321877" lon="18.072824">
        <ele>11</ele>
        <time>2020-01-15T06:44:39Z</time>
      </trkpt>
      <trkpt lat="59.321897" lon="18.072841">
        <ele>11</ele>
        <time>2020-01-15T06:44:40Z</time>
      </trkpt>
      <trkpt lat="59.321915" lon="18.072859">
        <ele>0</ele>
        <time>2020-01-15T06:44:40Z</time>
      </trkpt>
      <trkpt lat="59.32194" lon="18.072881">
        <ele>11</ele>
        <time>2020-01-15T06:44:41Z</time>
      </trkpt>
      <trkpt lat="59.321955" lon="18.072904">
        <ele>11</ele>
        <time>2020-01-15T06:44:43Z</time>
      </trkpt>
      <trkpt lat="59.321974" lon="18.072931">
        <ele>11</ele>
        <time>2020-01-15T06:44:44Z</time>
      </trkpt>
      <trkpt lat="59.321985" lon="18.07297">
        <ele>11</ele>
        <time>2020-01-15T06:44:45Z</time>
      </trkpt>
      <trkpt lat="59.322" lon="18.073006">
        <ele>11</ele>
        <time>2020-01-15T06:44:46Z</time>
      </trkpt>
      <trkpt lat="59.322012" lon="18.073056">
        <ele>0</ele>
        <time>2020-01-15T06:44:46Z</time>
      </trkpt>
      <trkpt lat="59.322018" lon="18.073111">
        <ele>11</ele>
        <time>2020-01-15T06:44:47Z</time>
      </trkpt>
      <trkpt lat="59.322019" lon="18.073168">
        <ele>11</ele>
        <time>2020-01-15T06:44:49Z</time>
      </trkpt>
      <trkpt lat="59.322018" lon="18.073221">
        <ele>11</ele>
        <time>2020-01-15T06:44:50Z</time>
      </trkpt>
      <trkpt lat="59.322019" lon="18.073281">
        <ele>11</ele>
        <time>2020-01-15T06:44:51Z</time>
      </trkpt>
      <trkpt lat="59.322018" lon="18.073334">
        <ele>11</ele>
        <time>2020-01-15T06:44:52Z</time>
      </trkpt>
      <trkpt lat="59.322014" lon="18.073381">
        <ele>11</ele>
        <time>2020-01-15T06:44:53Z</time>
      </trkpt>
      <trkpt lat="59.322014" lon="18.073446">
        <ele>11</ele>
        <time>2020-01-15T06:44:54Z</time>
      </trkpt>
      <trkpt lat="59.322011" lon="18.073498">
        <ele>11</ele>
        <time>2020-01-15T06:44:55Z</time>
      </trkpt>
      <trkpt lat="59.321989" lon="18.073654">
        <ele>11</ele>
        <time>2020-01-15T06:44:58Z</time>
      </trkpt>
      <trkpt lat="59.321977" lon="18.073711">
        <ele>11</ele>
        <time>2020-01-15T06:44:59Z</time>
      </trkpt>
      <trkpt lat="59.321959" lon="18.073907">
        <ele>10</ele>
        <time>2020-01-15T06:45:03Z</time>
      </trkpt>
      <trkpt lat="59.321971" lon="18.073949">
        <ele>10</ele>
        <time>2020-01-15T06:45:04Z</time>
      </trkpt>
      <trkpt lat="59.321982" lon="18.073997">
        <ele>10</ele>
        <time>2020-01-15T06:45:05Z</time>
      </trkpt>
      <trkpt lat="59.322046" lon="18.074134">
        <ele>10</ele>
        <time>2020-01-15T06:45:07Z</time>
      </trkpt>
      <trkpt lat="59.322126" lon="18.074258">
        <ele>10</ele>
        <time>2020-01-15T06:45:12Z</time>
      </trkpt>
      <trkpt lat="59.322233" lon="18.074331">
        <ele>10</ele>
        <time>2020-01-15T06:45:16Z</time>
      </trkpt>
      <trkpt lat="59.322319" lon="18.074392">
        <ele>0</ele>
        <time>2020-01-15T06:45:18Z</time>
      </trkpt>
      <trkpt lat="59.32243" lon="18.074394">
        <ele>10</ele>
        <time>2020-01-15T06:45:22Z</time>
      </trkpt>
      <trkpt lat="59.32253" lon="18.074392">
        <ele>10</ele>
        <time>2020-01-15T06:45:24Z</time>
      </trkpt>
      <trkpt lat="59.322625" lon="18.074458">
        <ele>10</ele>
        <time>2020-01-15T06:45:29Z</time>
      </trkpt>
      <trkpt lat="59.322698" lon="18.074577">
        <ele>10</ele>
        <time>2020-01-15T06:45:33Z</time>
      </trkpt>
      <trkpt lat="59.322794" lon="18.074702">
        <ele>9</ele>
        <time>2020-01-15T06:45:37Z</time>
      </trkpt>
      <trkpt lat="59.322895" lon="18.074764">
        <ele>9</ele>
        <time>2020-01-15T06:45:40Z</time>
      </trkpt>
      <trkpt lat="59.322998" lon="18.074861">
        <ele>8</ele>
        <time>2020-01-15T06:45:45Z</time>
      </trkpt>
      <trkpt lat="59.323106" lon="18.074914">
        <ele>7</ele>
        <time>2020-01-15T06:45:49Z</time>
      </trkpt>
      <trkpt lat="59.323205" lon="18.074953">
        <ele>6</ele>
        <time>2020-01-15T06:45:53Z</time>
      </trkpt>
      <trkpt lat="59.323311" lon="18.074915">
        <ele>0</ele>
        <time>2020-01-15T06:45:56Z</time>
      </trkpt>
      <trkpt lat="59.323405" lon="18.074938">
        <ele>6</ele>
        <time>2020-01-15T06:46:00Z</time>
      </trkpt>
      <trkpt lat="59.323503" lon="18.075">
        <ele>5</ele>
        <time>2020-01-15T06:46:05Z</time>
      </trkpt>
      <trkpt lat="59.323612" lon="18.074976">
        <ele>5</ele>
        <time>2020-01-15T06:46:09Z</time>
      </trkpt>
      <trkpt lat="59.323722" lon="18.074998">
        <ele>4</ele>
        <time>2020-01-15T06:46:14Z</time>
      </trkpt>
      <trkpt lat="59.323827" lon="18.075042">
        <ele>4</ele>
        <time>2020-01-15T06:46:18Z</time>
      </trkpt>
      <trkpt lat="59.323931" lon="18.075068">
        <ele>3</ele>
        <time>2020-01-15T06:46:21Z</time>
      </trkpt>
      <trkpt lat="59.324023" lon="18.075183">
        <ele>3</ele>
        <time>2020-01-15T06:46:26Z</time>
      </trkpt>
      <trkpt lat="59.324117" lon="18.075258">
        <ele>3</ele>
        <time>2020-01-15T06:46:30Z</time>
      </trkpt>
      <trkpt lat="59.324211" lon="18.07531">
        <ele>3</ele>
        <time>2020-01-15T06:46:34Z</time>
      </trkpt>
      <trkpt lat="59.324301" lon="18.075375">
        <ele>2</ele>
        <time>2020-01-15T06:46:38Z</time>
      </trkpt>
      <trkpt lat="59.324402" lon="18.07538">
        <ele>3</ele>
        <time>2020-01-15T06:46:41Z</time>
      </trkpt>
      <trkpt lat="59.324502" lon="18.075442">
        <ele>2</ele>
        <time>2020-01-15T06:46:46Z</time>
      </trkpt>
      <trkpt lat="59.324523" lon="18.075456">
        <ele>2</ele>
        <time>2020-01-15T06:46:47Z</time>
      </trkpt>
      <trkpt lat="59.324614" lon="18.075457">
        <ele>2</ele>
        <time>2020-01-15T06:46:51Z</time>
      </trkpt>
      <trkpt lat="59.324667" lon="18.075466">
        <ele>2</ele>
        <time>2020-01-15T06:46:53Z</time>
      </trkpt>
      <trkpt lat="59.324695" lon="18.075486">
        <ele>0</ele>
        <time>2020-01-15T06:46:53Z</time>
      </trkpt>
      <trkpt lat="59.324778" lon="18.075522">
        <ele>2</ele>
        <time>2020-01-15T06:46:57Z</time>
      </trkpt>
      <trkpt lat="59.324805" lon="18.07553">
        <ele>0</ele>
        <time>2020-01-15T06:46:57Z</time>
      </trkpt>
      <trkpt lat="59.324827" lon="18.075526">
        <ele>2</ele>
        <time>2020-01-15T06:46:58Z</time>
      </trkpt>
      <trkpt lat="59.324849" lon="18.07554">
        <ele>2</ele>
        <time>2020-01-15T06:47:00Z</time>
      </trkpt>
      <trkpt lat="59.324951" lon="18.075502">
        <ele>2</ele>
        <time>2020-01-15T06:47:04Z</time>
      </trkpt>
      <trkpt lat="59.325048" lon="18.075514">
        <ele>2</ele>
        <time>2020-01-15T06:47:08Z</time>
      </trkpt>
      <trkpt lat="59.325162" lon="18.075484">
        <ele>2</ele>
        <time>2020-01-15T06:47:12Z</time>
      </trkpt>
      <trkpt lat="59.325261" lon="18.075489">
        <ele>2</ele>
        <time>2020-01-15T06:47:16Z</time>
      </trkpt>
      <trkpt lat="59.325287" lon="18.075489">
        <ele>0</ele>
        <time>2020-01-15T06:47:16Z</time>
      </trkpt>
      <trkpt lat="59.325309" lon="18.075492">
        <ele>2</ele>
        <time>2020-01-15T06:47:17Z</time>
      </trkpt>
      <trkpt lat="59.325333" lon="18.075484">
        <ele>2</ele>
        <time>2020-01-15T06:47:19Z</time>
      </trkpt>
      <trkpt lat="59.325357" lon="18.07548">
        <ele>2</ele>
        <time>2020-01-15T06:47:20Z</time>
      </trkpt>
      <trkpt lat="59.325384" lon="18.075469">
        <ele>2</ele>
        <time>2020-01-15T06:47:21Z</time>
      </trkpt>
      <trkpt lat="59.325416" lon="18.075463">
        <ele>2</ele>
        <time>2020-01-15T06:47:22Z</time>
      </trkpt>
      <trkpt lat="59.325447" lon="18.075454">
        <ele>2</ele>
        <time>2020-01-15T06:47:23Z</time>
      </trkpt>
      <trkpt lat="59.325542" lon="18.075454">
        <ele>2</ele>
        <time>2020-01-15T06:47:27Z</time>
      </trkpt>
      <trkpt lat="59.32556" lon="18.075484">
        <ele>2</ele>
        <time>2020-01-15T06:47:28Z</time>
      </trkpt>
      <trkpt lat="59.325646" lon="18.075579">
        <ele>0</ele>
        <time>2020-01-15T06:47:31Z</time>
      </trkpt>
      <trkpt lat="59.325668" lon="18.075617">
        <ele>2</ele>
        <time>2020-01-15T06:47:32Z</time>
      </trkpt>
      <trkpt lat="59.325688" lon="18.075647">
        <ele>2</ele>
        <time>2020-01-15T06:47:34Z</time>
      </trkpt>
      <trkpt lat="59.325707" lon="18.075674">
        <ele>2</ele>
        <time>2020-01-15T06:47:35Z</time>
      </trkpt>
      <trkpt lat="59.325733" lon="18.075676">
        <ele>0</ele>
        <time>2020-01-15T06:47:35Z</time>
      </trkpt>
      <trkpt lat="59.325766" lon="18.075669">
        <ele>2</ele>
        <time>2020-01-15T06:47:36Z</time>
      </trkpt>
      <trkpt lat="59.325796" lon="18.075657">
        <ele>2</ele>
        <time>2020-01-15T06:47:38Z</time>
      </trkpt>
      <trkpt lat="59.325822" lon="18.075641">
        <ele>2</ele>
        <time>2020-01-15T06:47:39Z</time>
      </trkpt>
      <trkpt lat="59.325847" lon="18.075626">
        <ele>2</ele>
        <time>2020-01-15T06:47:40Z</time>
      </trkpt>
      <trkpt lat="59.32587" lon="18.075614">
        <ele>2</ele>
        <time>2020-01-15T06:47:41Z</time>
      </trkpt>
      <trkpt lat="59.325891" lon="18.075588">
        <ele>2</ele>
        <time>2020-01-15T06:47:42Z</time>
      </trkpt>
      <trkpt lat="59.325915" lon="18.075565">
        <ele>2</ele>
        <time>2020-01-15T06:47:43Z</time>
      </trkpt>
      <trkpt lat="59.325938" lon="18.075535">
        <ele>2</ele>
        <time>2020-01-15T06:47:44Z</time>
      </trkpt>
      <trkpt lat="59.325965" lon="18.075515">
        <ele>2</ele>
        <time>2020-01-15T06:47:45Z</time>
      </trkpt>
      <trkpt lat="59.325988" lon="18.075493">
        <ele>2</ele>
        <time>2020-01-15T06:47:46Z</time>
      </trkpt>
      <trkpt lat="59.32601" lon="18.075464">
        <ele>2</ele>
        <time>2020-01-15T06:47:47Z</time>
      </trkpt>
      <trkpt lat="59.326037" lon="18.075439">
        <ele>2</ele>
        <time>2020-01-15T06:47:48Z</time>
      </trkpt>
      <trkpt lat="59.326057" lon="18.075415">
        <ele>1</ele>
        <time>2020-01-15T06:47:49Z</time>
      </trkpt>
      <trkpt lat="59.326081" lon="18.075391">
        <ele>1</ele>
        <time>2020-01-15T06:47:50Z</time>
      </trkpt>
      <trkpt lat="59.326103" lon="18.075375">
        <ele>0</ele>
        <time>2020-01-15T06:47:50Z</time>
      </trkpt>
      <trkpt lat="59.326121" lon="18.075348">
        <ele>2</ele>
        <time>2020-01-15T06:47:51Z</time>
      </trkpt>
      <trkpt lat="59.32614" lon="18.075317">
        <ele>2</ele>
        <time>2020-01-15T06:47:53Z</time>
      </trkpt>
      <trkpt lat="59.32616" lon="18.075286">
        <ele>2</ele>
        <time>2020-01-15T06:47:54Z</time>
      </trkpt>
      <trkpt lat="59.326181" lon="18.07526">
        <ele>2</ele>
        <time>2020-01-15T06:47:55Z</time>
      </trkpt>
      <trkpt lat="59.326203" lon="18.075236">
        <ele>0</ele>
        <time>2020-01-15T06:47:55Z</time>
      </trkpt>
      <trkpt lat="59.326226" lon="18.075211">
        <ele>2</ele>
        <time>2020-01-15T06:47:56Z</time>
      </trkpt>
      <trkpt lat="59.326247" lon="18.075188">
        <ele>2</ele>
        <time>2020-01-15T06:47:58Z</time>
      </trkpt>
      <trkpt lat="59.326267" lon="18.075163">
        <ele>2</ele>
        <time>2020-01-15T06:47:59Z</time>
      </trkpt>
      <trkpt lat="59.326287" lon="18.075139">
        <ele>3</ele>
        <time>2020-01-15T06:48:00Z</time>
      </trkpt>
      <trkpt lat="59.326308" lon="18.075115">
        <ele>2</ele>
        <time>2020-01-15T06:48:01Z</time>
      </trkpt>
      <trkpt lat="59.32633" lon="18.07509">
        <ele>2</ele>
        <time>2020-01-15T06:48:02Z</time>
      </trkpt>
      <trkpt lat="59.32635" lon="18.075067">
        <ele>2</ele>
        <time>2020-01-15T06:48:03Z</time>
      </trkpt>
      <trkpt lat="59.32637" lon="18.075048">
        <ele>2</ele>
        <time>2020-01-15T06:48:04Z</time>
      </trkpt>
      <trkpt lat="59.32639" lon="18.075031">
        <ele>2</ele>
        <time>2020-01-15T06:48:05Z</time>
      </trkpt>
      <trkpt lat="59.326411" lon="18.075008">
        <ele>2</ele>
        <time>2020-01-15T06:48:06Z</time>
      </trkpt>
      <trkpt lat="59.326432" lon="18.074989">
        <ele>2</ele>
        <time>2020-01-15T06:48:07Z</time>
      </trkpt>
      <trkpt lat="59.326452" lon="18.074964">
        <ele>3</ele>
        <time>2020-01-15T06:48:08Z</time>
      </trkpt>
      <trkpt lat="59.326472" lon="18.074936">
        <ele>3</ele>
        <time>2020-01-15T06:48:09Z</time>
      </trkpt>
      <trkpt lat="59.326493" lon="18.074911">
        <ele>0</ele>
        <time>2020-01-15T06:48:09Z</time>
      </trkpt>
      <trkpt lat="59.326514" lon="18.074887">
        <ele>3</ele>
        <time>2020-01-15T06:48:10Z</time>
      </trkpt>
      <trkpt lat="59.326538" lon="18.074866">
        <ele>3</ele>
        <time>2020-01-15T06:48:12Z</time>
      </trkpt>
      <trkpt lat="59.326563" lon="18.074846">
        <ele>3</ele>
        <time>2020-01-15T06:48:13Z</time>
      </trkpt>
      <trkpt lat="59.326586" lon="18.074829">
        <ele>3</ele>
        <time>2020-01-15T06:48:14Z</time>
      </trkpt>
      <trkpt lat="59.326607" lon="18.07481">
        <ele>3</ele>
        <time>2020-01-15T06:48:15Z</time>
      </trkpt>
      <trkpt lat="59.32663" lon="18.07479">
        <ele>0</ele>
        <time>2020-01-15T06:48:15Z</time>
      </trkpt>
      <trkpt lat="59.326654" lon="18.07477">
        <ele>3</ele>
        <time>2020-01-15T06:48:16Z</time>
      </trkpt>
      <trkpt lat="59.326676" lon="18.074752">
        <ele>3</ele>
        <time>2020-01-15T06:48:18Z</time>
      </trkpt>
      <trkpt lat="59.326696" lon="18.074731">
        <ele>3</ele>
        <time>2020-01-15T06:48:19Z</time>
      </trkpt>
      <trkpt lat="59.326717" lon="18.074712">
        <ele>3</ele>
        <time>2020-01-15T06:48:20Z</time>
      </trkpt>
      <trkpt lat="59.326737" lon="18.07469">
        <ele>3</ele>
        <time>2020-01-15T06:48:21Z</time>
      </trkpt>
      <trkpt lat="59.326759" lon="18.074667">
        <ele>3</ele>
        <time>2020-01-15T06:48:22Z</time>
      </trkpt>
      <trkpt lat="59.326784" lon="18.074644">
        <ele>3</ele>
        <time>2020-01-15T06:48:23Z</time>
      </trkpt>
      <trkpt lat="59.326808" lon="18.074622">
        <ele>3</ele>
        <time>2020-01-15T06:48:24Z</time>
      </trkpt>
      <trkpt lat="59.32683" lon="18.074597">
        <ele>3</ele>
        <time>2020-01-15T06:48:25Z</time>
      </trkpt>
      <trkpt lat="59.326852" lon="18.074574">
        <ele>3</ele>
        <time>2020-01-15T06:48:26Z</time>
      </trkpt>
      <trkpt lat="59.326873" lon="18.074548">
        <ele>3</ele>
        <time>2020-01-15T06:48:27Z</time>
      </trkpt>
      <trkpt lat="59.326893" lon="18.074518">
        <ele>3</ele>
        <time>2020-01-15T06:48:28Z</time>
      </trkpt>
      <trkpt lat="59.326914" lon="18.074483">
        <ele>0</ele>
        <time>2020-01-15T06:48:28Z</time>
      </trkpt>
      <trkpt lat="59.326933" lon="18.074448">
        <ele>3</ele>
        <time>2020-01-15T06:48:29Z</time>
      </trkpt>
      <trkpt lat="59.326953" lon="18.074415">
        <ele>3</ele>
        <time>2020-01-15T06:48:31Z</time>
      </trkpt>
      <trkpt lat="59.326973" lon="18.074382">
        <ele>3</ele>
        <time>2020-01-15T06:48:32Z</time>
      </trkpt>
      <trkpt lat="59.326996" lon="18.07435">
        <ele>3</ele>
        <time>2020-01-15T06:48:33Z</time>
      </trkpt>
      <trkpt lat="59.327018" lon="18.074325">
        <ele>3</ele>
        <time>2020-01-15T06:48:34Z</time>
      </trkpt>
      <trkpt lat="59.327041" lon="18.0743">
        <ele>3</ele>
        <time>2020-01-15T06:48:35Z</time>
      </trkpt>
      <trkpt lat="59.327065" lon="18.074274">
        <ele>0</ele>
        <time>2020-01-15T06:48:35Z</time>
      </trkpt>
      <trkpt lat="59.327087" lon="18.074245">
        <ele>3</ele>
        <time>2020-01-15T06:48:36Z</time>
      </trkpt>
      <trkpt lat="59.32711" lon="18.074222">
        <ele>3</ele>
        <time>2020-01-15T06:48:38Z</time>
      </trkpt>
      <trkpt lat="59.327135" lon="18.074203">
        <ele>3</ele>
        <time>2020-01-15T06:48:39Z</time>
      </trkpt>
      <trkpt lat="59.327159" lon="18.074176">
        <ele>3</ele>
        <time>2020-01-15T06:48:40Z</time>
      </trkpt>
      <trkpt lat="59.327183" lon="18.074146">
        <ele>3</ele>
        <time>2020-01-15T06:48:41Z</time>
      </trkpt>
      <trkpt lat="59.327206" lon="18.074116">
        <ele>3</ele>
        <time>2020-01-15T06:48:42Z</time>
      </trkpt>
      <trkpt lat="59.327229" lon="18.074092">
        <ele>3</ele>
        <time>2020-01-15T06:48:43Z</time>
      </trkpt>
      <trkpt lat="59.327253" lon="18.074066">
        <ele>3</ele>
        <time>2020-01-15T06:48:44Z</time>
      </trkpt>
      <trkpt lat="59.327275" lon="18.07404">
        <ele>3</ele>
        <time>2020-01-15T06:48:45Z</time>
      </trkpt>
      <trkpt lat="59.327299" lon="18.074015">
        <ele>3</ele>
        <time>2020-01-15T06:48:46Z</time>
      </trkpt>
      <trkpt lat="59.32732" lon="18.073987">
        <ele>3</ele>
        <time>2020-01-15T06:48:47Z</time>
      </trkpt>
      <trkpt lat="59.327342" lon="18.073961">
        <ele>0</ele>
        <time>2020-01-15T06:48:47Z</time>
      </trkpt>
      <trkpt lat="59.327365" lon="18.073937">
        <ele>3</ele>
        <time>2020-01-15T06:48:48Z</time>
      </trkpt>
      <trkpt lat="59.327389" lon="18.073912">
        <ele>3</ele>
        <time>2020-01-15T06:48:50Z</time>
      </trkpt>
      <trkpt lat="59.327413" lon="18.073887">
        <ele>3</ele>
        <time>2020-01-15T06:48:51Z</time>
      </trkpt>
      <trkpt lat="59.327435" lon="18.073862">
        <ele>3</ele>
        <time>2020-01-15T06:48:52Z</time>
      </trkpt>
      <trkpt lat="59.327456" lon="18.073836">
        <ele>3</ele>
        <time>2020-01-15T06:48:53Z</time>
      </trkpt>
      <trkpt lat="59.327476" lon="18.073811">
        <ele>3</ele>
        <time>2020-01-15T06:48:54Z</time>
      </trkpt>
      <trkpt lat="59.327498" lon="18.073784">
        <ele>0</ele>
        <time>2020-01-15T06:48:54Z</time>
      </trkpt>
      <trkpt lat="59.32752" lon="18.073757">
        <ele>3</ele>
        <time>2020-01-15T06:48:55Z</time>
      </trkpt>
      <trkpt lat="59.327541" lon="18.073731">
        <ele>3</ele>
        <time>2020-01-15T06:48:57Z</time>
      </trkpt>
      <trkpt lat="59.327565" lon="18.073706">
        <ele>3</ele>
        <time>2020-01-15T06:48:58Z</time>
      </trkpt>
      <trkpt lat="59.32759" lon="18.073679">
        <ele>3</ele>
        <time>2020-01-15T06:48:59Z</time>
      </trkpt>
      <trkpt lat="59.327615" lon="18.073649">
        <ele>3</ele>
        <time>2020-01-15T06:49:00Z</time>
      </trkpt>
      <trkpt lat="59.327636" lon="18.073621">
        <ele>3</ele>
        <time>2020-01-15T06:49:01Z</time>
      </trkpt>
      <trkpt lat="59.327657" lon="18.073594">
        <ele>3</ele>
        <time>2020-01-15T06:49:02Z</time>
      </trkpt>
      <trkpt lat="59.327677" lon="18.07357">
        <ele>3</ele>
        <time>2020-01-15T06:49:03Z</time>
      </trkpt>
      <trkpt lat="59.327696" lon="18.073546">
        <ele>3</ele>
        <time>2020-01-15T06:49:04Z</time>
      </trkpt>
      <trkpt lat="59.327718" lon="18.073518">
        <ele>3</ele>
        <time>2020-01-15T06:49:05Z</time>
      </trkpt>
      <trkpt lat="59.327741" lon="18.073487">
        <ele>3</ele>
        <time>2020-01-15T06:49:06Z</time>
      </trkpt>
      <trkpt lat="59.327765" lon="18.073458">
        <ele>0</ele>
        <time>2020-01-15T06:49:06Z</time>
      </trkpt>
      <trkpt lat="59.32779" lon="18.073435">
        <ele>3</ele>
        <time>2020-01-15T06:49:07Z</time>
      </trkpt>
      <trkpt lat="59.327816" lon="18.073408">
        <ele>3</ele>
        <time>2020-01-15T06:49:08Z</time>
      </trkpt>
      <trkpt lat="59.327841" lon="18.073383">
        <ele>3</ele>
        <time>2020-01-15T06:49:10Z</time>
      </trkpt>
      <trkpt lat="59.327864" lon="18.073361">
        <ele>3</ele>
        <time>2020-01-15T06:49:11Z</time>
      </trkpt>
      <trkpt lat="59.327888" lon="18.073342">
        <ele>3</ele>
        <time>2020-01-15T06:49:12Z</time>
      </trkpt>
      <trkpt lat="59.327909" lon="18.073314">
        <ele>3</ele>
        <time>2020-01-15T06:49:13Z</time>
      </trkpt>
      <trkpt lat="59.327932" lon="18.073289">
        <ele>0</ele>
        <time>2020-01-15T06:49:13Z</time>
      </trkpt>
      <trkpt lat="59.327954" lon="18.073266">
        <ele>3</ele>
        <time>2020-01-15T06:49:14Z</time>
      </trkpt>
      <trkpt lat="59.327977" lon="18.073244">
        <ele>3</ele>
        <time>2020-01-15T06:49:16Z</time>
      </trkpt>
      <trkpt lat="59.328004" lon="18.073225">
        <ele>3</ele>
        <time>2020-01-15T06:49:17Z</time>
      </trkpt>
      <trkpt lat="59.328031" lon="18.073207">
        <ele>3</ele>
        <time>2020-01-15T06:49:18Z</time>
      </trkpt>
      <trkpt lat="59.328056" lon="18.073192">
        <ele>3</ele>
        <time>2020-01-15T06:49:19Z</time>
      </trkpt>
      <trkpt lat="59.328082" lon="18.073181">
        <ele>3</ele>
        <time>2020-01-15T06:49:20Z</time>
      </trkpt>
      <trkpt lat="59.328106" lon="18.073168">
        <ele>3</ele>
        <time>2020-01-15T06:49:21Z</time>
      </trkpt>
      <trkpt lat="59.328132" lon="18.073158">
        <ele>3</ele>
        <time>2020-01-15T06:49:22Z</time>
      </trkpt>
      <trkpt lat="59.32816" lon="18.07315">
        <ele>3</ele>
        <time>2020-01-15T06:49:23Z</time>
      </trkpt>
      <trkpt lat="59.328187" lon="18.073145">
        <ele>3</ele>
        <time>2020-01-15T06:49:24Z</time>
      </trkpt>
      <trkpt lat="59.328212" lon="18.073142">
        <ele>3</ele>
        <time>2020-01-15T06:49:25Z</time>
      </trkpt>
      <trkpt lat="59.328237" lon="18.073144">
        <ele>0</ele>
        <time>2020-01-15T06:49:25Z</time>
      </trkpt>
      <trkpt lat="59.32826" lon="18.073148">
        <ele>3</ele>
        <time>2020-01-15T06:49:26Z</time>
      </trkpt>
      <trkpt lat="59.328284" lon="18.073153">
        <ele>3</ele>
        <time>2020-01-15T06:49:28Z</time>
      </trkpt>
      <trkpt lat="59.328307" lon="18.073156">
        <ele>3</ele>
        <time>2020-01-15T06:49:29Z</time>
      </trkpt>
      <trkpt lat="59.328334" lon="18.073161">
        <ele>3</ele>
        <time>2020-01-15T06:49:30Z</time>
      </trkpt>
      <trkpt lat="59.328361" lon="18.07317">
        <ele>4</ele>
        <time>2020-01-15T06:49:31Z</time>
      </trkpt>
      <trkpt lat="59.328388" lon="18.073173">
        <ele>4</ele>
        <time>2020-01-15T06:49:32Z</time>
      </trkpt>
      <trkpt lat="59.328415" lon="18.073181">
        <ele>0</ele>
        <time>2020-01-15T06:49:32Z</time>
      </trkpt>
      <trkpt lat="59.328441" lon="18.073189">
        <ele>4</ele>
        <time>2020-01-15T06:49:33Z</time>
      </trkpt>
      <trkpt lat="59.328467" lon="18.073194">
        <ele>4</ele>
        <time>2020-01-15T06:49:35Z</time>
      </trkpt>
      <trkpt lat="59.328494" lon="18.0732">
        <ele>4</ele>
        <time>2020-01-15T06:49:36Z</time>
      </trkpt>
      <trkpt lat="59.32852" lon="18.073206">
        <ele>4</ele>
        <time>2020-01-15T06:49:37Z</time>
      </trkpt>
      <trkpt lat="59.328547" lon="18.073214">
        <ele>3</ele>
        <time>2020-01-15T06:49:38Z</time>
      </trkpt>
      <trkpt lat="59.328573" lon="18.073221">
        <ele>3</ele>
        <time>2020-01-15T06:49:39Z</time>
      </trkpt>
      <trkpt lat="59.328597" lon="18.073226">
        <ele>3</ele>
        <time>2020-01-15T06:49:40Z</time>
      </trkpt>
      <trkpt lat="59.328624" lon="18.07323">
        <ele>3</ele>
        <time>2020-01-15T06:49:41Z</time>
      </trkpt>
      <trkpt lat="59.328652" lon="18.073236">
        <ele>3</ele>
        <time>2020-01-15T06:49:42Z</time>
      </trkpt>
      <trkpt lat="59.328679" lon="18.073247">
        <ele>3</ele>
        <time>2020-01-15T06:49:43Z</time>
      </trkpt>
      <trkpt lat="59.328704" lon="18.073257">
        <ele>3</ele>
        <time>2020-01-15T06:49:44Z</time>
      </trkpt>
      <trkpt lat="59.32873" lon="18.073262">
        <ele>0</ele>
        <time>2020-01-15T06:49:44Z</time>
      </trkpt>
      <trkpt lat="59.328757" lon="18.073265">
        <ele>3</ele>
        <time>2020-01-15T06:49:45Z</time>
      </trkpt>
      <trkpt lat="59.328782" lon="18.07327">
        <ele>3</ele>
        <time>2020-01-15T06:49:47Z</time>
      </trkpt>
      <trkpt lat="59.328806" lon="18.073277">
        <ele>3</ele>
        <time>2020-01-15T06:49:48Z</time>
      </trkpt>
      <trkpt lat="59.328833" lon="18.073279">
        <ele>3</ele>
        <time>2020-01-15T06:49:49Z</time>
      </trkpt>
      <trkpt lat="59.32886" lon="18.073282">
        <ele>3</ele>
        <time>2020-01-15T06:49:50Z</time>
      </trkpt>
      <trkpt lat="59.328886" lon="18.073283">
        <ele>3</ele>
        <time>2020-01-15T06:49:51Z</time>
      </trkpt>
      <trkpt lat="59.32891" lon="18.073289">
        <ele>0</ele>
        <time>2020-01-15T06:49:51Z</time>
      </trkpt>
      <trkpt lat="59.328935" lon="18.073291">
        <ele>3</ele>
        <time>2020-01-15T06:49:52Z</time>
      </trkpt>
      <trkpt lat="59.328963" lon="18.073291">
        <ele>3</ele>
        <time>2020-01-15T06:49:54Z</time>
      </trkpt>
      <trkpt lat="59.328992" lon="18.073296">
        <ele>3</ele>
        <time>2020-01-15T06:49:55Z</time>
      </trkpt>
      <trkpt lat="59.329018" lon="18.073296">
        <ele>3</ele>
        <time>2020-01-15T06:49:56Z</time>
      </trkpt>
      <trkpt lat="59.329045" lon="18.073305">
        <ele>2</ele>
        <time>2020-01-15T06:49:57Z</time>
      </trkpt>
      <trkpt lat="59.329071" lon="18.073318">
        <ele>3</ele>
        <time>2020-01-15T06:49:58Z</time>
      </trkpt>
      <trkpt lat="59.329095" lon="18.07333">
        <ele>2</ele>
        <time>2020-01-15T06:49:59Z</time>
      </trkpt>
      <trkpt lat="59.32912" lon="18.073342">
        <ele>2</ele>
        <time>2020-01-15T06:50:00Z</time>
      </trkpt>
      <trkpt lat="59.329146" lon="18.073349">
        <ele>2</ele>
        <time>2020-01-15T06:50:01Z</time>
      </trkpt>
      <trkpt lat="59.329174" lon="18.073359">
        <ele>2</ele>
        <time>2020-01-15T06:50:02Z</time>
      </trkpt>
      <trkpt lat="59.3292" lon="18.073366">
        <ele>2</ele>
        <time>2020-01-15T06:50:03Z</time>
      </trkpt>
      <trkpt lat="59.329227" lon="18.073374">
        <ele>0</ele>
        <time>2020-01-15T06:50:03Z</time>
      </trkpt>
      <trkpt lat="59.329252" lon="18.073383">
        <ele>2</ele>
        <time>2020-01-15T06:50:04Z</time>
      </trkpt>
      <trkpt lat="59.329276" lon="18.073389">
        <ele>2</ele>
        <time>2020-01-15T06:50:06Z</time>
      </trkpt>
      <trkpt lat="59.329301" lon="18.073396">
        <ele>2</ele>
        <time>2020-01-15T06:50:07Z</time>
      </trkpt>
      <trkpt lat="59.329324" lon="18.0734">
        <ele>2</ele>
        <time>2020-01-15T06:50:08Z</time>
      </trkpt>
      <trkpt lat="59.32935" lon="18.073406">
        <ele>2</ele>
        <time>2020-01-15T06:50:09Z</time>
      </trkpt>
      <trkpt lat="59.329375" lon="18.073408">
        <ele>2</ele>
        <time>2020-01-15T06:50:10Z</time>
      </trkpt>
      <trkpt lat="59.3294" lon="18.073409">
        <ele>0</ele>
        <time>2020-01-15T06:50:10Z</time>
      </trkpt>
      <trkpt lat="59.329428" lon="18.073414">
        <ele>2</ele>
        <time>2020-01-15T06:50:11Z</time>
      </trkpt>
      <trkpt lat="59.32945" lon="18.073421">
        <ele>2</ele>
        <time>2020-01-15T06:50:13Z</time>
      </trkpt>
      <trkpt lat="59.329472" lon="18.073445">
        <ele>3</ele>
        <time>2020-01-15T06:50:14Z</time>
      </trkpt>
      <trkpt lat="59.329489" lon="18.073479">
        <ele>3</ele>
        <time>2020-01-15T06:50:15Z</time>
      </trkpt>
      <trkpt lat="59.329504" lon="18.073519">
        <ele>3</ele>
        <time>2020-01-15T06:50:16Z</time>
      </trkpt>
      <trkpt lat="59.329521" lon="18.073553">
        <ele>3</ele>
        <time>2020-01-15T06:50:17Z</time>
      </trkpt>
      <trkpt lat="59.329541" lon="18.073571">
        <ele>2</ele>
        <time>2020-01-15T06:50:18Z</time>
      </trkpt>
      <trkpt lat="59.329563" lon="18.073584">
        <ele>2</ele>
        <time>2020-01-15T06:50:19Z</time>
      </trkpt>
      <trkpt lat="59.329583" lon="18.073591">
        <ele>2</ele>
        <time>2020-01-15T06:50:20Z</time>
      </trkpt>
      <trkpt lat="59.329611" lon="18.073588">
        <ele>2</ele>
        <time>2020-01-15T06:50:22Z</time>
      </trkpt>
      <trkpt lat="59.329629" lon="18.073563">
        <ele>2</ele>
        <time>2020-01-15T06:50:27Z</time>
      </trkpt>
      <trkpt lat="59.32965" lon="18.073555">
        <ele>2</ele>
        <time>2020-01-15T06:50:29Z</time>
      </trkpt>
      <trkpt lat="59.329684" lon="18.073545">
        <ele>2</ele>
        <time>2020-01-15T06:50:31Z</time>
      </trkpt>
      <trkpt lat="59.329706" lon="18.073534">
        <ele>2</ele>
        <time>2020-01-15T06:50:32Z</time>
      </trkpt>
      <trkpt lat="59.329734" lon="18.07352">
        <ele>2</ele>
        <time>2020-01-15T06:50:33Z</time>
      </trkpt>
      <trkpt lat="59.329763" lon="18.073503">
        <ele>2</ele>
        <time>2020-01-15T06:50:34Z</time>
      </trkpt>
      <trkpt lat="59.329793" lon="18.073485">
        <ele>2</ele>
        <time>2020-01-15T06:50:35Z</time>
      </trkpt>
      <trkpt lat="59.329823" lon="18.073463">
        <ele>2</ele>
        <time>2020-01-15T06:50:36Z</time>
      </trkpt>
      <trkpt lat="59.329854" lon="18.073439">
        <ele>0</ele>
        <time>2020-01-15T06:50:36Z</time>
      </trkpt>
      <trkpt lat="59.329889" lon="18.073419">
        <ele>2</ele>
        <time>2020-01-15T06:50:37Z</time>
      </trkpt>
      <trkpt lat="59.329925" lon="18.073402">
        <ele>2</ele>
        <time>2020-01-15T06:50:39Z</time>
      </trkpt>
      <trkpt lat="59.329959" lon="18.073389">
        <ele>1</ele>
        <time>2020-01-15T06:50:40Z</time>
      </trkpt>
      <trkpt lat="59.329994" lon="18.073379">
        <ele>1</ele>
        <time>2020-01-15T06:50:41Z</time>
      </trkpt>
      <trkpt lat="59.330029" lon="18.073369">
        <ele>0</ele>
        <time>2020-01-15T06:50:41Z</time>
      </trkpt>
      <trkpt lat="59.330066" lon="18.073351">
        <ele>1</ele>
        <time>2020-01-15T06:50:42Z</time>
      </trkpt>
      <trkpt lat="59.330103" lon="18.073337">
        <ele>1</ele>
        <time>2020-01-15T06:50:44Z</time>
      </trkpt>
      <trkpt lat="59.33014" lon="18.073334">
        <ele>1</ele>
        <time>2020-01-15T06:50:45Z</time>
      </trkpt>
      <trkpt lat="59.33017" lon="18.073318">
        <ele>1</ele>
        <time>2020-01-15T06:50:46Z</time>
      </trkpt>
      <trkpt lat="59.330198" lon="18.073297">
        <ele>1</ele>
        <time>2020-01-15T06:50:47Z</time>
      </trkpt>
      <trkpt lat="59.330226" lon="18.073277">
        <ele>1</ele>
        <time>2020-01-15T06:50:48Z</time>
      </trkpt>
      <trkpt lat="59.330257" lon="18.073255">
        <ele>1</ele>
        <time>2020-01-15T06:50:49Z</time>
      </trkpt>
      <trkpt lat="59.330291" lon="18.073239">
        <ele>1</ele>
        <time>2020-01-15T06:50:50Z</time>
      </trkpt>
      <trkpt lat="59.330323" lon="18.073233">
        <ele>0</ele>
        <time>2020-01-15T06:50:50Z</time>
      </trkpt>
      <trkpt lat="59.330358" lon="18.07322">
        <ele>1</ele>
        <time>2020-01-15T06:50:51Z</time>
      </trkpt>
      <trkpt lat="59.330389" lon="18.073207">
        <ele>0</ele>
        <time>2020-01-15T06:50:53Z</time>
      </trkpt>
      <trkpt lat="59.330423" lon="18.073182">
        <ele>0</ele>
        <time>2020-01-15T06:50:54Z</time>
      </trkpt>
      <trkpt lat="59.330455" lon="18.073157">
        <ele>0</ele>
        <time>2020-01-15T06:50:55Z</time>
      </trkpt>
      <trkpt lat="59.330525" lon="18.073103">
        <ele>0</ele>
        <time>2020-01-15T06:50:57Z</time>
      </trkpt>
      <trkpt lat="59.330557" lon="18.073095">
        <ele>0</ele>
        <time>2020-01-15T06:50:58Z</time>
      </trkpt>
      <trkpt lat="59.330579" lon="18.073093">
        <ele>0</ele>
        <time>2020-01-15T06:50:59Z</time>
      </trkpt>
      <trkpt lat="59.330599" lon="18.073119">
        <ele>0</ele>
        <time>2020-01-15T06:51:00Z</time>
      </trkpt>
      <trkpt lat="59.330619" lon="18.073163">
        <ele>0</ele>
        <time>2020-01-15T06:51:00Z</time>
      </trkpt>
      <trkpt lat="59.33066" lon="18.073362">
        <ele>0</ele>
        <time>2020-01-15T06:51:04Z</time>
      </trkpt>
      <trkpt lat="59.3307" lon="18.073531">
        <ele>1</ele>
        <time>2020-01-15T06:51:07Z</time>
      </trkpt>
      <trkpt lat="59.33074" lon="18.073631">
        <ele>1</ele>
        <time>2020-01-15T06:51:08Z</time>
      </trkpt>
      <trkpt lat="59.330791" lon="18.073809">
        <ele>2</ele>
        <time>2020-01-15T06:51:12Z</time>
      </trkpt>
      <trkpt lat="59.330826" lon="18.074011">
        <ele>2</ele>
        <time>2020-01-15T06:51:15Z</time>
      </trkpt>
      <trkpt lat="59.330855" lon="18.07422">
        <ele>3</ele>
        <time>2020-01-15T06:51:18Z</time>
      </trkpt>
      <trkpt lat="59.330889" lon="18.074418">
        <ele>3</ele>
        <time>2020-01-15T06:51:20Z</time>
      </trkpt>
      <trkpt lat="59.33097" lon="18.074568">
        <ele>4</ele>
        <time>2020-01-15T06:51:24Z</time>
      </trkpt>
      <trkpt lat="59.331089" lon="18.074625">
        <ele>4</ele>
        <time>2020-01-15T06:51:28Z</time>
      </trkpt>
      <trkpt lat="59.33118" lon="18.074673">
        <ele>4</ele>
        <time>2020-01-15T06:51:30Z</time>
      </trkpt>
      <trkpt lat="59.331312" lon="18.074692">
        <ele>4</ele>
        <time>2020-01-15T06:51:33Z</time>
      </trkpt>
      <trkpt lat="59.331432" lon="18.074691">
        <ele>4</ele>
        <time>2020-01-15T06:51:35Z</time>
      </trkpt>
      <trkpt lat="59.33155" lon="18.074674">
        <ele>0</ele>
        <time>2020-01-15T06:51:38Z</time>
      </trkpt>
      <trkpt lat="59.331649" lon="18.074699">
        <ele>5</ele>
        <time>2020-01-15T06:51:42Z</time>
      </trkpt>
      <trkpt lat="59.331756" lon="18.074767">
        <ele>5</ele>
        <time>2020-01-15T06:51:46Z</time>
      </trkpt>
      <trkpt lat="59.331864" lon="18.074851">
        <ele>5</ele>
        <time>2020-01-15T06:51:48Z</time>
      </trkpt>
      <trkpt lat="59.331908" lon="18.075059">
        <ele>5</ele>
        <time>2020-01-15T06:51:52Z</time>
      </trkpt>
      <trkpt lat="59.331918" lon="18.075247">
        <ele>5</ele>
        <time>2020-01-15T06:51:55Z</time>
      </trkpt>
      <trkpt lat="59.331952" lon="18.075417">
        <ele>6</ele>
        <time>2020-01-15T06:51:58Z</time>
      </trkpt>
      <trkpt lat="59.331956" lon="18.075456">
        <ele>6</ele>
        <time>2020-01-15T06:52:00Z</time>
      </trkpt>
      <trkpt lat="59.331963" lon="18.0755">
        <ele>6</ele>
        <time>2020-01-15T06:52:01Z</time>
      </trkpt>
      <trkpt lat="59.331968" lon="18.075539">
        <ele>6</ele>
        <time>2020-01-15T06:52:02Z</time>
      </trkpt>
      <trkpt lat="59.331983" lon="18.075617">
        <ele>6</ele>
        <time>2020-01-15T06:52:04Z</time>
      </trkpt>
      <trkpt lat="59.331995" lon="18.075654">
        <ele>6</ele>
        <time>2020-01-15T06:52:05Z</time>
      </trkpt>
      <trkpt lat="59.332007" lon="18.075692">
        <ele>6</ele>
        <time>2020-01-15T06:52:06Z</time>
      </trkpt>
      <trkpt lat="59.33202" lon="18.075733">
        <ele>0</ele>
        <time>2020-01-15T06:52:06Z</time>
      </trkpt>
      <trkpt lat="59.332034" lon="18.075764">
        <ele>6</ele>
        <time>2020-01-15T06:52:07Z</time>
      </trkpt>
      <trkpt lat="59.332048" lon="18.075798">
        <ele>6</ele>
        <time>2020-01-15T06:52:09Z</time>
      </trkpt>
      <trkpt lat="59.332068" lon="18.075831">
        <ele>6</ele>
        <time>2020-01-15T06:52:10Z</time>
      </trkpt>
      <trkpt lat="59.332085" lon="18.075873">
        <ele>6</ele>
        <time>2020-01-15T06:52:11Z</time>
      </trkpt>
      <trkpt lat="59.332101" lon="18.075912">
        <ele>6</ele>
        <time>2020-01-15T06:52:12Z</time>
      </trkpt>
      <trkpt lat="59.332118" lon="18.075953">
        <ele>6</ele>
        <time>2020-01-15T06:52:13Z</time>
      </trkpt>
      <trkpt lat="59.332139" lon="18.076">
        <ele>6</ele>
        <time>2020-01-15T06:52:14Z</time>
      </trkpt>
      <trkpt lat="59.332157" lon="18.076049">
        <ele>6</ele>
        <time>2020-01-15T06:52:15Z</time>
      </trkpt>
      <trkpt lat="59.332175" lon="18.076091">
        <ele>6</ele>
        <time>2020-01-15T06:52:16Z</time>
      </trkpt>
      <trkpt lat="59.332196" lon="18.076129">
        <ele>0</ele>
        <time>2020-01-15T06:52:16Z</time>
      </trkpt>
      <trkpt lat="59.332215" lon="18.076159">
        <ele>6</ele>
        <time>2020-01-15T06:52:17Z</time>
      </trkpt>
      <trkpt lat="59.332237" lon="18.076187">
        <ele>6</ele>
        <time>2020-01-15T06:52:19Z</time>
      </trkpt>
      <trkpt lat="59.332258" lon="18.076218">
        <ele>6</ele>
        <time>2020-01-15T06:52:20Z</time>
      </trkpt>
      <trkpt lat="59.332271" lon="18.076262">
        <ele>5</ele>
        <time>2020-01-15T06:52:21Z</time>
      </trkpt>
      <trkpt lat="59.332284" lon="18.076306">
        <ele>5</ele>
        <time>2020-01-15T06:52:22Z</time>
      </trkpt>
      <trkpt lat="59.332301" lon="18.076347">
        <ele>5</ele>
        <time>2020-01-15T06:52:23Z</time>
      </trkpt>
      <trkpt lat="59.332311" lon="18.076383">
        <ele>5</ele>
        <time>2020-01-15T06:52:24Z</time>
      </trkpt>
      <trkpt lat="59.332324" lon="18.076433">
        <ele>0</ele>
        <time>2020-01-15T06:52:24Z</time>
      </trkpt>
      <trkpt lat="59.332336" lon="18.076481">
        <ele>5</ele>
        <time>2020-01-15T06:52:25Z</time>
      </trkpt>
      <trkpt lat="59.332348" lon="18.076526">
        <ele>5</ele>
        <time>2020-01-15T06:52:27Z</time>
      </trkpt>
      <trkpt lat="59.332359" lon="18.076567">
        <ele>5</ele>
        <time>2020-01-15T06:52:28Z</time>
      </trkpt>
      <trkpt lat="59.33237" lon="18.076611">
        <ele>5</ele>
        <time>2020-01-15T06:52:29Z</time>
      </trkpt>
      <trkpt lat="59.332381" lon="18.076646">
        <ele>5</ele>
        <time>2020-01-15T06:52:30Z</time>
      </trkpt>
      <trkpt lat="59.332389" lon="18.076685">
        <ele>5</ele>
        <time>2020-01-15T06:52:31Z</time>
      </trkpt>
      <trkpt lat="59.332401" lon="18.076727">
        <ele>6</ele>
        <time>2020-01-15T06:52:33Z</time>
      </trkpt>
      <trkpt lat="59.332413" lon="18.076759">
        <ele>6</ele>
        <time>2020-01-15T06:52:35Z</time>
      </trkpt>
      <trkpt lat="59.332428" lon="18.076793">
        <ele>6</ele>
        <time>2020-01-15T06:52:36Z</time>
      </trkpt>
      <trkpt lat="59.332456" lon="18.076816">
        <ele>5</ele>
        <time>2020-01-15T06:52:42Z</time>
      </trkpt>
      <trkpt lat="59.332479" lon="18.076847">
        <ele>5</ele>
        <time>2020-01-15T06:52:44Z</time>
      </trkpt>
      <trkpt lat="59.332507" lon="18.076886">
        <ele>5</ele>
        <time>2020-01-15T06:52:46Z</time>
      </trkpt>
      <trkpt lat="59.332534" lon="18.076919">
        <ele>5</ele>
        <time>2020-01-15T06:52:48Z</time>
      </trkpt>
      <trkpt lat="59.33256" lon="18.07695">
        <ele>6</ele>
        <time>2020-01-15T06:52:50Z</time>
      </trkpt>
      <trkpt lat="59.332582" lon="18.076973">
        <ele>6</ele>
        <time>2020-01-15T06:52:52Z</time>
      </trkpt>
      <trkpt lat="59.332601" lon="18.07698">
        <ele>6</ele>
        <time>2020-01-15T06:52:54Z</time>
      </trkpt>
      <trkpt lat="59.332608" lon="18.077013">
        <ele>6</ele>
        <time>2020-01-15T06:52:55Z</time>
      </trkpt>
      <trkpt lat="59.33263" lon="18.07703">
        <ele>5</ele>
        <time>2020-01-15T06:53:04Z</time>
      </trkpt>
      <trkpt lat="59.332658" lon="18.077072">
        <ele>5</ele>
        <time>2020-01-15T06:53:06Z</time>
      </trkpt>
      <trkpt lat="59.33268" lon="18.077116">
        <ele>0</ele>
        <time>2020-01-15T06:53:06Z</time>
      </trkpt>
      <trkpt lat="59.3327" lon="18.07716">
        <ele>5</ele>
        <time>2020-01-15T06:53:07Z</time>
      </trkpt>
      <trkpt lat="59.332721" lon="18.077202">
        <ele>5</ele>
        <time>2020-01-15T06:53:09Z</time>
      </trkpt>
      <trkpt lat="59.332745" lon="18.077229">
        <ele>5</ele>
        <time>2020-01-15T06:53:10Z</time>
      </trkpt>
      <trkpt lat="59.332775" lon="18.077241">
        <ele>5</ele>
        <time>2020-01-15T06:53:11Z</time>
      </trkpt>
      <trkpt lat="59.332803" lon="18.07727">
        <ele>5</ele>
        <time>2020-01-15T06:53:12Z</time>
      </trkpt>
      <trkpt lat="59.332825" lon="18.077294">
        <ele>5</ele>
        <time>2020-01-15T06:53:13Z</time>
      </trkpt>
      <trkpt lat="59.332852" lon="18.077325">
        <ele>0</ele>
        <time>2020-01-15T06:53:13Z</time>
      </trkpt>
      <trkpt lat="59.332883" lon="18.077374">
        <ele>5</ele>
        <time>2020-01-15T06:53:14Z</time>
      </trkpt>
      <trkpt lat="59.33291" lon="18.077424">
        <ele>4</ele>
        <time>2020-01-15T06:53:16Z</time>
      </trkpt>
      <trkpt lat="59.332937" lon="18.077472">
        <ele>4</ele>
        <time>2020-01-15T06:53:17Z</time>
      </trkpt>
      <trkpt lat="59.332957" lon="18.077524">
        <ele>4</ele>
        <time>2020-01-15T06:53:18Z</time>
      </trkpt>
      <trkpt lat="59.332974" lon="18.077563">
        <ele>4</ele>
        <time>2020-01-15T06:53:19Z</time>
      </trkpt>
      <trkpt lat="59.333045" lon="18.077636">
        <ele>4</ele>
        <time>2020-01-15T06:53:22Z</time>
      </trkpt>
      <trkpt lat="59.333072" lon="18.077661">
        <ele>0</ele>
        <time>2020-01-15T06:53:22Z</time>
      </trkpt>
      <trkpt lat="59.333099" lon="18.077684">
        <ele>4</ele>
        <time>2020-01-15T06:53:23Z</time>
      </trkpt>
      <trkpt lat="59.33315" lon="18.077695">
        <ele>4</ele>
        <time>2020-01-15T06:53:25Z</time>
      </trkpt>
      <trkpt lat="59.333184" lon="18.077699">
        <ele>4</ele>
        <time>2020-01-15T06:53:26Z</time>
      </trkpt>
      <trkpt lat="59.33321" lon="18.077697">
        <ele>4</ele>
        <time>2020-01-15T06:53:27Z</time>
      </trkpt>
      <trkpt lat="59.33324" lon="18.077689">
        <ele>4</ele>
        <time>2020-01-15T06:53:28Z</time>
      </trkpt>
      <trkpt lat="59.333271" lon="18.077692">
        <ele>4</ele>
        <time>2020-01-15T06:53:29Z</time>
      </trkpt>
      <trkpt lat="59.333298" lon="18.077695">
        <ele>4</ele>
        <time>2020-01-15T06:53:30Z</time>
      </trkpt>
      <trkpt lat="59.333324" lon="18.077696">
        <ele>4</ele>
        <time>2020-01-15T06:53:31Z</time>
      </trkpt>
      <trkpt lat="59.33335" lon="18.077708">
        <ele>4</ele>
        <time>2020-01-15T06:53:32Z</time>
      </trkpt>
      <trkpt lat="59.333402" lon="18.077741">
        <ele>4</ele>
        <time>2020-01-15T06:53:33Z</time>
      </trkpt>
      <trkpt lat="59.33343" lon="18.077757">
        <ele>4</ele>
        <time>2020-01-15T06:53:35Z</time>
      </trkpt>
      <trkpt lat="59.333455" lon="18.077774">
        <ele>4</ele>
        <time>2020-01-15T06:53:36Z</time>
      </trkpt>
      <trkpt lat="59.333476" lon="18.077795">
        <ele>4</ele>
        <time>2020-01-15T06:53:37Z</time>
      </trkpt>
      <trkpt lat="59.333495" lon="18.07781">
        <ele>4</ele>
        <time>2020-01-15T06:53:38Z</time>
      </trkpt>
      <trkpt lat="59.333515" lon="18.077826">
        <ele>5</ele>
        <time>2020-01-15T06:53:39Z</time>
      </trkpt>
      <trkpt lat="59.33353" lon="18.077848">
        <ele>5</ele>
        <time>2020-01-15T06:53:40Z</time>
      </trkpt>
      <trkpt lat="59.333558" lon="18.077891">
        <ele>0</ele>
        <time>2020-01-15T06:53:41Z</time>
      </trkpt>
      <trkpt lat="59.333573" lon="18.077914">
        <ele>5</ele>
        <time>2020-01-15T06:53:42Z</time>
      </trkpt>
      <trkpt lat="59.333591" lon="18.077933">
        <ele>5</ele>
        <time>2020-01-15T06:53:44Z</time>
      </trkpt>
      <trkpt lat="59.333612" lon="18.077949">
        <ele>5</ele>
        <time>2020-01-15T06:53:45Z</time>
      </trkpt>
      <trkpt lat="59.333634" lon="18.077971">
        <ele>5</ele>
        <time>2020-01-15T06:53:46Z</time>
      </trkpt>
      <trkpt lat="59.333685" lon="18.077998">
        <ele>4</ele>
        <time>2020-01-15T06:53:48Z</time>
      </trkpt>
      <trkpt lat="59.333778" lon="18.078037">
        <ele>5</ele>
        <time>2020-01-15T06:53:51Z</time>
      </trkpt>
      <trkpt lat="59.333876" lon="18.078073">
        <ele>5</ele>
        <time>2020-01-15T06:53:54Z</time>
      </trkpt>
      <trkpt lat="59.333975" lon="18.0781">
        <ele>5</ele>
        <time>2020-01-15T06:53:57Z</time>
      </trkpt>
      <trkpt lat="59.334067" lon="18.0781">
        <ele>5</ele>
        <time>2020-01-15T06:53:59Z</time>
      </trkpt>
      <trkpt lat="59.33415" lon="18.078181">
        <ele>6</ele>
        <time>2020-01-15T06:54:04Z</time>
      </trkpt>
      <trkpt lat="59.334232" lon="18.078301">
        <ele>6</ele>
        <time>2020-01-15T06:54:08Z</time>
      </trkpt>
      <trkpt lat="59.33431" lon="18.078404">
        <ele>6</ele>
        <time>2020-01-15T06:54:11Z</time>
      </trkpt>
      <trkpt lat="59.334396" lon="18.078487">
        <ele>6</ele>
        <time>2020-01-15T06:54:16Z</time>
      </trkpt>
      <trkpt lat="59.334489" lon="18.07851">
        <ele>6</ele>
        <time>2020-01-15T06:54:19Z</time>
      </trkpt>
      <trkpt lat="59.334589" lon="18.078548">
        <ele>6</ele>
        <time>2020-01-15T06:54:24Z</time>
      </trkpt>
      <trkpt lat="59.334678" lon="18.078585">
        <ele>6</ele>
        <time>2020-01-15T06:54:28Z</time>
      </trkpt>
      <trkpt lat="59.334778" lon="18.078606">
        <ele>7</ele>
        <time>2020-01-15T06:54:32Z</time>
      </trkpt>
      <trkpt lat="59.334875" lon="18.078629">
        <ele>7</ele>
        <time>2020-01-15T06:54:36Z</time>
      </trkpt>
      <trkpt lat="59.334968" lon="18.078676">
        <ele>8</ele>
        <time>2020-01-15T06:54:40Z</time>
      </trkpt>
      <trkpt lat="59.335052" lon="18.078775">
        <ele>9</ele>
        <time>2020-01-15T06:54:43Z</time>
      </trkpt>
      <trkpt lat="59.335133" lon="18.078875">
        <ele>10</ele>
        <time>2020-01-15T06:54:48Z</time>
      </trkpt>
      <trkpt lat="59.335238" lon="18.078985">
        <ele>11</ele>
        <time>2020-01-15T06:54:53Z</time>
      </trkpt>
      <trkpt lat="59.335326" lon="18.07906">
        <ele>11</ele>
        <time>2020-01-15T06:54:57Z</time>
      </trkpt>
      <trkpt lat="59.33542" lon="18.079137">
        <ele>11</ele>
        <time>2020-01-15T06:55:00Z</time>
      </trkpt>
      <trkpt lat="59.335511" lon="18.079221">
        <ele>10</ele>
        <time>2020-01-15T06:55:06Z</time>
      </trkpt>
      <trkpt lat="59.335586" lon="18.079325">
        <ele>10</ele>
        <time>2020-01-15T06:55:10Z</time>
      </trkpt>
      <trkpt lat="59.33565" lon="18.079505">
        <ele>10</ele>
        <time>2020-01-15T06:55:14Z</time>
      </trkpt>
      <trkpt lat="59.335683" lon="18.079627">
        <ele>11</ele>
        <time>2020-01-15T06:55:17Z</time>
      </trkpt>
      <trkpt lat="59.33569" lon="18.079665">
        <ele>11</ele>
        <time>2020-01-15T06:55:18Z</time>
      </trkpt>
      <trkpt lat="59.335697" lon="18.079697">
        <ele>11</ele>
        <time>2020-01-15T06:55:19Z</time>
      </trkpt>
      <trkpt lat="59.335794" lon="18.079804">
        <ele>12</ele>
        <time>2020-01-15T06:55:23Z</time>
      </trkpt>
      <trkpt lat="59.335826" lon="18.079824">
        <ele>12</ele>
        <time>2020-01-15T06:55:25Z</time>
      </trkpt>
      <trkpt lat="59.335859" lon="18.079835">
        <ele>12</ele>
        <time>2020-01-15T06:55:26Z</time>
      </trkpt>
      <trkpt lat="59.33589" lon="18.079845">
        <ele>0</ele>
        <time>2020-01-15T06:55:26Z</time>
      </trkpt>
      <trkpt lat="59.335917" lon="18.07986">
        <ele>11</ele>
        <time>2020-01-15T06:55:27Z</time>
      </trkpt>
      <trkpt lat="59.335944" lon="18.079874">
        <ele>12</ele>
        <time>2020-01-15T06:55:29Z</time>
      </trkpt>
      <trkpt lat="59.335968" lon="18.079891">
        <ele>11</ele>
        <time>2020-01-15T06:55:30Z</time>
      </trkpt>
      <trkpt lat="59.335991" lon="18.079905">
        <ele>11</ele>
        <time>2020-01-15T06:55:31Z</time>
      </trkpt>
      <trkpt lat="59.336016" lon="18.079907">
        <ele>11</ele>
        <time>2020-01-15T06:55:32Z</time>
      </trkpt>
      <trkpt lat="59.336041" lon="18.079918">
        <ele>12</ele>
        <time>2020-01-15T06:55:33Z</time>
      </trkpt>
      <trkpt lat="59.336062" lon="18.079936">
        <ele>12</ele>
        <time>2020-01-15T06:55:34Z</time>
      </trkpt>
      <trkpt lat="59.336085" lon="18.079952">
        <ele>11</ele>
        <time>2020-01-15T06:55:35Z</time>
      </trkpt>
      <trkpt lat="59.336106" lon="18.079964">
        <ele>11</ele>
        <time>2020-01-15T06:55:36Z</time>
      </trkpt>
      <trkpt lat="59.336127" lon="18.079973">
        <ele>11</ele>
        <time>2020-01-15T06:55:37Z</time>
      </trkpt>
      <trkpt lat="59.336147" lon="18.079989">
        <ele>11</ele>
        <time>2020-01-15T06:55:38Z</time>
      </trkpt>
      <trkpt lat="59.336168" lon="18.080005">
        <ele>11</ele>
        <time>2020-01-15T06:55:39Z</time>
      </trkpt>
      <trkpt lat="59.336192" lon="18.08002">
        <ele>11</ele>
        <time>2020-01-15T06:55:40Z</time>
      </trkpt>
      <trkpt lat="59.336214" lon="18.080039">
        <ele>11</ele>
        <time>2020-01-15T06:55:41Z</time>
      </trkpt>
      <trkpt lat="59.336243" lon="18.08006">
        <ele>0</ele>
        <time>2020-01-15T06:55:41Z</time>
      </trkpt>
      <trkpt lat="59.336272" lon="18.08007">
        <ele>11</ele>
        <time>2020-01-15T06:55:42Z</time>
      </trkpt>
      <trkpt lat="59.336303" lon="18.080081">
        <ele>10</ele>
        <time>2020-01-15T06:55:44Z</time>
      </trkpt>
      <trkpt lat="59.336336" lon="18.080088">
        <ele>10</ele>
        <time>2020-01-15T06:55:45Z</time>
      </trkpt>
      <trkpt lat="59.336365" lon="18.080101">
        <ele>0</ele>
        <time>2020-01-15T06:55:45Z</time>
      </trkpt>
      <trkpt lat="59.336397" lon="18.08011">
        <ele>10</ele>
        <time>2020-01-15T06:55:46Z</time>
      </trkpt>
      <trkpt lat="59.336426" lon="18.080117">
        <ele>9</ele>
        <time>2020-01-15T06:55:48Z</time>
      </trkpt>
      <trkpt lat="59.336525" lon="18.080144">
        <ele>9</ele>
        <time>2020-01-15T06:55:52Z</time>
      </trkpt>
      <trkpt lat="59.336606" lon="18.080169">
        <ele>10</ele>
        <time>2020-01-15T06:55:55Z</time>
      </trkpt>
      <trkpt lat="59.336697" lon="18.080191">
        <ele>10</ele>
        <time>2020-01-15T06:55:58Z</time>
      </trkpt>
      <trkpt lat="59.336797" lon="18.08022">
        <ele>10</ele>
        <time>2020-01-15T06:56:00Z</time>
      </trkpt>
      <trkpt lat="59.336898" lon="18.08024">
        <ele>0</ele>
        <time>2020-01-15T06:56:04Z</time>
      </trkpt>
      <trkpt lat="59.336997" lon="18.080279">
        <ele>11</ele>
        <time>2020-01-15T06:56:10Z</time>
      </trkpt>
      <trkpt lat="59.337079" lon="18.080354">
        <ele>11</ele>
        <time>2020-01-15T06:56:14Z</time>
      </trkpt>
      <trkpt lat="59.337126" lon="18.080526">
        <ele>11</ele>
        <time>2020-01-15T06:56:17Z</time>
      </trkpt>
      <trkpt lat="59.337203" lon="18.080682">
        <ele>12</ele>
        <time>2020-01-15T06:56:20Z</time>
      </trkpt>
      <trkpt lat="59.337299" lon="18.080744">
        <ele>0</ele>
        <time>2020-01-15T06:56:23Z</time>
      </trkpt>
      <trkpt lat="59.337364" lon="18.08077">
        <ele>11</ele>
        <time>2020-01-15T06:56:26Z</time>
      </trkpt>
      <trkpt lat="59.33745" lon="18.080824">
        <ele>10</ele>
        <time>2020-01-15T06:56:29Z</time>
      </trkpt>
      <trkpt lat="59.337477" lon="18.08083">
        <ele>10</ele>
        <time>2020-01-15T06:56:30Z</time>
      </trkpt>
      <trkpt lat="59.337583" lon="18.08087">
        <ele>10</ele>
        <time>2020-01-15T06:56:34Z</time>
      </trkpt>
      <trkpt lat="59.337608" lon="18.080883">
        <ele>10</ele>
        <time>2020-01-15T06:56:35Z</time>
      </trkpt>
      <trkpt lat="59.337718" lon="18.080934">
        <ele>10</ele>
        <time>2020-01-15T06:56:38Z</time>
      </trkpt>
      <trkpt lat="59.337826" lon="18.080996">
        <ele>0</ele>
        <time>2020-01-15T06:56:42Z</time>
      </trkpt>
      <trkpt lat="59.337924" lon="18.081058">
        <ele>11</ele>
        <time>2020-01-15T06:56:47Z</time>
      </trkpt>
      <trkpt lat="59.338031" lon="18.081106">
        <ele>11</ele>
        <time>2020-01-15T06:56:51Z</time>
      </trkpt>
      <trkpt lat="59.338138" lon="18.08116">
        <ele>12</ele>
        <time>2020-01-15T06:56:55Z</time>
      </trkpt>
      <trkpt lat="59.338213" lon="18.081352">
        <ele>9</ele>
        <time>2020-01-15T06:57:00Z</time>
      </trkpt>
      <trkpt lat="59.338257" lon="18.081548">
        <ele>10</ele>
        <time>2020-01-15T06:57:02Z</time>
      </trkpt>
      <trkpt lat="59.338274" lon="18.081588">
        <ele>10</ele>
        <time>2020-01-15T06:57:04Z</time>
      </trkpt>
      <trkpt lat="59.338293" lon="18.081621">
        <ele>10</ele>
        <time>2020-01-15T06:57:05Z</time>
      </trkpt>
      <trkpt lat="59.338318" lon="18.081655">
        <ele>11</ele>
        <time>2020-01-15T06:57:06Z</time>
      </trkpt>
      <trkpt lat="59.338347" lon="18.081656">
        <ele>11</ele>
        <time>2020-01-15T06:57:07Z</time>
      </trkpt>
      <trkpt lat="59.338377" lon="18.081657">
        <ele>11</ele>
        <time>2020-01-15T06:57:08Z</time>
      </trkpt>
      <trkpt lat="59.338402" lon="18.081679">
        <ele>11</ele>
        <time>2020-01-15T06:57:09Z</time>
      </trkpt>
      <trkpt lat="59.338427" lon="18.081692">
        <ele>11</ele>
        <time>2020-01-15T06:57:10Z</time>
      </trkpt>
      <trkpt lat="59.338453" lon="18.081701">
        <ele>0</ele>
        <time>2020-01-15T06:57:10Z</time>
      </trkpt>
      <trkpt lat="59.338476" lon="18.081718">
        <ele>11</ele>
        <time>2020-01-15T06:57:11Z</time>
      </trkpt>
      <trkpt lat="59.338499" lon="18.081739">
        <ele>11</ele>
        <time>2020-01-15T06:57:13Z</time>
      </trkpt>
      <trkpt lat="59.338527" lon="18.081758">
        <ele>11</ele>
        <time>2020-01-15T06:57:14Z</time>
      </trkpt>
      <trkpt lat="59.338553" lon="18.081779">
        <ele>11</ele>
        <time>2020-01-15T06:57:15Z</time>
      </trkpt>
      <trkpt lat="59.338629" lon="18.081829">
        <ele>11</ele>
        <time>2020-01-15T06:57:18Z</time>
      </trkpt>
      <trkpt lat="59.338653" lon="18.081844">
        <ele>12</ele>
        <time>2020-01-15T06:57:19Z</time>
      </trkpt>
      <trkpt lat="59.338673" lon="18.081849">
        <ele>11</ele>
        <time>2020-01-15T06:57:20Z</time>
      </trkpt>
      <trkpt lat="59.338766" lon="18.081876">
        <ele>11</ele>
        <time>2020-01-15T06:57:24Z</time>
      </trkpt>
      <trkpt lat="59.338879" lon="18.081937">
        <ele>11</ele>
        <time>2020-01-15T06:57:28Z</time>
      </trkpt>
      <trkpt lat="59.338986" lon="18.081988">
        <ele>11</ele>
        <time>2020-01-15T06:57:31Z</time>
      </trkpt>
      <trkpt lat="59.339086" lon="18.082037">
        <ele>11</ele>
        <time>2020-01-15T06:57:36Z</time>
      </trkpt>
      <trkpt lat="59.339116" lon="18.082207">
        <ele>11</ele>
        <time>2020-01-15T06:57:38Z</time>
      </trkpt>
      <trkpt lat="59.339168" lon="18.082423">
        <ele>12</ele>
        <time>2020-01-15T06:57:40Z</time>
      </trkpt>
      <trkpt lat="59.339233" lon="18.082587">
        <ele>12</ele>
        <time>2020-01-15T06:57:45Z</time>
      </trkpt>
      <trkpt lat="59.339294" lon="18.082748">
        <ele>12</ele>
        <time>2020-01-15T06:57:49Z</time>
      </trkpt>
      <trkpt lat="59.339287" lon="18.082794">
        <ele>13</ele>
        <time>2020-01-15T06:57:51Z</time>
      </trkpt>
      <trkpt lat="59.33926" lon="18.082906">
        <ele>13</ele>
        <time>2020-01-15T06:57:53Z</time>
      </trkpt>
      <trkpt lat="59.339219" lon="18.083066">
        <ele>13</ele>
        <time>2020-01-15T06:57:56Z</time>
      </trkpt>
      <trkpt lat="59.339185" lon="18.083285">
        <ele>13</ele>
        <time>2020-01-15T06:58:01Z</time>
      </trkpt>
      <trkpt lat="59.339151" lon="18.083505">
        <ele>14</ele>
        <time>2020-01-15T06:58:05Z</time>
      </trkpt>
      <trkpt lat="59.339156" lon="18.083702">
        <ele>14</ele>
        <time>2020-01-15T06:58:08Z</time>
      </trkpt>
      <trkpt lat="59.339248" lon="18.083833">
        <ele>14</ele>
        <time>2020-01-15T06:58:13Z</time>
      </trkpt>
      <trkpt lat="59.339341" lon="18.083886">
        <ele>13</ele>
        <time>2020-01-15T06:58:16Z</time>
      </trkpt>
      <trkpt lat="59.339444" lon="18.083979">
        <ele>12</ele>
        <time>2020-01-15T06:58:20Z</time>
      </trkpt>
      <trkpt lat="59.339543" lon="18.083985">
        <ele>12</ele>
        <time>2020-01-15T06:58:22Z</time>
      </trkpt>
      <trkpt lat="59.339635" lon="18.084043">
        <ele>12</ele>
        <time>2020-01-15T06:58:26Z</time>
      </trkpt>
      <trkpt lat="59.339722" lon="18.084153">
        <ele>13</ele>
        <time>2020-01-15T06:58:29Z</time>
      </trkpt>
      <trkpt lat="59.33982" lon="18.084236">
        <ele>13</ele>
        <time>2020-01-15T06:58:33Z</time>
      </trkpt>
      <trkpt lat="59.339865" lon="18.084304">
        <ele>13</ele>
        <time>2020-01-15T06:58:35Z</time>
      </trkpt>
      <trkpt lat="59.339944" lon="18.084405">
        <ele>13</ele>
        <time>2020-01-15T06:58:39Z</time>
      </trkpt>
      <trkpt lat="59.340029" lon="18.084472">
        <ele>13</ele>
        <time>2020-01-15T06:58:41Z</time>
      </trkpt>
      <trkpt lat="59.340125" lon="18.084504">
        <ele>13</ele>
        <time>2020-01-15T06:58:45Z</time>
      </trkpt>
      <trkpt lat="59.340155" lon="18.084529">
        <ele>13</ele>
        <time>2020-01-15T06:58:46Z</time>
      </trkpt>
      <trkpt lat="59.340271" lon="18.084602">
        <ele>12</ele>
        <time>2020-01-15T06:58:50Z</time>
      </trkpt>
      <trkpt lat="59.340359" lon="18.084641">
        <ele>12</ele>
        <time>2020-01-15T06:58:53Z</time>
      </trkpt>
      <trkpt lat="59.340381" lon="18.084694">
        <ele>13</ele>
        <time>2020-01-15T06:58:54Z</time>
      </trkpt>
      <trkpt lat="59.340397" lon="18.084761">
        <ele>0</ele>
        <time>2020-01-15T06:58:54Z</time>
      </trkpt>
      <trkpt lat="59.340401" lon="18.084831">
        <ele>13</ele>
        <time>2020-01-15T06:58:55Z</time>
      </trkpt>
      <trkpt lat="59.340405" lon="18.084874">
        <ele>13</ele>
        <time>2020-01-15T06:58:56Z</time>
      </trkpt>
      <trkpt lat="59.340404" lon="18.084915">
        <ele>14</ele>
        <time>2020-01-15T06:58:58Z</time>
      </trkpt>
      <trkpt lat="59.340362" lon="18.08504">
        <ele>14</ele>
        <time>2020-01-15T06:59:00Z</time>
      </trkpt>
    </trkseg>
  </trk>
</gpx>